<?xml version="1.0" encoding="ISO-8859-1"?>
<gpx version="1.1" 
creator="Memory-Map 5.1.3.716 http://www.memory-map.com"
 xmlns:xsi="http://www.w3.org/2001/XMLSchema-instance"
 xmlns="http://www.topografix.com/GPX/1/1"
 xsi:schemaLocation="http://www.topografix.com/GPX/1/1 http://www.topografix.com/GPX/1/1/gpx.xsd">
<trk>
<name><![CDATA[ACTIVE LOG]]></name>
<type><![CDATA[Track]]></type>
<trkseg>
<trkpt lat="54.5122122273" lon="-2.9248566473"><ele>123</ele><time>2011-04-20T08:56:28Z</time></trkpt>
<trkpt lat="54.5122240458" lon="-2.9248952041"><ele>123</ele><time>2011-04-20T08:56:29Z</time></trkpt>
<trkpt lat="54.5120587547" lon="-2.9250056776"><ele>123</ele><time>2011-04-20T08:56:43Z</time></trkpt>
<trkpt lat="54.5119456828" lon="-2.9250857248"><ele>124</ele><time>2011-04-20T08:56:56Z</time></trkpt>
<trkpt lat="54.5120030150" lon="-2.9248025841"><ele>124</ele><time>2011-04-20T08:57:14Z</time></trkpt>
<trkpt lat="54.5119961419" lon="-2.9242973229"><ele>123</ele><time>2011-04-20T08:57:32Z</time></trkpt>
<trkpt lat="54.5119984888" lon="-2.9242738536"><ele>123</ele><time>2011-04-20T08:57:33Z</time></trkpt>
<trkpt lat="54.5120286637" lon="-2.9240174512"><ele>123</ele><time>2011-04-20T08:57:41Z</time></trkpt>
<trkpt lat="54.5120151688" lon="-2.9236478093"><ele>123</ele><time>2011-04-20T08:57:57Z</time></trkpt>
<trkpt lat="54.5120377161" lon="-2.9236083305"><ele>124</ele><time>2011-04-20T08:58:07Z</time></trkpt>
<trkpt lat="54.5120431644" lon="-2.9234380941"><ele>123</ele><time>2011-04-20T08:58:20Z</time></trkpt>
<trkpt lat="54.5120439187" lon="-2.9234425365"><ele>123</ele><time>2011-04-20T08:58:22Z</time></trkpt>
<trkpt lat="54.5118617800" lon="-2.9231016445"><ele>123</ele><time>2011-04-20T08:58:43Z</time></trkpt>
<trkpt lat="54.5118606065" lon="-2.9230969506"><ele>123</ele><time>2011-04-20T08:59:13Z</time></trkpt>
<trkpt lat="54.5117848341" lon="-2.9229734013"><ele>123</ele><time>2011-04-20T08:59:27Z</time></trkpt>
<trkpt lat="54.5114969157" lon="-2.9224636140"><ele>124</ele><time>2011-04-20T08:59:54Z</time></trkpt>
<trkpt lat="54.5113435269" lon="-2.9221828202"><ele>124</ele><time>2011-04-20T09:00:09Z</time></trkpt>
<trkpt lat="54.5112766393" lon="-2.9221896934"><ele>128</ele><time>2011-04-20T09:00:16Z</time></trkpt>
<trkpt lat="54.5112604622" lon="-2.9221723429"><ele>132</ele><time>2011-04-20T09:00:19Z</time></trkpt>
<trkpt lat="54.5112566066" lon="-2.9221807248"><ele>135</ele><time>2011-04-20T09:00:22Z</time></trkpt>
<trkpt lat="54.5112565227" lon="-2.9221819820"><ele>138</ele><time>2011-04-20T09:00:25Z</time></trkpt>
<trkpt lat="54.5112565227" lon="-2.9221819820"><ele>141</ele><time>2011-04-20T09:00:29Z</time></trkpt>
<trkpt lat="54.5112565227" lon="-2.9221823173"><ele>145</ele><time>2011-04-20T09:00:33Z</time></trkpt>
<trkpt lat="54.5112567742" lon="-2.9221815629"><ele>149</ele><time>2011-04-20T09:00:39Z</time></trkpt>
<trkpt lat="54.5112642341" lon="-2.9221759471"><ele>152</ele><time>2011-04-20T09:00:46Z</time></trkpt>
<trkpt lat="54.5112687603" lon="-2.9221673137"><ele>152</ele><time>2011-04-20T09:00:47Z</time></trkpt>
<trkpt lat="54.5112507392" lon="-2.9219907908"><ele>156</ele><time>2011-04-20T09:00:56Z</time></trkpt>
<trkpt lat="54.5111465522" lon="-2.9217725261"><ele>160</ele><time>2011-04-20T09:01:07Z</time></trkpt>
<trkpt lat="54.5110199016" lon="-2.9214735436"><ele>163</ele><time>2011-04-20T09:01:22Z</time></trkpt>
<trkpt lat="54.5108681053" lon="-2.9210609863"><ele>165</ele><time>2011-04-20T09:01:42Z</time></trkpt>
<trkpt lat="54.5106441409" lon="-2.9203307549"><ele>166</ele><time>2011-04-20T09:02:15Z</time></trkpt>
<trkpt lat="54.5106277962" lon="-2.9202656275"><ele>166</ele><time>2011-04-20T09:02:18Z</time></trkpt>
<trkpt lat="54.5105701287" lon="-2.9201708282"><ele>169</ele><time>2011-04-20T09:02:24Z</time></trkpt>
<trkpt lat="54.5105627526" lon="-2.9201510469"><ele>169</ele><time>2011-04-20T09:02:25Z</time></trkpt>
<trkpt lat="54.5105291412" lon="-2.9200818962"><ele>169</ele><time>2011-04-20T09:02:32Z</time></trkpt>
<trkpt lat="54.5105140538" lon="-2.9200343708"><ele>171</ele><time>2011-04-20T09:02:34Z</time></trkpt>
<trkpt lat="54.5104847171" lon="-2.9200041121"><ele>167</ele><time>2011-04-20T09:02:36Z</time></trkpt>
<trkpt lat="54.5104178295" lon="-2.9198906212"><ele>168</ele><time>2011-04-20T09:02:50Z</time></trkpt>
<trkpt lat="54.5104093638" lon="-2.9198782160"><ele>169</ele><time>2011-04-20T09:02:55Z</time></trkpt>
<trkpt lat="54.5103485950" lon="-2.9198531541"><ele>168</ele><time>2011-04-20T09:03:00Z</time></trkpt>
<trkpt lat="54.5103081104" lon="-2.9198273378"><ele>170</ele><time>2011-04-20T09:03:04Z</time></trkpt>
<trkpt lat="54.5102848087" lon="-2.9198230630"><ele>168</ele><time>2011-04-20T09:03:06Z</time></trkpt>
<trkpt lat="54.5102209386" lon="-2.9197777169"><ele>169</ele><time>2011-04-20T09:03:22Z</time></trkpt>
<trkpt lat="54.5102246266" lon="-2.9197657308"><ele>170</ele><time>2011-04-20T09:03:35Z</time></trkpt>
<trkpt lat="54.5102635187" lon="-2.9197133439"><ele>169</ele><time>2011-04-20T09:03:40Z</time></trkpt>
<trkpt lat="54.5103177496" lon="-2.9196878629"><ele>169</ele><time>2011-04-20T09:03:44Z</time></trkpt>
<trkpt lat="54.5103396263" lon="-2.9196787267"><ele>169</ele><time>2011-04-20T09:03:46Z</time></trkpt>
<trkpt lat="54.5103950307" lon="-2.9196970830"><ele>168</ele><time>2011-04-20T09:03:51Z</time></trkpt>
<trkpt lat="54.5105024029" lon="-2.9198586023"><ele>168</ele><time>2011-04-20T09:03:56Z</time></trkpt>
<trkpt lat="54.5106283829" lon="-2.9197442731"><ele>167</ele><time>2011-04-20T09:04:04Z</time></trkpt>
<trkpt lat="54.5106740643" lon="-2.9193642377"><ele>168</ele><time>2011-04-20T09:04:18Z</time></trkpt>
<trkpt lat="54.5107026466" lon="-2.9192090048"><ele>168</ele><time>2011-04-20T09:04:24Z</time></trkpt>
<trkpt lat="54.5106528581" lon="-2.9187158136"><ele>169</ele><time>2011-04-20T09:04:44Z</time></trkpt>
<trkpt lat="54.5106483318" lon="-2.9186538714"><ele>167</ele><time>2011-04-20T09:04:46Z</time></trkpt>
<trkpt lat="54.5106258683" lon="-2.9185988023"><ele>172</ele><time>2011-04-20T09:04:49Z</time></trkpt>
<trkpt lat="54.5106215936" lon="-2.9185735727"><ele>169</ele><time>2011-04-20T09:04:50Z</time></trkpt>
<trkpt lat="54.5105973699" lon="-2.9184502749"><ele>170</ele><time>2011-04-20T09:04:55Z</time></trkpt>
<trkpt lat="54.5105882336" lon="-2.9184026657"><ele>172</ele><time>2011-04-20T09:04:57Z</time></trkpt>
<trkpt lat="54.5105481681" lon="-2.9182628556"><ele>170</ele><time>2011-04-20T09:05:03Z</time></trkpt>
<trkpt lat="54.5105548736" lon="-2.9182012486"><ele>170</ele><time>2011-04-20T09:05:06Z</time></trkpt>
<trkpt lat="54.5104958650" lon="-2.9180361251"><ele>169</ele><time>2011-04-20T09:05:13Z</time></trkpt>
<trkpt lat="54.5104709708" lon="-2.9179357937"><ele>170</ele><time>2011-04-20T09:05:17Z</time></trkpt>
<trkpt lat="54.5104685400" lon="-2.9178313552"><ele>170</ele><time>2011-04-20T09:05:21Z</time></trkpt>
<trkpt lat="54.5103939411" lon="-2.9172996073"><ele>171</ele><time>2011-04-20T09:05:41Z</time></trkpt>
<trkpt lat="54.5103831284" lon="-2.9171079131"><ele>171</ele><time>2011-04-20T09:05:48Z</time></trkpt>
<trkpt lat="54.5102914304" lon="-2.9167283806"><ele>171</ele><time>2011-04-20T09:06:04Z</time></trkpt>
<trkpt lat="54.5102697213" lon="-2.9167329906"><ele>172</ele><time>2011-04-20T09:06:06Z</time></trkpt>
<trkpt lat="54.5102401332" lon="-2.9163738261"><ele>172</ele><time>2011-04-20T09:06:21Z</time></trkpt>
<trkpt lat="54.5102563102" lon="-2.9159800442"><ele>174</ele><time>2011-04-20T09:06:36Z</time></trkpt>
<trkpt lat="54.5102535442" lon="-2.9159595086"><ele>174</ele><time>2011-04-20T09:06:37Z</time></trkpt>
<trkpt lat="54.5102533766" lon="-2.9158465205"><ele>174</ele><time>2011-04-20T09:06:43Z</time></trkpt>
<trkpt lat="54.5101722397" lon="-2.9157285872"><ele>175</ele><time>2011-04-20T09:06:50Z</time></trkpt>
<trkpt lat="54.5101399694" lon="-2.9156575086"><ele>175</ele><time>2011-04-20T09:06:54Z</time></trkpt>
<trkpt lat="54.5100979761" lon="-2.9156233104"><ele>176</ele><time>2011-04-20T09:06:59Z</time></trkpt>
<trkpt lat="54.5100385484" lon="-2.9156143418"><ele>172</ele><time>2011-04-20T09:07:06Z</time></trkpt>
<trkpt lat="54.5100303341" lon="-2.9156232266"><ele>172</ele><time>2011-04-20T09:07:07Z</time></trkpt>
<trkpt lat="54.5100206111" lon="-2.9156363862"><ele>176</ele><time>2011-04-20T09:07:08Z</time></trkpt>
<trkpt lat="54.5099662126" lon="-2.9156767870"><ele>173</ele><time>2011-04-20T09:07:12Z</time></trkpt>
<trkpt lat="54.5099379655" lon="-2.9156946404"><ele>171</ele><time>2011-04-20T09:07:14Z</time></trkpt>
<trkpt lat="54.5098279112" lon="-2.9158093887"><ele>173</ele><time>2011-04-20T09:07:24Z</time></trkpt>
<trkpt lat="54.5097835709" lon="-2.9158622785"><ele>174</ele><time>2011-04-20T09:07:29Z</time></trkpt>
<trkpt lat="54.5097856664" lon="-2.9159029307"><ele>173</ele><time>2011-04-20T09:07:50Z</time></trkpt>
<trkpt lat="54.5097331118" lon="-2.9159238855"><ele>173</ele><time>2011-04-20T09:07:53Z</time></trkpt>
<trkpt lat="54.5094842531" lon="-2.9162477622"><ele>174</ele><time>2011-04-20T09:08:12Z</time></trkpt>
<trkpt lat="54.5094609514" lon="-2.9162802840"><ele>175</ele><time>2011-04-20T09:08:14Z</time></trkpt>
<trkpt lat="54.5093306967" lon="-2.9167125388"><ele>175</ele><time>2011-04-20T09:08:36Z</time></trkpt>
<trkpt lat="54.5091825046" lon="-2.9170556939"><ele>176</ele><time>2011-04-20T09:08:55Z</time></trkpt>
<trkpt lat="54.5091483065" lon="-2.9170900597"><ele>176</ele><time>2011-04-20T09:09:05Z</time></trkpt>
<trkpt lat="54.5091490608" lon="-2.9170596334"><ele>167</ele><time>2011-04-20T09:09:22Z</time></trkpt>
<trkpt lat="54.5091601249" lon="-2.9170480664"><ele>178</ele><time>2011-04-20T09:09:23Z</time></trkpt>
<trkpt lat="54.5091970053" lon="-2.9169996189"><ele>176</ele><time>2011-04-20T09:09:26Z</time></trkpt>
<trkpt lat="54.5092303653" lon="-2.9169608946"><ele>176</ele><time>2011-04-20T09:09:29Z</time></trkpt>
<trkpt lat="54.5092760467" lon="-2.9165096967"><ele>175</ele><time>2011-04-20T09:09:48Z</time></trkpt>
<trkpt lat="54.5093555909" lon="-2.9163051783"><ele>175</ele><time>2011-04-20T09:09:58Z</time></trkpt>
<trkpt lat="54.5094547488" lon="-2.9161056890"><ele>175</ele><time>2011-04-20T09:10:09Z</time></trkpt>
<trkpt lat="54.5094928865" lon="-2.9160309224"><ele>175</ele><time>2011-04-20T09:10:12Z</time></trkpt>
<trkpt lat="54.5094971613" lon="-2.9158189441"><ele>175</ele><time>2011-04-20T09:10:21Z</time></trkpt>
<trkpt lat="54.5094344646" lon="-2.9155340432"><ele>175</ele><time>2011-04-20T09:10:33Z</time></trkpt>
<trkpt lat="54.5094032001" lon="-2.9154459494"><ele>175</ele><time>2011-04-20T09:10:37Z</time></trkpt>
<trkpt lat="54.5094550841" lon="-2.9153406727"><ele>175</ele><time>2011-04-20T09:10:42Z</time></trkpt>
<trkpt lat="54.5094777152" lon="-2.9152785628"><ele>175</ele><time>2011-04-20T09:10:54Z</time></trkpt>
<trkpt lat="54.5094761227" lon="-2.9152866094"><ele>176</ele><time>2011-04-20T09:10:58Z</time></trkpt>
<trkpt lat="54.5094681599" lon="-2.9152055564"><ele>176</ele><time>2011-04-20T09:11:02Z</time></trkpt>
<trkpt lat="54.5094518152" lon="-2.9151092483"><ele>177</ele><time>2011-04-20T09:11:07Z</time></trkpt>
<trkpt lat="54.5094281782" lon="-2.9150194781"><ele>177</ele><time>2011-04-20T09:11:11Z</time></trkpt>
<trkpt lat="54.5093841732" lon="-2.9149204879"><ele>177</ele><time>2011-04-20T09:11:16Z</time></trkpt>
<trkpt lat="54.5093235720" lon="-2.9148253533"><ele>177</ele><time>2011-04-20T09:11:22Z</time></trkpt>
<trkpt lat="54.5092603725" lon="-2.9147475692"><ele>178</ele><time>2011-04-20T09:11:27Z</time></trkpt>
<trkpt lat="54.5092587799" lon="-2.9146334077"><ele>178</ele><time>2011-04-20T09:11:33Z</time></trkpt>
<trkpt lat="54.5092235759" lon="-2.9145916658"><ele>178</ele><time>2011-04-20T09:11:36Z</time></trkpt>
<trkpt lat="54.5091376614" lon="-2.9144089403"><ele>178</ele><time>2011-04-20T09:11:52Z</time></trkpt>
<trkpt lat="54.5090128549" lon="-2.9142504385"><ele>180</ele><time>2011-04-20T09:12:04Z</time></trkpt>
<trkpt lat="54.5088494078" lon="-2.9140497758"><ele>181</ele><time>2011-04-20T09:12:20Z</time></trkpt>
<trkpt lat="54.5087442987" lon="-2.9139156653"><ele>181</ele><time>2011-04-20T09:12:34Z</time></trkpt>
<trkpt lat="54.5087118608" lon="-2.9138829759"><ele>183</ele><time>2011-04-20T09:12:36Z</time></trkpt>
<trkpt lat="54.5086814344" lon="-2.9138296670"><ele>181</ele><time>2011-04-20T09:12:41Z</time></trkpt>
<trkpt lat="54.5086510081" lon="-2.9137534755"><ele>181</ele><time>2011-04-20T09:12:45Z</time></trkpt>
<trkpt lat="54.5086451408" lon="-2.9137188582"><ele>183</ele><time>2011-04-20T09:12:47Z</time></trkpt>
<trkpt lat="54.5085520179" lon="-2.9135767012"><ele>183</ele><time>2011-04-20T09:12:58Z</time></trkpt>
<trkpt lat="54.5085604836" lon="-2.9135032757"><ele>184</ele><time>2011-04-20T09:13:03Z</time></trkpt>
<trkpt lat="54.5085505929" lon="-2.9133064686"><ele>183</ele><time>2011-04-20T09:13:09Z</time></trkpt>
<trkpt lat="54.5085341644" lon="-2.9131771358"><ele>183</ele><time>2011-04-20T09:13:14Z</time></trkpt>
<trkpt lat="54.5085531075" lon="-2.9129460468"><ele>184</ele><time>2011-04-20T09:13:23Z</time></trkpt>
<trkpt lat="54.5085192446" lon="-2.9127639080"><ele>184</ele><time>2011-04-20T09:13:37Z</time></trkpt>
<trkpt lat="54.5084935122" lon="-2.9127608067"><ele>184</ele><time>2011-04-20T09:13:43Z</time></trkpt>
<trkpt lat="54.5085077614" lon="-2.9127165502"><ele>184</ele><time>2011-04-20T09:13:46Z</time></trkpt>
<trkpt lat="54.5084830348" lon="-2.9126219186"><ele>184</ele><time>2011-04-20T09:13:50Z</time></trkpt>
<trkpt lat="54.5084786762" lon="-2.9125562883"><ele>184</ele><time>2011-04-20T09:13:53Z</time></trkpt>
<trkpt lat="54.5084946018" lon="-2.9124274584"><ele>184</ele><time>2011-04-20T09:13:59Z</time></trkpt>
<trkpt lat="54.5084464059" lon="-2.9123643427"><ele>184</ele><time>2011-04-20T09:14:03Z</time></trkpt>
<trkpt lat="54.5083053384" lon="-2.9122532825"><ele>186</ele><time>2011-04-20T09:14:14Z</time></trkpt>
<trkpt lat="54.5082022410" lon="-2.9121376960"><ele>187</ele><time>2011-04-20T09:14:23Z</time></trkpt>
<trkpt lat="54.5080438231" lon="-2.9120174995"><ele>189</ele><time>2011-04-20T09:14:33Z</time></trkpt>
<trkpt lat="54.5078092974" lon="-2.9120285636"><ele>191</ele><time>2011-04-20T09:14:52Z</time></trkpt>
<trkpt lat="54.5077436671" lon="-2.9120768434"><ele>193</ele><time>2011-04-20T09:15:05Z</time></trkpt>
<trkpt lat="54.5076858320" lon="-2.9120262167"><ele>194</ele><time>2011-04-20T09:15:39Z</time></trkpt>
<trkpt lat="54.5076150887" lon="-2.9120216067"><ele>193</ele><time>2011-04-20T09:15:50Z</time></trkpt>
<trkpt lat="54.5075586785" lon="-2.9120450760"><ele>195</ele><time>2011-04-20T09:16:09Z</time></trkpt>
<trkpt lat="54.5075139192" lon="-2.9121663621"><ele>198</ele><time>2011-04-20T09:16:18Z</time></trkpt>
<trkpt lat="54.5074196227" lon="-2.9121902505"><ele>201</ele><time>2011-04-20T09:16:28Z</time></trkpt>
<trkpt lat="54.5072892003" lon="-2.9122428051"><ele>204</ele><time>2011-04-20T09:16:41Z</time></trkpt>
<trkpt lat="54.5072038726" lon="-2.9122886541"><ele>206</ele><time>2011-04-20T09:16:56Z</time></trkpt>
<trkpt lat="54.5070853524" lon="-2.9123941823"><ele>210</ele><time>2011-04-20T09:17:11Z</time></trkpt>
<trkpt lat="54.5070238293" lon="-2.9124457310"><ele>212</ele><time>2011-04-20T09:17:21Z</time></trkpt>
<trkpt lat="54.5069483921" lon="-2.9125648378"><ele>216</ele><time>2011-04-20T09:17:34Z</time></trkpt>
<trkpt lat="54.5068750505" lon="-2.9126672647"><ele>219</ele><time>2011-04-20T09:17:48Z</time></trkpt>
<trkpt lat="54.5068012059" lon="-2.9127371697"><ele>222</ele><time>2011-04-20T09:18:01Z</time></trkpt>
<trkpt lat="54.5067360785" lon="-2.9128002855"><ele>226</ele><time>2011-04-20T09:18:13Z</time></trkpt>
<trkpt lat="54.5066650000" lon="-2.9128794944"><ele>229</ele><time>2011-04-20T09:18:25Z</time></trkpt>
<trkpt lat="54.5066050694" lon="-2.9129294506"><ele>231</ele><time>2011-04-20T09:18:44Z</time></trkpt>
<trkpt lat="54.5065308057" lon="-2.9129862799"><ele>234</ele><time>2011-04-20T09:18:55Z</time></trkpt>
<trkpt lat="54.5064623256" lon="-2.9130694284"><ele>238</ele><time>2011-04-20T09:19:07Z</time></trkpt>
<trkpt lat="54.5064192426" lon="-2.9131693407"><ele>240</ele><time>2011-04-20T09:19:21Z</time></trkpt>
<trkpt lat="54.5064346653" lon="-2.9131862721"><ele>241</ele><time>2011-04-20T09:19:38Z</time></trkpt>
<trkpt lat="54.5064355035" lon="-2.9131876970"><ele>242</ele><time>2011-04-20T09:20:09Z</time></trkpt>
<trkpt lat="54.5064106931" lon="-2.9132001861"><ele>243</ele><time>2011-04-20T09:20:21Z</time></trkpt>
<trkpt lat="54.5063572165" lon="-2.9132522377"><ele>246</ele><time>2011-04-20T09:20:37Z</time></trkpt>
<trkpt lat="54.5063482479" lon="-2.9132539141"><ele>246</ele><time>2011-04-20T09:20:38Z</time></trkpt>
<trkpt lat="54.5063270417" lon="-2.9132773834"><ele>246</ele><time>2011-04-20T09:20:40Z</time></trkpt>
<trkpt lat="54.5062529456" lon="-2.9133405829"><ele>249</ele><time>2011-04-20T09:20:50Z</time></trkpt>
<trkpt lat="54.5062150594" lon="-2.9133752002"><ele>252</ele><time>2011-04-20T09:21:02Z</time></trkpt>
<trkpt lat="54.5062045821" lon="-2.9133708416"><ele>252</ele><time>2011-04-20T09:21:04Z</time></trkpt>
<trkpt lat="54.5061407120" lon="-2.9133934727"><ele>255</ele><time>2011-04-20T09:21:17Z</time></trkpt>
<trkpt lat="54.5061171588" lon="-2.9134538224"><ele>257</ele><time>2011-04-20T09:21:29Z</time></trkpt>
<trkpt lat="54.5060930189" lon="-2.9134948938"><ele>260</ele><time>2011-04-20T09:21:41Z</time></trkpt>
<trkpt lat="54.5060344294" lon="-2.9135331153"><ele>264</ele><time>2011-04-20T09:21:56Z</time></trkpt>
<trkpt lat="54.5060296517" lon="-2.9134806445"><ele>264</ele><time>2011-04-20T09:22:00Z</time></trkpt>
<trkpt lat="54.5059365288" lon="-2.9134915410"><ele>267</ele><time>2011-04-20T09:22:14Z</time></trkpt>
<trkpt lat="54.5058942002" lon="-2.9135545729"><ele>271</ele><time>2011-04-20T09:22:26Z</time></trkpt>
<trkpt lat="54.5058634386" lon="-2.9136192812"><ele>274</ele><time>2011-04-20T09:22:39Z</time></trkpt>
<trkpt lat="54.5058346048" lon="-2.9136456842"><ele>276</ele><time>2011-04-20T09:22:47Z</time></trkpt>
<trkpt lat="54.5058046815" lon="-2.9137429981"><ele>279</ele><time>2011-04-20T09:23:00Z</time></trkpt>
<trkpt lat="54.5057699804" lon="-2.9137850753"><ele>281</ele><time>2011-04-20T09:23:14Z</time></trkpt>
<trkpt lat="54.5057076190" lon="-2.9138116459"><ele>285</ele><time>2011-04-20T09:23:28Z</time></trkpt>
<trkpt lat="54.5056441680" lon="-2.9137782021"><ele>287</ele><time>2011-04-20T09:23:41Z</time></trkpt>
<trkpt lat="54.5056010012" lon="-2.9138341932"><ele>290</ele><time>2011-04-20T09:23:54Z</time></trkpt>
<trkpt lat="54.5056026776" lon="-2.9138410664"><ele>290</ele><time>2011-04-20T09:24:11Z</time></trkpt>
<trkpt lat="54.5055526376" lon="-2.9139406434"><ele>295</ele><time>2011-04-20T09:24:24Z</time></trkpt>
<trkpt lat="54.5054838222" lon="-2.9139584968"><ele>297</ele><time>2011-04-20T09:24:39Z</time></trkpt>
<trkpt lat="54.5054274958" lon="-2.9139680522"><ele>301</ele><time>2011-04-20T09:24:56Z</time></trkpt>
<trkpt lat="54.5054305133" lon="-2.9140545535"><ele>303</ele><time>2011-04-20T09:25:08Z</time></trkpt>
<trkpt lat="54.5054304295" lon="-2.9141672062"><ele>306</ele><time>2011-04-20T09:25:23Z</time></trkpt>
<trkpt lat="54.5053847481" lon="-2.9141949503"><ele>310</ele><time>2011-04-20T09:25:35Z</time></trkpt>
<trkpt lat="54.5053442635" lon="-2.9142276398"><ele>313</ele><time>2011-04-20T09:25:47Z</time></trkpt>
<trkpt lat="54.5053259910" lon="-2.9142328365"><ele>315</ele><time>2011-04-20T09:26:07Z</time></trkpt>
<trkpt lat="54.5052995042" lon="-2.9142288970"><ele>317</ele><time>2011-04-20T09:26:14Z</time></trkpt>
<trkpt lat="54.5052769568" lon="-2.9142366922"><ele>319</ele><time>2011-04-20T09:26:21Z</time></trkpt>
<trkpt lat="54.5052326166" lon="-2.9142557191"><ele>322</ele><time>2011-04-20T09:26:35Z</time></trkpt>
<trkpt lat="54.5052206304" lon="-2.9143215171"><ele>325</ele><time>2011-04-20T09:26:49Z</time></trkpt>
<trkpt lat="54.5052390706" lon="-2.9143235287"><ele>326</ele><time>2011-04-20T09:27:44Z</time></trkpt>
<trkpt lat="54.5052136735" lon="-2.9144156458"><ele>328</ele><time>2011-04-20T09:27:57Z</time></trkpt>
<trkpt lat="54.5051667348" lon="-2.9145524385"><ele>332</ele><time>2011-04-20T09:28:10Z</time></trkpt>
<trkpt lat="54.5051464506" lon="-2.9146031490"><ele>333</ele><time>2011-04-20T09:28:24Z</time></trkpt>
<trkpt lat="54.5051151023" lon="-2.9145935936"><ele>334</ele><time>2011-04-20T09:28:53Z</time></trkpt>
<trkpt lat="54.5050562613" lon="-2.9145313161"><ele>337</ele><time>2011-04-20T09:29:13Z</time></trkpt>
<trkpt lat="54.5050533277" lon="-2.9145195814"><ele>337</ele><time>2011-04-20T09:29:14Z</time></trkpt>
<trkpt lat="54.5050099094" lon="-2.9144696253"><ele>339</ele><time>2011-04-20T09:29:29Z</time></trkpt>
<trkpt lat="54.5049963307" lon="-2.9144884008"><ele>339</ele><time>2011-04-20T09:29:42Z</time></trkpt>
<trkpt lat="54.5049237434" lon="-2.9144119578"><ele>343</ele><time>2011-04-20T09:29:53Z</time></trkpt>
<trkpt lat="54.5049170379" lon="-2.9144166517"><ele>343</ele><time>2011-04-20T09:29:54Z</time></trkpt>
<trkpt lat="54.5048706860" lon="-2.9144704635"><ele>347</ele><time>2011-04-20T09:30:06Z</time></trkpt>
<trkpt lat="54.5048080732" lon="-2.9145099422"><ele>350</ele><time>2011-04-20T09:30:18Z</time></trkpt>
<trkpt lat="54.5047592905" lon="-2.9145407038"><ele>352</ele><time>2011-04-20T09:30:42Z</time></trkpt>
<trkpt lat="54.5047212367" lon="-2.9145573000"><ele>356</ele><time>2011-04-20T09:30:48Z</time></trkpt>
<trkpt lat="54.5047141120" lon="-2.9145588926"><ele>356</ele><time>2011-04-20T09:30:49Z</time></trkpt>
<trkpt lat="54.5046979350" lon="-2.9145593117"><ele>354</ele><time>2011-04-20T09:30:51Z</time></trkpt>
<trkpt lat="54.5046899722" lon="-2.9145604851"><ele>358</ele><time>2011-04-20T09:30:52Z</time></trkpt>
<trkpt lat="54.5046835181" lon="-2.9145630835"><ele>357</ele><time>2011-04-20T09:30:53Z</time></trkpt>
<trkpt lat="54.5046206538" lon="-2.9146000477"><ele>356</ele><time>2011-04-20T09:31:03Z</time></trkpt>
<trkpt lat="54.5045991961" lon="-2.9145764107"><ele>359</ele><time>2011-04-20T09:31:16Z</time></trkpt>
<trkpt lat="54.5045957596" lon="-2.9144562981"><ele>362</ele><time>2011-04-20T09:34:14Z</time></trkpt>
<trkpt lat="54.5045253516" lon="-2.9143773405"><ele>366</ele><time>2011-04-20T09:34:28Z</time></trkpt>
<trkpt lat="54.5045196519" lon="-2.9143742392"><ele>366</ele><time>2011-04-20T09:34:29Z</time></trkpt>
<trkpt lat="54.5044437118" lon="-2.9143584813"><ele>369</ele><time>2011-04-20T09:34:40Z</time></trkpt>
<trkpt lat="54.5044061609" lon="-2.9143552123"><ele>371</ele><time>2011-04-20T09:34:48Z</time></trkpt>
<trkpt lat="54.5043667660" lon="-2.9142717286"><ele>373</ele><time>2011-04-20T09:35:02Z</time></trkpt>
<trkpt lat="54.5042873893" lon="-2.9141915137"><ele>377</ele><time>2011-04-20T09:35:16Z</time></trkpt>
<trkpt lat="54.5042229325" lon="-2.9142508576"><ele>380</ele><time>2011-04-20T09:35:30Z</time></trkpt>
<trkpt lat="54.5041717191" lon="-2.9142875704"><ele>383</ele><time>2011-04-20T09:35:49Z</time></trkpt>
<trkpt lat="54.5041670252" lon="-2.9141746661"><ele>387</ele><time>2011-04-20T09:36:03Z</time></trkpt>
<trkpt lat="54.5041496747" lon="-2.9140180922"><ele>389</ele><time>2011-04-20T09:36:19Z</time></trkpt>
<trkpt lat="54.5040931806" lon="-2.9140827166"><ele>393</ele><time>2011-04-20T09:36:41Z</time></trkpt>
<trkpt lat="54.5040409614" lon="-2.9141122209"><ele>396</ele><time>2011-04-20T09:36:52Z</time></trkpt>
<trkpt lat="54.5040077691" lon="-2.9140361971"><ele>399</ele><time>2011-04-20T09:37:05Z</time></trkpt>
<trkpt lat="54.5039472517" lon="-2.9140500272"><ele>401</ele><time>2011-04-20T09:37:20Z</time></trkpt>
<trkpt lat="54.5039214354" lon="-2.9140651985"><ele>403</ele><time>2011-04-20T09:37:35Z</time></trkpt>
<trkpt lat="54.5039171607" lon="-2.9141121371"><ele>405</ele><time>2011-04-20T09:37:55Z</time></trkpt>
<trkpt lat="54.5038626783" lon="-2.9141978840"><ele>408</ele><time>2011-04-20T09:38:08Z</time></trkpt>
<trkpt lat="54.5038176675" lon="-2.9140974688"><ele>412</ele><time>2011-04-20T09:38:24Z</time></trkpt>
<trkpt lat="54.5037558090" lon="-2.9140500272"><ele>415</ele><time>2011-04-20T09:38:38Z</time></trkpt>
<trkpt lat="54.5037371174" lon="-2.9140263903"><ele>416</ele><time>2011-04-20T09:38:55Z</time></trkpt>
<trkpt lat="54.5036897596" lon="-2.9140386278"><ele>417</ele><time>2011-04-20T09:39:13Z</time></trkpt>
<trkpt lat="54.5036670447" lon="-2.9140289886"><ele>419</ele><time>2011-04-20T09:39:49Z</time></trkpt>
<trkpt lat="54.5036664580" lon="-2.9140288210"><ele>416</ele><time>2011-04-20T09:40:03Z</time></trkpt>
<trkpt lat="54.5036828027" lon="-2.9140416453"><ele>417</ele><time>2011-04-20T09:40:18Z</time></trkpt>
<trkpt lat="54.5036284879" lon="-2.9140864047"><ele>419</ele><time>2011-04-20T09:40:47Z</time></trkpt>
<trkpt lat="54.5035281566" lon="-2.9141061860"><ele>422</ele><time>2011-04-20T09:41:01Z</time></trkpt>
<trkpt lat="54.5034756858" lon="-2.9140838063"><ele>426</ele><time>2011-04-20T09:41:11Z</time></trkpt>
<trkpt lat="54.5034754344" lon="-2.9139237119"><ele>429</ele><time>2011-04-20T09:41:27Z</time></trkpt>
<trkpt lat="54.5034941260" lon="-2.9137910264"><ele>433</ele><time>2011-04-20T09:41:41Z</time></trkpt>
<trkpt lat="54.5034705729" lon="-2.9137539784"><ele>435</ele><time>2011-04-20T09:41:57Z</time></trkpt>
<trkpt lat="54.5034000811" lon="-2.9137120689"><ele>438</ele><time>2011-04-20T09:42:18Z</time></trkpt>
<trkpt lat="54.5033386417" lon="-2.9137360411"><ele>441</ele><time>2011-04-20T09:42:32Z</time></trkpt>
<trkpt lat="54.5033026834" lon="-2.9136557425"><ele>445</ele><time>2011-04-20T09:42:51Z</time></trkpt>
<trkpt lat="54.5032718380" lon="-2.9135886873"><ele>448</ele><time>2011-04-20T09:43:08Z</time></trkpt>
<trkpt lat="54.5032518890" lon="-2.9135872623"><ele>449</ele><time>2011-04-20T09:43:27Z</time></trkpt>
<trkpt lat="54.5032072135" lon="-2.9136248133"><ele>451</ele><time>2011-04-20T09:43:47Z</time></trkpt>
<trkpt lat="54.5031868455" lon="-2.9135370547"><ele>455</ele><time>2011-04-20T09:44:00Z</time></trkpt>
<trkpt lat="54.5031509709" lon="-2.9134911219"><ele>457</ele><time>2011-04-20T09:44:14Z</time></trkpt>
<trkpt lat="54.5031170242" lon="-2.9135078019"><ele>459</ele><time>2011-04-20T09:44:29Z</time></trkpt>
<trkpt lat="54.5031006795" lon="-2.9134068838"><ele>462</ele><time>2011-04-20T09:44:46Z</time></trkpt>
<trkpt lat="54.5030461971" lon="-2.9133921316"><ele>465</ele><time>2011-04-20T09:45:00Z</time></trkpt>
<trkpt lat="54.5030358874" lon="-2.9134148466"><ele>467</ele><time>2011-04-20T09:45:26Z</time></trkpt>
<trkpt lat="54.5029854283" lon="-2.9134843326"><ele>470</ele><time>2011-04-20T09:45:45Z</time></trkpt>
<trkpt lat="54.5029808183" lon="-2.9134685746"><ele>470</ele><time>2011-04-20T09:46:10Z</time></trkpt>
<trkpt lat="54.5029525713" lon="-2.9133794750"><ele>474</ele><time>2011-04-20T09:46:24Z</time></trkpt>
<trkpt lat="54.5029514816" lon="-2.9133738591"><ele>474</ele><time>2011-04-20T09:46:25Z</time></trkpt>
<trkpt lat="54.5029379029" lon="-2.9132321211"><ele>477</ele><time>2011-04-20T09:46:40Z</time></trkpt>
<trkpt lat="54.5028960772" lon="-2.9132177042"><ele>479</ele><time>2011-04-20T09:46:55Z</time></trkpt>
<trkpt lat="54.5028349732" lon="-2.9132456160"><ele>482</ele><time>2011-04-20T09:47:28Z</time></trkpt>
<trkpt lat="54.5027867772" lon="-2.9132711808"><ele>485</ele><time>2011-04-20T09:47:40Z</time></trkpt>
<trkpt lat="54.5027331330" lon="-2.9132789759"><ele>488</ele><time>2011-04-20T09:47:54Z</time></trkpt>
<trkpt lat="54.5027102504" lon="-2.9132866873"><ele>489</ele><time>2011-04-20T09:48:10Z</time></trkpt>
<trkpt lat="54.5026782316" lon="-2.9133009365"><ele>491</ele><time>2011-04-20T09:48:25Z</time></trkpt>
<trkpt lat="54.5026441172" lon="-2.9132045446"><ele>494</ele><time>2011-04-20T09:48:42Z</time></trkpt>
<trkpt lat="54.5026244198" lon="-2.9131601206"><ele>497</ele><time>2011-04-20T09:48:53Z</time></trkpt>
<trkpt lat="54.5025944125" lon="-2.9131300295"><ele>498</ele><time>2011-04-20T09:49:12Z</time></trkpt>
<trkpt lat="54.5025773973" lon="-2.9130554306"><ele>501</ele><time>2011-04-20T09:49:24Z</time></trkpt>
<trkpt lat="54.5025581189" lon="-2.9129986013"><ele>502</ele><time>2011-04-20T09:49:44Z</time></trkpt>
<trkpt lat="54.5025426962" lon="-2.9130057259"><ele>504</ele><time>2011-04-20T09:49:49Z</time></trkpt>
<trkpt lat="54.5024780717" lon="-2.9129775627"><ele>507</ele><time>2011-04-20T09:50:01Z</time></trkpt>
<trkpt lat="54.5024211586" lon="-2.9130110065"><ele>510</ele><time>2011-04-20T09:50:15Z</time></trkpt>
<trkpt lat="54.5023715377" lon="-2.9129501539"><ele>512</ele><time>2011-04-20T09:50:30Z</time></trkpt>
<trkpt lat="54.5023416143" lon="-2.9129413529"><ele>514</ele><time>2011-04-20T09:50:44Z</time></trkpt>
<trkpt lat="54.5022997048" lon="-2.9129436998"><ele>516</ele><time>2011-04-20T09:50:59Z</time></trkpt>
<trkpt lat="54.5022614833" lon="-2.9129289477"><ele>519</ele><time>2011-04-20T09:51:10Z</time></trkpt>
<trkpt lat="54.5022119463" lon="-2.9129482260"><ele>522</ele><time>2011-04-20T09:51:24Z</time></trkpt>
<trkpt lat="54.5021592241" lon="-2.9129391736"><ele>524</ele><time>2011-04-20T09:51:44Z</time></trkpt>
<trkpt lat="54.5021164764" lon="-2.9128613057"><ele>527</ele><time>2011-04-20T09:52:01Z</time></trkpt>
<trkpt lat="54.5020707950" lon="-2.9128348189"><ele>530</ele><time>2011-04-20T09:52:13Z</time></trkpt>
<trkpt lat="54.5020653468" lon="-2.9128077454"><ele>531</ele><time>2011-04-20T09:52:29Z</time></trkpt>
<trkpt lat="54.5020331603" lon="-2.9126484892"><ele>535</ele><time>2011-04-20T09:52:45Z</time></trkpt>
<trkpt lat="54.5019718886" lon="-2.9126056577"><ele>537</ele><time>2011-04-20T09:52:57Z</time></trkpt>
<trkpt lat="54.5018504348" lon="-2.9126044004"><ele>539</ele><time>2011-04-20T09:53:10Z</time></trkpt>
<trkpt lat="54.5018003949" lon="-2.9125476549"><ele>541</ele><time>2011-04-20T09:53:28Z</time></trkpt>
<trkpt lat="54.5017986347" lon="-2.9125562883"><ele>540</ele><time>2011-04-20T09:54:09Z</time></trkpt>
<trkpt lat="54.5017883249" lon="-2.9125371775"><ele>540</ele><time>2011-04-20T09:56:49Z</time></trkpt>
<trkpt lat="54.5017174978" lon="-2.9124816055"><ele>543</ele><time>2011-04-20T09:56:58Z</time></trkpt>
<trkpt lat="54.5016067729" lon="-2.9124166458"><ele>544</ele><time>2011-04-20T09:57:17Z</time></trkpt>
<trkpt lat="54.5015461717" lon="-2.9123755744"><ele>546</ele><time>2011-04-20T09:57:23Z</time></trkpt>
<trkpt lat="54.5014931981" lon="-2.9123475789"><ele>548</ele><time>2011-04-20T09:57:30Z</time></trkpt>
<trkpt lat="54.5012823094" lon="-2.9122580601"><ele>550</ele><time>2011-04-20T09:57:51Z</time></trkpt>
<trkpt lat="54.5012167629" lon="-2.9122312381"><ele>552</ele><time>2011-04-20T09:57:58Z</time></trkpt>
<trkpt lat="54.5011121568" lon="-2.9121304876"><ele>554</ele><time>2011-04-20T09:58:09Z</time></trkpt>
<trkpt lat="54.5010172736" lon="-2.9120988878"><ele>556</ele><time>2011-04-20T09:58:30Z</time></trkpt>
<trkpt lat="54.5008959037" lon="-2.9119316688"><ele>559</ele><time>2011-04-20T09:58:46Z</time></trkpt>
<trkpt lat="54.5007502262" lon="-2.9118640269"><ele>563</ele><time>2011-04-20T09:59:03Z</time></trkpt>
<trkpt lat="54.5006053869" lon="-2.9117926131"><ele>566</ele><time>2011-04-20T09:59:19Z</time></trkpt>
<trkpt lat="54.5005036306" lon="-2.9116760208"><ele>568</ele><time>2011-04-20T09:59:40Z</time></trkpt>
<trkpt lat="54.5004323006" lon="-2.9115968118"><ele>572</ele><time>2011-04-20T09:59:56Z</time></trkpt>
<trkpt lat="54.5003410217" lon="-2.9115523039"><ele>575</ele><time>2011-04-20T10:00:12Z</time></trkpt>
<trkpt lat="54.5003324721" lon="-2.9115241407"><ele>576</ele><time>2011-04-20T10:00:16Z</time></trkpt>
<trkpt lat="54.5003038899" lon="-2.9115306786"><ele>577</ele><time>2011-04-20T10:00:35Z</time></trkpt>
<trkpt lat="54.5002302129" lon="-2.9114912836"><ele>580</ele><time>2011-04-20T10:01:03Z</time></trkpt>
<trkpt lat="54.5001289595" lon="-2.9114762800"><ele>583</ele><time>2011-04-20T10:01:19Z</time></trkpt>
<trkpt lat="54.5000598088" lon="-2.9114285870"><ele>586</ele><time>2011-04-20T10:01:36Z</time></trkpt>
<trkpt lat="54.4999910772" lon="-2.9114046148"><ele>588</ele><time>2011-04-20T10:01:50Z</time></trkpt>
<trkpt lat="54.4999821924" lon="-2.9113461929"><ele>591</ele><time>2011-04-20T10:02:13Z</time></trkpt>
<trkpt lat="54.4999532748" lon="-2.9112306903"><ele>594</ele><time>2011-04-20T10:02:29Z</time></trkpt>
<trkpt lat="54.4998687014" lon="-2.9112052093"><ele>597</ele><time>2011-04-20T10:02:45Z</time></trkpt>
<trkpt lat="54.4997848824" lon="-2.9112042873"><ele>600</ele><time>2011-04-20T10:03:01Z</time></trkpt>
<trkpt lat="54.4996935197" lon="-2.9112020242"><ele>604</ele><time>2011-04-20T10:03:17Z</time></trkpt>
<trkpt lat="54.4996278055" lon="-2.9111489667"><ele>605</ele><time>2011-04-20T10:03:37Z</time></trkpt>
<trkpt lat="54.4996296496" lon="-2.9111477094"><ele>603</ele><time>2011-04-20T10:04:12Z</time></trkpt>
<trkpt lat="54.4996291467" lon="-2.9111518166"><ele>605</ele><time>2011-04-20T10:04:14Z</time></trkpt>
<trkpt lat="54.4996286437" lon="-2.9111451110"><ele>606</ele><time>2011-04-20T10:05:25Z</time></trkpt>
<trkpt lat="54.4996287276" lon="-2.9111450272"><ele>605</ele><time>2011-04-20T10:05:27Z</time></trkpt>
<trkpt lat="54.4996275541" lon="-2.9111450272"><ele>603</ele><time>2011-04-20T10:05:34Z</time></trkpt>
<trkpt lat="54.4996274703" lon="-2.9111451110"><ele>597</ele><time>2011-04-20T10:05:38Z</time></trkpt>
<trkpt lat="54.4996274703" lon="-2.9111451110"><ele>597</ele><time>2011-04-20T10:05:39Z</time></trkpt>
<trkpt lat="54.4996274703" lon="-2.9111451110"><ele>604</ele><time>2011-04-20T10:05:40Z</time></trkpt>
<trkpt lat="54.4996275541" lon="-2.9111451110"><ele>604</ele><time>2011-04-20T10:05:41Z</time></trkpt>
<trkpt lat="54.4996077728" lon="-2.9111456978"><ele>605</ele><time>2011-04-20T10:08:41Z</time></trkpt>
<trkpt lat="54.4995592416" lon="-2.9111106614"><ele>606</ele><time>2011-04-20T10:08:46Z</time></trkpt>
<trkpt lat="54.4993922741" lon="-2.9110357272"><ele>610</ele><time>2011-04-20T10:09:03Z</time></trkpt>
<trkpt lat="54.4992828064" lon="-2.9109693425"><ele>612</ele><time>2011-04-20T10:09:15Z</time></trkpt>
<trkpt lat="54.4992181819" lon="-2.9109667441"><ele>613</ele><time>2011-04-20T10:09:21Z</time></trkpt>
<trkpt lat="54.4990563274" lon="-2.9108675024"><ele>617</ele><time>2011-04-20T10:09:38Z</time></trkpt>
<trkpt lat="54.4989602708" lon="-2.9108326337"><ele>618</ele><time>2011-04-20T10:09:48Z</time></trkpt>
<trkpt lat="54.4987659783" lon="-2.9108572765"><ele>620</ele><time>2011-04-20T10:10:11Z</time></trkpt>
<trkpt lat="54.4987612844" lon="-2.9108364055"><ele>620</ele><time>2011-04-20T10:10:55Z</time></trkpt>
<trkpt lat="54.4987658944" lon="-2.9108262634"><ele>620</ele><time>2011-04-20T10:11:44Z</time></trkpt>
<trkpt lat="54.4987629608" lon="-2.9108268502"><ele>620</ele><time>2011-04-20T10:11:56Z</time></trkpt>
<trkpt lat="54.4987578478" lon="-2.9108308735"><ele>620</ele><time>2011-04-20T10:12:26Z</time></trkpt>
<trkpt lat="54.4987613682" lon="-2.9109067297"><ele>620</ele><time>2011-04-20T10:12:44Z</time></trkpt>
<trkpt lat="54.4987632122" lon="-2.9109042151"><ele>620</ele><time>2011-04-20T10:13:50Z</time></trkpt>
<trkpt lat="54.4987572611" lon="-2.9108870322"><ele>620</ele><time>2011-04-20T10:13:54Z</time></trkpt>
<trkpt lat="54.4985538323" lon="-2.9106454658"><ele>619</ele><time>2011-04-20T10:14:13Z</time></trkpt>
<trkpt lat="54.4983018723" lon="-2.9104447192"><ele>620</ele><time>2011-04-20T10:14:32Z</time></trkpt>
<trkpt lat="54.4981217452" lon="-2.9103801786"><ele>621</ele><time>2011-04-20T10:14:45Z</time></trkpt>
<trkpt lat="54.4980966833" lon="-2.9103764067"><ele>619</ele><time>2011-04-20T10:14:47Z</time></trkpt>
<trkpt lat="54.4980246827" lon="-2.9103469024"><ele>620</ele><time>2011-04-20T10:14:52Z</time></trkpt>
<trkpt lat="54.4979703680" lon="-2.9103847048"><ele>619</ele><time>2011-04-20T10:14:56Z</time></trkpt>
<trkpt lat="54.4978585534" lon="-2.9102682801"><ele>621</ele><time>2011-04-20T10:15:09Z</time></trkpt>
<trkpt lat="54.4977931746" lon="-2.9100369396"><ele>617</ele><time>2011-04-20T10:15:23Z</time></trkpt>
<trkpt lat="54.4976426356" lon="-2.9097299943"><ele>617</ele><time>2011-04-20T10:15:41Z</time></trkpt>
<trkpt lat="54.4975771729" lon="-2.9096090435"><ele>619</ele><time>2011-04-20T10:15:49Z</time></trkpt>
<trkpt lat="54.4975288094" lon="-2.9095486099"><ele>617</ele><time>2011-04-20T10:15:54Z</time></trkpt>
<trkpt lat="54.4974379495" lon="-2.9093413255"><ele>614</ele><time>2011-04-20T10:16:06Z</time></trkpt>
<trkpt lat="54.4972800345" lon="-2.9089743658"><ele>612</ele><time>2011-04-20T10:16:25Z</time></trkpt>
<trkpt lat="54.4971843131" lon="-2.9086995231"><ele>611</ele><time>2011-04-20T10:16:40Z</time></trkpt>
<trkpt lat="54.4970037669" lon="-2.9082470680"><ele>610</ele><time>2011-04-20T10:17:03Z</time></trkpt>
<trkpt lat="54.4968412418" lon="-2.9079940184"><ele>611</ele><time>2011-04-20T10:17:20Z</time></trkpt>
<trkpt lat="54.4966794711" lon="-2.9078677031"><ele>611</ele><time>2011-04-20T10:17:41Z</time></trkpt>
<trkpt lat="54.4966674850" lon="-2.9078583992"><ele>611</ele><time>2011-04-20T10:17:42Z</time></trkpt>
<trkpt lat="54.4966264975" lon="-2.9077898352"><ele>610</ele><time>2011-04-20T10:17:46Z</time></trkpt>
<trkpt lat="54.4963797342" lon="-2.9075185968"><ele>611</ele><time>2011-04-20T10:18:08Z</time></trkpt>
<trkpt lat="54.4961764731" lon="-2.9073807983"><ele>610</ele><time>2011-04-20T10:18:24Z</time></trkpt>
<trkpt lat="54.4961512436" lon="-2.9073316804"><ele>610</ele><time>2011-04-20T10:18:27Z</time></trkpt>
<trkpt lat="54.4960961745" lon="-2.9072953867"><ele>609</ele><time>2011-04-20T10:18:31Z</time></trkpt>
<trkpt lat="54.4958629061" lon="-2.9071611925"><ele>606</ele><time>2011-04-20T10:18:49Z</time></trkpt>
<trkpt lat="54.4956997104" lon="-2.9070659740"><ele>605</ele><time>2011-04-20T10:19:02Z</time></trkpt>
<trkpt lat="54.4956750676" lon="-2.9070675666"><ele>604</ele><time>2011-04-20T10:19:04Z</time></trkpt>
<trkpt lat="54.4956223455" lon="-2.9070204603"><ele>605</ele><time>2011-04-20T10:19:25Z</time></trkpt>
<trkpt lat="54.4956229322" lon="-2.9070186163"><ele>605</ele><time>2011-04-20T10:20:05Z</time></trkpt>
<trkpt lat="54.4953817849" lon="-2.9069122499"><ele>602</ele><time>2011-04-20T10:20:25Z</time></trkpt>
<trkpt lat="54.4950610094" lon="-2.9066590326"><ele>599</ele><time>2011-04-20T10:20:51Z</time></trkpt>
<trkpt lat="54.4949514579" lon="-2.9065416022"><ele>596</ele><time>2011-04-20T10:21:01Z</time></trkpt>
<trkpt lat="54.4947168485" lon="-2.9063924043"><ele>593</ele><time>2011-04-20T10:21:19Z</time></trkpt>
<trkpt lat="54.4944059637" lon="-2.9060924998"><ele>592</ele><time>2011-04-20T10:21:45Z</time></trkpt>
<trkpt lat="54.4941677500" lon="-2.9058257038"><ele>593</ele><time>2011-04-20T10:22:07Z</time></trkpt>
<trkpt lat="54.4939515807" lon="-2.9055880769"><ele>596</ele><time>2011-04-20T10:22:27Z</time></trkpt>
<trkpt lat="54.4938318033" lon="-2.9054804532"><ele>597</ele><time>2011-04-20T10:22:38Z</time></trkpt>
<trkpt lat="54.4935681925" lon="-2.9052768568"><ele>599</ele><time>2011-04-20T10:23:00Z</time></trkpt>
<trkpt lat="54.4933885683" lon="-2.9051683112"><ele>599</ele><time>2011-04-20T10:23:19Z</time></trkpt>
<trkpt lat="54.4932396219" lon="-2.9050511322"><ele>600</ele><time>2011-04-20T10:23:45Z</time></trkpt>
<trkpt lat="54.4929794476" lon="-2.9048937200"><ele>602</ele><time>2011-04-20T10:24:05Z</time></trkpt>
<trkpt lat="54.4928842292" lon="-2.9048328674"><ele>603</ele><time>2011-04-20T10:24:13Z</time></trkpt>
<trkpt lat="54.4925549042" lon="-2.9046172848"><ele>606</ele><time>2011-04-20T10:24:39Z</time></trkpt>
<trkpt lat="54.4922822409" lon="-2.9044726970"><ele>609</ele><time>2011-04-20T10:25:02Z</time></trkpt>
<trkpt lat="54.4921132617" lon="-2.9043517462"><ele>612</ele><time>2011-04-20T10:25:20Z</time></trkpt>
<trkpt lat="54.4919498984" lon="-2.9042573659"><ele>615</ele><time>2011-04-20T10:25:37Z</time></trkpt>
<trkpt lat="54.4918090824" lon="-2.9041496585"><ele>618</ele><time>2011-04-20T10:25:53Z</time></trkpt>
<trkpt lat="54.4917711124" lon="-2.9041121075"><ele>620</ele><time>2011-04-20T10:25:58Z</time></trkpt>
<trkpt lat="54.4916050669" lon="-2.9040300487"><ele>622</ele><time>2011-04-20T10:26:14Z</time></trkpt>
<trkpt lat="54.4914815177" lon="-2.9039326510"><ele>625</ele><time>2011-04-20T10:26:30Z</time></trkpt>
<trkpt lat="54.4914693639" lon="-2.9039316452"><ele>626</ele><time>2011-04-20T10:27:01Z</time></trkpt>
<trkpt lat="54.4913597286" lon="-2.9038267037"><ele>628</ele><time>2011-04-20T10:27:37Z</time></trkpt>
<trkpt lat="54.4912443098" lon="-2.9037706288"><ele>630</ele><time>2011-04-20T10:27:51Z</time></trkpt>
<trkpt lat="54.4910899990" lon="-2.9036743207"><ele>633</ele><time>2011-04-20T10:28:09Z</time></trkpt>
<trkpt lat="54.4909874883" lon="-2.9035837124"><ele>636</ele><time>2011-04-20T10:28:23Z</time></trkpt>
<trkpt lat="54.4908260528" lon="-2.9034819561"><ele>638</ele><time>2011-04-20T10:28:40Z</time></trkpt>
<trkpt lat="54.4906422377" lon="-2.9033916830"><ele>641</ele><time>2011-04-20T10:29:00Z</time></trkpt>
<trkpt lat="54.4905087978" lon="-2.9032789464"><ele>644</ele><time>2011-04-20T10:29:18Z</time></trkpt>
<trkpt lat="54.4903688200" lon="-2.9032075326"><ele>647</ele><time>2011-04-20T10:29:35Z</time></trkpt>
<trkpt lat="54.4902829893" lon="-2.9031299999"><ele>649</ele><time>2011-04-20T10:29:45Z</time></trkpt>
<trkpt lat="54.4901307740" lon="-2.9030428282"><ele>653</ele><time>2011-04-20T10:30:03Z</time></trkpt>
<trkpt lat="54.4900411714" lon="-2.9029931235"><ele>654</ele><time>2011-04-20T10:30:20Z</time></trkpt>
<trkpt lat="54.4899115034" lon="-2.9028961448"><ele>658</ele><time>2011-04-20T10:30:35Z</time></trkpt>
<trkpt lat="54.4897447873" lon="-2.9028186122"><ele>662</ele><time>2011-04-20T10:30:52Z</time></trkpt>
<trkpt lat="54.4896447074" lon="-2.9027610286"><ele>663</ele><time>2011-04-20T10:31:11Z</time></trkpt>
<trkpt lat="54.4895177216" lon="-2.9026595237"><ele>667</ele><time>2011-04-20T10:31:27Z</time></trkpt>
<trkpt lat="54.4893841979" lon="-2.9025514810"><ele>670</ele><time>2011-04-20T10:31:43Z</time></trkpt>
<trkpt lat="54.4892396100" lon="-2.9024853478"><ele>673</ele><time>2011-04-20T10:31:59Z</time></trkpt>
<trkpt lat="54.4891795956" lon="-2.9024289376"><ele>674</ele><time>2011-04-20T10:32:28Z</time></trkpt>
<trkpt lat="54.4890573875" lon="-2.9023372395"><ele>677</ele><time>2011-04-20T10:32:50Z</time></trkpt>
<trkpt lat="54.4888855584" lon="-2.9022420211"><ele>681</ele><time>2011-04-20T10:33:08Z</time></trkpt>
<trkpt lat="54.4887206864" lon="-2.9021114311"><ele>684</ele><time>2011-04-20T10:33:24Z</time></trkpt>
<trkpt lat="54.4885448341" lon="-2.9019758957"><ele>687</ele><time>2011-04-20T10:33:43Z</time></trkpt>
<trkpt lat="54.4883910262" lon="-2.9018657575"><ele>690</ele><time>2011-04-20T10:34:01Z</time></trkpt>
<trkpt lat="54.4882481147" lon="-2.9017927511"><ele>693</ele><time>2011-04-20T10:34:16Z</time></trkpt>
<trkpt lat="54.4880802252" lon="-2.9016920845"><ele>696</ele><time>2011-04-20T10:34:34Z</time></trkpt>
<trkpt lat="54.4879060492" lon="-2.9015558785"><ele>699</ele><time>2011-04-20T10:34:53Z</time></trkpt>
<trkpt lat="54.4878343001" lon="-2.9014975405"><ele>701</ele><time>2011-04-20T10:35:01Z</time></trkpt>
<trkpt lat="54.4878259182" lon="-2.9014887395"><ele>701</ele><time>2011-04-20T10:35:02Z</time></trkpt>
<trkpt lat="54.4876443662" lon="-2.9013550481"><ele>704</ele><time>2011-04-20T10:35:20Z</time></trkpt>
<trkpt lat="54.4874368303" lon="-2.9012392940"><ele>705</ele><time>2011-04-20T10:35:38Z</time></trkpt>
<trkpt lat="54.4872475669" lon="-2.9011128949"><ele>707</ele><time>2011-04-20T10:35:57Z</time></trkpt>
<trkpt lat="54.4871855408" lon="-2.9011196843"><ele>709</ele><time>2011-04-20T10:36:15Z</time></trkpt>
<trkpt lat="54.4871235986" lon="-2.9010624359"><ele>709</ele><time>2011-04-20T10:36:22Z</time></trkpt>
<trkpt lat="54.4870751512" lon="-2.9010218675"><ele>710</ele><time>2011-04-20T10:36:27Z</time></trkpt>
<trkpt lat="54.4868304834" lon="-2.9008823926"><ele>713</ele><time>2011-04-20T10:36:51Z</time></trkpt>
<trkpt lat="54.4866126378" lon="-2.9007410737"><ele>716</ele><time>2011-04-20T10:37:12Z</time></trkpt>
<trkpt lat="54.4865332611" lon="-2.9006647984"><ele>717</ele><time>2011-04-20T10:37:21Z</time></trkpt>
<trkpt lat="54.4863203608" lon="-2.9005049555"><ele>720</ele><time>2011-04-20T10:37:41Z</time></trkpt>
<trkpt lat="54.4862029303" lon="-2.9004197116"><ele>721</ele><time>2011-04-20T10:37:52Z</time></trkpt>
<trkpt lat="54.4861809697" lon="-2.9004208850"><ele>722</ele><time>2011-04-20T10:37:54Z</time></trkpt>
<trkpt lat="54.4860026867" lon="-2.9002990960"><ele>724</ele><time>2011-04-20T10:38:12Z</time></trkpt>
<trkpt lat="54.4857633833" lon="-2.9001721101"><ele>727</ele><time>2011-04-20T10:38:37Z</time></trkpt>
<trkpt lat="54.4857498046" lon="-2.9001664943"><ele>727</ele><time>2011-04-20T10:39:10Z</time></trkpt>
<trkpt lat="54.4857228149" lon="-2.9001602078"><ele>728</ele><time>2011-04-20T10:39:13Z</time></trkpt>
<trkpt lat="54.4856840067" lon="-2.9001379958"><ele>729</ele><time>2011-04-20T10:39:18Z</time></trkpt>
<trkpt lat="54.4855446995" lon="-2.9002032070"><ele>733</ele><time>2011-04-20T10:39:37Z</time></trkpt>
<trkpt lat="54.4855349765" lon="-2.9002096611"><ele>733</ele><time>2011-04-20T10:39:38Z</time></trkpt>
<trkpt lat="54.4854739562" lon="-2.9002038775"><ele>734</ele><time>2011-04-20T10:39:47Z</time></trkpt>
<trkpt lat="54.4854752135" lon="-2.9002006086"><ele>724</ele><time>2011-04-20T10:40:10Z</time></trkpt>
<trkpt lat="54.4854751297" lon="-2.9002004410"><ele>724</ele><time>2011-04-20T10:40:11Z</time></trkpt>
<trkpt lat="54.4854747944" lon="-2.9002003571"><ele>733</ele><time>2011-04-20T10:40:12Z</time></trkpt>
<trkpt lat="54.4854649038" lon="-2.9001996028"><ele>733</ele><time>2011-04-20T10:40:13Z</time></trkpt>
<trkpt lat="54.4852931586" lon="-2.9001372414"><ele>734</ele><time>2011-04-20T10:40:27Z</time></trkpt>
<trkpt lat="54.4850546096" lon="-2.9002325437"><ele>736</ele><time>2011-04-20T10:40:48Z</time></trkpt>
<trkpt lat="54.4848200839" lon="-2.9003682467"><ele>739</ele><time>2011-04-20T10:41:10Z</time></trkpt>
<trkpt lat="54.4847304814" lon="-2.9004044565"><ele>741</ele><time>2011-04-20T10:41:19Z</time></trkpt>
<trkpt lat="54.4846754123" lon="-2.9005036982"><ele>743</ele><time>2011-04-20T10:41:27Z</time></trkpt>
<trkpt lat="54.4845408827" lon="-2.9004943105"><ele>746</ele><time>2011-04-20T10:41:44Z</time></trkpt>
<trkpt lat="54.4845326685" lon="-2.9004962383"><ele>746</ele><time>2011-04-20T10:41:51Z</time></trkpt>
<trkpt lat="54.4843225342" lon="-2.9004891975"><ele>746</ele><time>2011-04-20T10:42:10Z</time></trkpt>
<trkpt lat="54.4840866674" lon="-2.9004236510"><ele>749</ele><time>2011-04-20T10:42:31Z</time></trkpt>
<trkpt lat="54.4840020102" lon="-2.9003876089"><ele>751</ele><time>2011-04-20T10:42:42Z</time></trkpt>
<trkpt lat="54.4839401517" lon="-2.9003619602"><ele>750</ele><time>2011-04-20T10:43:01Z</time></trkpt>
<trkpt lat="54.4839409899" lon="-2.9003633013"><ele>750</ele><time>2011-04-20T10:43:02Z</time></trkpt>
<trkpt lat="54.4839405708" lon="-2.9003633852"><ele>742</ele><time>2011-04-20T10:43:03Z</time></trkpt>
<trkpt lat="54.4839409061" lon="-2.9003609544"><ele>742</ele><time>2011-04-20T10:43:04Z</time></trkpt>
<trkpt lat="54.4839328595" lon="-2.9003617926"><ele>753</ele><time>2011-04-20T10:43:05Z</time></trkpt>
<trkpt lat="54.4839212086" lon="-2.9003597809"><ele>752</ele><time>2011-04-20T10:43:06Z</time></trkpt>
<trkpt lat="54.4836852581" lon="-2.9002959947"><ele>754</ele><time>2011-04-20T10:43:24Z</time></trkpt>
<trkpt lat="54.4834156122" lon="-2.9002138520"><ele>757</ele><time>2011-04-20T10:43:46Z</time></trkpt>
<trkpt lat="54.4832196433" lon="-2.9001780613"><ele>759</ele><time>2011-04-20T10:44:05Z</time></trkpt>
<trkpt lat="54.4831330583" lon="-2.9001581124"><ele>761</ele><time>2011-04-20T10:44:14Z</time></trkpt>
<trkpt lat="54.4830805876" lon="-2.9000954995"><ele>762</ele><time>2011-04-20T10:44:32Z</time></trkpt>
<trkpt lat="54.4830222495" lon="-2.9000202300"><ele>762</ele><time>2011-04-20T10:45:03Z</time></trkpt>
<trkpt lat="54.4829304677" lon="-2.8999486486"><ele>761</ele><time>2011-04-20T10:45:11Z</time></trkpt>
<trkpt lat="54.4828805954" lon="-2.8999514146"><ele>761</ele><time>2011-04-20T10:45:15Z</time></trkpt>
<trkpt lat="54.4828593891" lon="-2.8999082478"><ele>760</ele><time>2011-04-20T10:45:18Z</time></trkpt>
<trkpt lat="54.4827474907" lon="-2.8998429528"><ele>761</ele><time>2011-04-20T10:45:27Z</time></trkpt>
<trkpt lat="54.4825441458" lon="-2.8995110294"><ele>761</ele><time>2011-04-20T10:45:49Z</time></trkpt>
<trkpt lat="54.4824855563" lon="-2.8994715507"><ele>761</ele><time>2011-04-20T10:45:54Z</time></trkpt>
<trkpt lat="54.4824640986" lon="-2.8994521885"><ele>761</ele><time>2011-04-20T10:45:56Z</time></trkpt>
<trkpt lat="54.4822407209" lon="-2.8992046709"><ele>761</ele><time>2011-04-20T10:46:17Z</time></trkpt>
<trkpt lat="54.4820517928" lon="-2.8988944566"><ele>763</ele><time>2011-04-20T10:46:39Z</time></trkpt>
<trkpt lat="54.4819994059" lon="-2.8987388047"><ele>763</ele><time>2011-04-20T10:47:00Z</time></trkpt>
<trkpt lat="54.4820287425" lon="-2.8987062829"><ele>762</ele><time>2011-04-20T10:47:15Z</time></trkpt>
<trkpt lat="54.4820309218" lon="-2.8987139943"><ele>762</ele><time>2011-04-20T10:47:45Z</time></trkpt>
<trkpt lat="54.4820327659" lon="-2.8987119826"><ele>761</ele><time>2011-04-20T10:48:40Z</time></trkpt>
<trkpt lat="54.4820337717" lon="-2.8987116473"><ele>764</ele><time>2011-04-20T10:54:07Z</time></trkpt>
<trkpt lat="54.4820336879" lon="-2.8987113959"><ele>762</ele><time>2011-04-20T10:54:09Z</time></trkpt>
<trkpt lat="54.4820447520" lon="-2.8987274053"><ele>762</ele><time>2011-04-20T11:01:11Z</time></trkpt>
<trkpt lat="54.4820507031" lon="-2.8987262318"><ele>764</ele><time>2011-04-20T11:01:24Z</time></trkpt>
<trkpt lat="54.4821885854" lon="-2.8987616873"><ele>763</ele><time>2011-04-20T11:01:35Z</time></trkpt>
<trkpt lat="54.4823181697" lon="-2.8987339432"><ele>762</ele><time>2011-04-20T11:01:44Z</time></trkpt>
<trkpt lat="54.4825759970" lon="-2.8987385532"><ele>760</ele><time>2011-04-20T11:02:03Z</time></trkpt>
<trkpt lat="54.4826371011" lon="-2.8987448397"><ele>759</ele><time>2011-04-20T11:02:08Z</time></trkpt>
<trkpt lat="54.4828415357" lon="-2.8986460170"><ele>757</ele><time>2011-04-20T11:02:23Z</time></trkpt>
<trkpt lat="54.4828863789" lon="-2.8985815602"><ele>756</ele><time>2011-04-20T11:02:27Z</time></trkpt>
<trkpt lat="54.4831038893" lon="-2.8982714298"><ele>755</ele><time>2011-04-20T11:02:47Z</time></trkpt>
<trkpt lat="54.4832622234" lon="-2.8979739560"><ele>752</ele><time>2011-04-20T11:03:08Z</time></trkpt>
<trkpt lat="54.4832702700" lon="-2.8978977645"><ele>750</ele><time>2011-04-20T11:03:15Z</time></trkpt>
<trkpt lat="54.4833028756" lon="-2.8978072400"><ele>749</ele><time>2011-04-20T11:03:21Z</time></trkpt>
<trkpt lat="54.4833186336" lon="-2.8977156258"><ele>747</ele><time>2011-04-20T11:03:27Z</time></trkpt>
<trkpt lat="54.4834544205" lon="-2.8974286294"><ele>743</ele><time>2011-04-20T11:03:45Z</time></trkpt>
<trkpt lat="54.4834592820" lon="-2.8974065012"><ele>743</ele><time>2011-04-20T11:04:08Z</time></trkpt>
<trkpt lat="54.4834608745" lon="-2.8973557068"><ele>742</ele><time>2011-04-20T11:04:21Z</time></trkpt>
<trkpt lat="54.4834910494" lon="-2.8972712173"><ele>742</ele><time>2011-04-20T11:04:25Z</time></trkpt>
<trkpt lat="54.4835279297" lon="-2.8971620849"><ele>740</ele><time>2011-04-20T11:04:31Z</time></trkpt>
<trkpt lat="54.4835514829" lon="-2.8971148110"><ele>740</ele><time>2011-04-20T11:04:34Z</time></trkpt>
<trkpt lat="54.4835716833" lon="-2.8970533716"><ele>739</ele><time>2011-04-20T11:04:37Z</time></trkpt>
<trkpt lat="54.4836126708" lon="-2.8969790241"><ele>736</ele><time>2011-04-20T11:04:41Z</time></trkpt>
<trkpt lat="54.4836264171" lon="-2.8969195126"><ele>737</ele><time>2011-04-20T11:04:44Z</time></trkpt>
<trkpt lat="54.4836047918" lon="-2.8967596697"><ele>736</ele><time>2011-04-20T11:04:59Z</time></trkpt>
<trkpt lat="54.4836280935" lon="-2.8966679717"><ele>735</ele><time>2011-04-20T11:05:03Z</time></trkpt>
<trkpt lat="54.4838068795" lon="-2.8963310192"><ele>732</ele><time>2011-04-20T11:05:20Z</time></trkpt>
<trkpt lat="54.4838407424" lon="-2.8962285923"><ele>733</ele><time>2011-04-20T11:05:25Z</time></trkpt>
<trkpt lat="54.4838837415" lon="-2.8961465335"><ele>731</ele><time>2011-04-20T11:05:29Z</time></trkpt>
<trkpt lat="54.4839201190" lon="-2.8960869382"><ele>730</ele><time>2011-04-20T11:05:33Z</time></trkpt>
<trkpt lat="54.4839885991" lon="-2.8959035421"><ele>727</ele><time>2011-04-20T11:05:43Z</time></trkpt>
<trkpt lat="54.4840149183" lon="-2.8956093373"><ele>724</ele><time>2011-04-20T11:05:56Z</time></trkpt>
<trkpt lat="54.4840046086" lon="-2.8954821839"><ele>723</ele><time>2011-04-20T11:06:01Z</time></trkpt>
<trkpt lat="54.4840882600" lon="-2.8951957742"><ele>720</ele><time>2011-04-20T11:06:14Z</time></trkpt>
<trkpt lat="54.4840487812" lon="-2.8948283116"><ele>720</ele><time>2011-04-20T11:06:30Z</time></trkpt>
<trkpt lat="54.4839998309" lon="-2.8944502878"><ele>719</ele><time>2011-04-20T11:06:46Z</time></trkpt>
<trkpt lat="54.4839724221" lon="-2.8941814801"><ele>717</ele><time>2011-04-20T11:06:58Z</time></trkpt>
<trkpt lat="54.4839404032" lon="-2.8941129161"><ele>715</ele><time>2011-04-20T11:07:02Z</time></trkpt>
<trkpt lat="54.4839150060" lon="-2.8937964993"><ele>716</ele><time>2011-04-20T11:07:17Z</time></trkpt>
<trkpt lat="54.4839147546" lon="-2.8937559309"><ele>716</ele><time>2011-04-20T11:07:19Z</time></trkpt>
<trkpt lat="54.4838335339" lon="-2.8935315473"><ele>712</ele><time>2011-04-20T11:07:31Z</time></trkpt>
<trkpt lat="54.4838219669" lon="-2.8933795834"><ele>712</ele><time>2011-04-20T11:07:38Z</time></trkpt>
<trkpt lat="54.4837974079" lon="-2.8930620769"><ele>711</ele><time>2011-04-20T11:07:51Z</time></trkpt>
<trkpt lat="54.4837668140" lon="-2.8927464145"><ele>710</ele><time>2011-04-20T11:08:06Z</time></trkpt>
<trkpt lat="54.4837712564" lon="-2.8926804489"><ele>711</ele><time>2011-04-20T11:08:27Z</time></trkpt>
<trkpt lat="54.4837719269" lon="-2.8926817062"><ele>711</ele><time>2011-04-20T11:09:43Z</time></trkpt>
<trkpt lat="54.4837826558" lon="-2.8926340132"><ele>711</ele><time>2011-04-20T11:09:59Z</time></trkpt>
<trkpt lat="54.4837766208" lon="-2.8925420637"><ele>710</ele><time>2011-04-20T11:10:03Z</time></trkpt>
<trkpt lat="54.4837729328" lon="-2.8924491922"><ele>711</ele><time>2011-04-20T11:10:07Z</time></trkpt>
<trkpt lat="54.4837640480" lon="-2.8924116413"><ele>711</ele><time>2011-04-20T11:10:09Z</time></trkpt>
<trkpt lat="54.4837616172" lon="-2.8923300015"><ele>712</ele><time>2011-04-20T11:10:13Z</time></trkpt>
<trkpt lat="54.4837358009" lon="-2.8922529718"><ele>712</ele><time>2011-04-20T11:10:17Z</time></trkpt>
<trkpt lat="54.4837142595" lon="-2.8921331106"><ele>711</ele><time>2011-04-20T11:10:23Z</time></trkpt>
<trkpt lat="54.4836046242" lon="-2.8919892772"><ele>711</ele><time>2011-04-20T11:10:32Z</time></trkpt>
<trkpt lat="54.4835938115" lon="-2.8917773826"><ele>711</ele><time>2011-04-20T11:10:44Z</time></trkpt>
<trkpt lat="54.4835938953" lon="-2.8916774704"><ele>711</ele><time>2011-04-20T11:10:49Z</time></trkpt>
<trkpt lat="54.4836391576" lon="-2.8916003569"><ele>709</ele><time>2011-04-20T11:11:10Z</time></trkpt>
<trkpt lat="54.4836587713" lon="-2.8916047993"><ele>710</ele><time>2011-04-20T11:11:13Z</time></trkpt>
<trkpt lat="54.4837092303" lon="-2.8914430285"><ele>706</ele><time>2011-04-20T11:11:28Z</time></trkpt>
<trkpt lat="54.4837209650" lon="-2.8913733749"><ele>705</ele><time>2011-04-20T11:11:33Z</time></trkpt>
<trkpt lat="54.4837367230" lon="-2.8912327266"><ele>703</ele><time>2011-04-20T11:11:57Z</time></trkpt>
<trkpt lat="54.4837626230" lon="-2.8911660066"><ele>702</ele><time>2011-04-20T11:12:23Z</time></trkpt>
<trkpt lat="54.4837617848" lon="-2.8911202414"><ele>700</ele><time>2011-04-20T11:12:29Z</time></trkpt>
<trkpt lat="54.4837482062" lon="-2.8910647532"><ele>699</ele><time>2011-04-20T11:12:34Z</time></trkpt>
<trkpt lat="54.4837584321" lon="-2.8909894837"><ele>697</ele><time>2011-04-20T11:12:46Z</time></trkpt>
<trkpt lat="54.4837565881" lon="-2.8908763281"><ele>694</ele><time>2011-04-20T11:12:58Z</time></trkpt>
<trkpt lat="54.4837797221" lon="-2.8908391962"><ele>692</ele><time>2011-04-20T11:13:04Z</time></trkpt>
<trkpt lat="54.4837941390" lon="-2.8907385296"><ele>690</ele><time>2011-04-20T11:13:14Z</time></trkpt>
<trkpt lat="54.4838111543" lon="-2.8906712229"><ele>688</ele><time>2011-04-20T11:13:19Z</time></trkpt>
<trkpt lat="54.4838332825" lon="-2.8906503519"><ele>688</ele><time>2011-04-20T11:13:21Z</time></trkpt>
<trkpt lat="54.4838360485" lon="-2.8904553051"><ele>688</ele><time>2011-04-20T11:13:36Z</time></trkpt>
<trkpt lat="54.4838318576" lon="-2.8903704802"><ele>685</ele><time>2011-04-20T11:13:51Z</time></trkpt>
<trkpt lat="54.4838476155" lon="-2.8902802071"><ele>683</ele><time>2011-04-20T11:14:04Z</time></trkpt>
<trkpt lat="54.4838699114" lon="-2.8902647844"><ele>682</ele><time>2011-04-20T11:14:16Z</time></trkpt>
<trkpt lat="54.4838958115" lon="-2.8902684724"><ele>681</ele><time>2011-04-20T11:14:18Z</time></trkpt>
<trkpt lat="54.4839792114" lon="-2.8901913589"><ele>680</ele><time>2011-04-20T11:14:33Z</time></trkpt>
<trkpt lat="54.4839695722" lon="-2.8901226273"><ele>676</ele><time>2011-04-20T11:14:49Z</time></trkpt>
<trkpt lat="54.4839704942" lon="-2.8900385568"><ele>674</ele><time>2011-04-20T11:15:03Z</time></trkpt>
<trkpt lat="54.4839932092" lon="-2.8900146684"><ele>672</ele><time>2011-04-20T11:15:20Z</time></trkpt>
<trkpt lat="54.4839753557" lon="-2.8899363814"><ele>669</ele><time>2011-04-20T11:15:32Z</time></trkpt>
<trkpt lat="54.4840004176" lon="-2.8899301788"><ele>668</ele><time>2011-04-20T11:15:38Z</time></trkpt>
<trkpt lat="54.4840418242" lon="-2.8898545741"><ele>667</ele><time>2011-04-20T11:15:48Z</time></trkpt>
<trkpt lat="54.4840886791" lon="-2.8898204597"><ele>665</ele><time>2011-04-20T11:15:59Z</time></trkpt>
<trkpt lat="54.4841196921" lon="-2.8897548294"><ele>664</ele><time>2011-04-20T11:16:07Z</time></trkpt>
<trkpt lat="54.4840981506" lon="-2.8896431825"><ele>661</ele><time>2011-04-20T11:16:19Z</time></trkpt>
<trkpt lat="54.4841144115" lon="-2.8895638897"><ele>659</ele><time>2011-04-20T11:16:32Z</time></trkpt>
<trkpt lat="54.4841241345" lon="-2.8894503987"><ele>659</ele><time>2011-04-20T11:16:44Z</time></trkpt>
<trkpt lat="54.4841392219" lon="-2.8894492252"><ele>657</ele><time>2011-04-20T11:16:59Z</time></trkpt>
<trkpt lat="54.4841765214" lon="-2.8894276837"><ele>657</ele><time>2011-04-20T11:17:15Z</time></trkpt>
<trkpt lat="54.4842042655" lon="-2.8894497281"><ele>655</ele><time>2011-04-20T11:18:10Z</time></trkpt>
<trkpt lat="54.4842702311" lon="-2.8894728622"><ele>654</ele><time>2011-04-20T11:18:23Z</time></trkpt>
<trkpt lat="54.4842887551" lon="-2.8894451181"><ele>652</ele><time>2011-04-20T11:18:40Z</time></trkpt>
<trkpt lat="54.4842934490" lon="-2.8894316232"><ele>651</ele><time>2011-04-20T11:18:54Z</time></trkpt>
<trkpt lat="54.4842828039" lon="-2.8894162843"><ele>649</ele><time>2011-04-20T11:19:07Z</time></trkpt>
<trkpt lat="54.4843011603" lon="-2.8893392547"><ele>648</ele><time>2011-04-20T11:19:16Z</time></trkpt>
<trkpt lat="54.4843403038" lon="-2.8892901367"><ele>646</ele><time>2011-04-20T11:19:24Z</time></trkpt>
<trkpt lat="54.4843289044" lon="-2.8892705230"><ele>645</ele><time>2011-04-20T11:19:26Z</time></trkpt>
<trkpt lat="54.4843147390" lon="-2.8892163760"><ele>645</ele><time>2011-04-20T11:19:33Z</time></trkpt>
<trkpt lat="54.4842424032" lon="-2.8890621489"><ele>643</ele><time>2011-04-20T11:19:47Z</time></trkpt>
<trkpt lat="54.4842594184" lon="-2.8890379252"><ele>642</ele><time>2011-04-20T11:19:49Z</time></trkpt>
<trkpt lat="54.4843154096" lon="-2.8889876338"><ele>640</ele><time>2011-04-20T11:19:56Z</time></trkpt>
<trkpt lat="54.4843430698" lon="-2.8889868794"><ele>639</ele><time>2011-04-20T11:19:58Z</time></trkpt>
<trkpt lat="54.4843644437" lon="-2.8890012963"><ele>639</ele><time>2011-04-20T11:20:00Z</time></trkpt>
<trkpt lat="54.4844274756" lon="-2.8889662600"><ele>636</ele><time>2011-04-20T11:20:12Z</time></trkpt>
<trkpt lat="54.4845095344" lon="-2.8889784975"><ele>633</ele><time>2011-04-20T11:20:27Z</time></trkpt>
<trkpt lat="54.4845295672" lon="-2.8889344925"><ele>632</ele><time>2011-04-20T11:20:37Z</time></trkpt>
<trkpt lat="54.4844905075" lon="-2.8888556188"><ele>630</ele><time>2011-04-20T11:20:47Z</time></trkpt>
<trkpt lat="54.4843990609" lon="-2.8887793435"><ele>627</ele><time>2011-04-20T11:21:01Z</time></trkpt>
<trkpt lat="54.4843941994" lon="-2.8887319019"><ele>626</ele><time>2011-04-20T11:21:13Z</time></trkpt>
<trkpt lat="54.4844191775" lon="-2.8886541179"><ele>623</ele><time>2011-04-20T11:21:27Z</time></trkpt>
<trkpt lat="54.4844430659" lon="-2.8886404554"><ele>621</ele><time>2011-04-20T11:21:41Z</time></trkpt>
<trkpt lat="54.4844760906" lon="-2.8886077660"><ele>618</ele><time>2011-04-20T11:21:56Z</time></trkpt>
<trkpt lat="54.4845049244" lon="-2.8885665270"><ele>617</ele><time>2011-04-20T11:22:12Z</time></trkpt>
<trkpt lat="54.4845190898" lon="-2.8885594862"><ele>615</ele><time>2011-04-20T11:22:15Z</time></trkpt>
<trkpt lat="54.4845270526" lon="-2.8884943588"><ele>613</ele><time>2011-04-20T11:22:29Z</time></trkpt>
<trkpt lat="54.4844922677" lon="-2.8884662794"><ele>613</ele><time>2011-04-20T11:22:45Z</time></trkpt>
<trkpt lat="54.4844707262" lon="-2.8884278065"><ele>612</ele><time>2011-04-20T11:22:59Z</time></trkpt>
<trkpt lat="54.4845255439" lon="-2.8884347635"><ele>609</ele><time>2011-04-20T11:23:13Z</time></trkpt>
<trkpt lat="54.4845302377" lon="-2.8883750005"><ele>608</ele><time>2011-04-20T11:23:20Z</time></trkpt>
<trkpt lat="54.4844771803" lon="-2.8882856494"><ele>605</ele><time>2011-04-20T11:23:33Z</time></trkpt>
<trkpt lat="54.4844558064" lon="-2.8882497749"><ele>604</ele><time>2011-04-20T11:23:38Z</time></trkpt>
<trkpt lat="54.4845034995" lon="-2.8881750083"><ele>601</ele><time>2011-04-20T11:23:53Z</time></trkpt>
<trkpt lat="54.4845205147" lon="-2.8881460907"><ele>600</ele><time>2011-04-20T11:24:08Z</time></trkpt>
<trkpt lat="54.4845510248" lon="-2.8881069472"><ele>597</ele><time>2011-04-20T11:24:21Z</time></trkpt>
<trkpt lat="54.4845588200" lon="-2.8880730844"><ele>595</ele><time>2011-04-20T11:24:40Z</time></trkpt>
<trkpt lat="54.4845584847" lon="-2.8879927857"><ele>592</ele><time>2011-04-20T11:24:51Z</time></trkpt>
<trkpt lat="54.4845607479" lon="-2.8879451765"><ele>592</ele><time>2011-04-20T11:24:55Z</time></trkpt>
<trkpt lat="54.4845583171" lon="-2.8878701585"><ele>590</ele><time>2011-04-20T11:24:59Z</time></trkpt>
<trkpt lat="54.4845716443" lon="-2.8875300209"><ele>592</ele><time>2011-04-20T11:25:16Z</time></trkpt>
<trkpt lat="54.4845996399" lon="-2.8873542523"><ele>592</ele><time>2011-04-20T11:25:25Z</time></trkpt>
<trkpt lat="54.4846578941" lon="-2.8871841835"><ele>595</ele><time>2011-04-20T11:25:41Z</time></trkpt>
<trkpt lat="54.4846575588" lon="-2.8871665815"><ele>596</ele><time>2011-04-20T11:25:42Z</time></trkpt>
<trkpt lat="54.4846256238" lon="-2.8870138633"><ele>597</ele><time>2011-04-20T11:25:57Z</time></trkpt>
<trkpt lat="54.4846206785" lon="-2.8870215746"><ele>597</ele><time>2011-04-20T11:26:39Z</time></trkpt>
<trkpt lat="54.4845822055" lon="-2.8868513382"><ele>597</ele><time>2011-04-20T11:26:47Z</time></trkpt>
<trkpt lat="54.4845837981" lon="-2.8867197423"><ele>597</ele><time>2011-04-20T11:26:58Z</time></trkpt>
<trkpt lat="54.4846257914" lon="-2.8866489152"><ele>597</ele><time>2011-04-20T11:27:03Z</time></trkpt>
<trkpt lat="54.4846255400" lon="-2.8865964445"><ele>598</ele><time>2011-04-20T11:27:06Z</time></trkpt>
<trkpt lat="54.4846039147" lon="-2.8865190795"><ele>598</ele><time>2011-04-20T11:27:11Z</time></trkpt>
<trkpt lat="54.4846211814" lon="-2.8863479210"><ele>601</ele><time>2011-04-20T11:27:23Z</time></trkpt>
<trkpt lat="54.4846412141" lon="-2.8862845539"><ele>602</ele><time>2011-04-20T11:27:29Z</time></trkpt>
<trkpt lat="54.4846631747" lon="-2.8862164090"><ele>604</ele><time>2011-04-20T11:27:35Z</time></trkpt>
<trkpt lat="54.4847143881" lon="-2.8861724040"><ele>604</ele><time>2011-04-20T11:27:41Z</time></trkpt>
<trkpt lat="54.4847091914" lon="-2.8860440771"><ele>605</ele><time>2011-04-20T11:27:48Z</time></trkpt>
<trkpt lat="54.4847105325" lon="-2.8859876668"><ele>604</ele><time>2011-04-20T11:27:52Z</time></trkpt>
<trkpt lat="54.4847278830" lon="-2.8858665483"><ele>602</ele><time>2011-04-20T11:28:02Z</time></trkpt>
<trkpt lat="54.4847344209" lon="-2.8858588370"><ele>602</ele><time>2011-04-20T11:28:03Z</time></trkpt>
<trkpt lat="54.4847557947" lon="-2.8857973138"><ele>602</ele><time>2011-04-20T11:28:07Z</time></trkpt>
<trkpt lat="54.4847559624" lon="-2.8856715853"><ele>602</ele><time>2011-04-20T11:28:15Z</time></trkpt>
<trkpt lat="54.4847664398" lon="-2.8855851679"><ele>601</ele><time>2011-04-20T11:28:20Z</time></trkpt>
<trkpt lat="54.4847597342" lon="-2.8855169392"><ele>601</ele><time>2011-04-20T11:28:26Z</time></trkpt>
<trkpt lat="54.4847618297" lon="-2.8853783863"><ele>605</ele><time>2011-04-20T11:28:36Z</time></trkpt>
<trkpt lat="54.4847643443" lon="-2.8853645562"><ele>605</ele><time>2011-04-20T11:28:37Z</time></trkpt>
<trkpt lat="54.4848005541" lon="-2.8852426833"><ele>607</ele><time>2011-04-20T11:28:48Z</time></trkpt>
<trkpt lat="54.4847988777" lon="-2.8850871152"><ele>608</ele><time>2011-04-20T11:29:02Z</time></trkpt>
<trkpt lat="54.4848193296" lon="-2.8849749653"><ele>611</ele><time>2011-04-20T11:29:17Z</time></trkpt>
<trkpt lat="54.4848296393" lon="-2.8848921521"><ele>613</ele><time>2011-04-20T11:29:28Z</time></trkpt>
<trkpt lat="54.4848339979" lon="-2.8848255998"><ele>615</ele><time>2011-04-20T11:29:44Z</time></trkpt>
<trkpt lat="54.4848634184" lon="-2.8846940877"><ele>618</ele><time>2011-04-20T11:30:01Z</time></trkpt>
<trkpt lat="54.4848693695" lon="-2.8846020544"><ele>620</ele><time>2011-04-20T11:30:16Z</time></trkpt>
<trkpt lat="54.4848821100" lon="-2.8844541977"><ele>623</ele><time>2011-04-20T11:30:34Z</time></trkpt>
<trkpt lat="54.4849069205" lon="-2.8843193328"><ele>626</ele><time>2011-04-20T11:30:50Z</time></trkpt>
<trkpt lat="54.4849158891" lon="-2.8842306523"><ele>629</ele><time>2011-04-20T11:31:06Z</time></trkpt>
<trkpt lat="54.4849024780" lon="-2.8841116293"><ele>632</ele><time>2011-04-20T11:31:21Z</time></trkpt>
<trkpt lat="54.4849421245" lon="-2.8840943626"><ele>633</ele><time>2011-04-20T11:31:42Z</time></trkpt>
<trkpt lat="54.4850047373" lon="-2.8839982221"><ele>636</ele><time>2011-04-20T11:31:59Z</time></trkpt>
<trkpt lat="54.4850160528" lon="-2.8839489365"><ele>638</ele><time>2011-04-20T11:32:11Z</time></trkpt>
<trkpt lat="54.4850002110" lon="-2.8838799535"><ele>641</ele><time>2011-04-20T11:32:26Z</time></trkpt>
<trkpt lat="54.4850251053" lon="-2.8837969726"><ele>643</ele><time>2011-04-20T11:32:45Z</time></trkpt>
<trkpt lat="54.4849851236" lon="-2.8837538058"><ele>646</ele><time>2011-04-20T11:32:58Z</time></trkpt>
<trkpt lat="54.4849545297" lon="-2.8837338569"><ele>648</ele><time>2011-04-20T11:33:14Z</time></trkpt>
<trkpt lat="54.4849455610" lon="-2.8836481939"><ele>651</ele><time>2011-04-20T11:33:32Z</time></trkpt>
<trkpt lat="54.4849023942" lon="-2.8835946335"><ele>653</ele><time>2011-04-20T11:33:50Z</time></trkpt>
<trkpt lat="54.4848598142" lon="-2.8835507123"><ele>654</ele><time>2011-04-20T11:34:06Z</time></trkpt>
<trkpt lat="54.4848381889" lon="-2.8834797176"><ele>657</ele><time>2011-04-20T11:34:26Z</time></trkpt>
<trkpt lat="54.4848487500" lon="-2.8834110698"><ele>659</ele><time>2011-04-20T11:34:40Z</time></trkpt>
<trkpt lat="54.4848365963" lon="-2.8833616166"><ele>662</ele><time>2011-04-20T11:34:57Z</time></trkpt>
<trkpt lat="54.4848108638" lon="-2.8833057931"><ele>663</ele><time>2011-04-20T11:35:13Z</time></trkpt>
<trkpt lat="54.4847982910" lon="-2.8832532386"><ele>665</ele><time>2011-04-20T11:35:32Z</time></trkpt>
<trkpt lat="54.4847769171" lon="-2.8831903743"><ele>666</ele><time>2011-04-20T11:35:45Z</time></trkpt>
<trkpt lat="54.4847617459" lon="-2.8831690843"><ele>669</ele><time>2011-04-20T11:36:01Z</time></trkpt>
<trkpt lat="54.4847537831" lon="-2.8831615406"><ele>669</ele><time>2011-04-20T11:36:32Z</time></trkpt>
<trkpt lat="54.4847171542" lon="-2.8831157754"><ele>673</ele><time>2011-04-20T11:37:19Z</time></trkpt>
<trkpt lat="54.4846894101" lon="-2.8830556771"><ele>674</ele><time>2011-04-20T11:37:32Z</time></trkpt>
<trkpt lat="54.4846615822" lon="-2.8830080679"><ele>676</ele><time>2011-04-20T11:37:47Z</time></trkpt>
<trkpt lat="54.4846595705" lon="-2.8829491431"><ele>678</ele><time>2011-04-20T11:38:01Z</time></trkpt>
<trkpt lat="54.4846324131" lon="-2.8828917271"><ele>683</ele><time>2011-04-20T11:38:10Z</time></trkpt>
<trkpt lat="54.4846305691" lon="-2.8828887934"><ele>683</ele><time>2011-04-20T11:38:11Z</time></trkpt>
<trkpt lat="54.4846231930" lon="-2.8828727002"><ele>681</ele><time>2011-04-20T11:38:18Z</time></trkpt>
<trkpt lat="54.4845970415" lon="-2.8828251748"><ele>683</ele><time>2011-04-20T11:38:31Z</time></trkpt>
<trkpt lat="54.4845646874" lon="-2.8827750510"><ele>686</ele><time>2011-04-20T11:38:44Z</time></trkpt>
<trkpt lat="54.4845836305" lon="-2.8826872925"><ele>689</ele><time>2011-04-20T11:39:03Z</time></trkpt>
<trkpt lat="54.4845529527" lon="-2.8826540163"><ele>691</ele><time>2011-04-20T11:39:20Z</time></trkpt>
<trkpt lat="54.4845119652" lon="-2.8825929122"><ele>694</ele><time>2011-04-20T11:39:33Z</time></trkpt>
<trkpt lat="54.4844983865" lon="-2.8825469794"><ele>696</ele><time>2011-04-20T11:39:53Z</time></trkpt>
<trkpt lat="54.4844630149" lon="-2.8825084227"><ele>698</ele><time>2011-04-20T11:40:07Z</time></trkpt>
<trkpt lat="54.4844539624" lon="-2.8824328179"><ele>701</ele><time>2011-04-20T11:40:26Z</time></trkpt>
<trkpt lat="54.4844242067" lon="-2.8823844543"><ele>703</ele><time>2011-04-20T11:40:44Z</time></trkpt>
<trkpt lat="54.4843862366" lon="-2.8823341629"><ele>706</ele><time>2011-04-20T11:41:00Z</time></trkpt>
<trkpt lat="54.4843292397" lon="-2.8823167285"><ele>709</ele><time>2011-04-20T11:41:18Z</time></trkpt>
<trkpt lat="54.4842654534" lon="-2.8822403694"><ele>712</ele><time>2011-04-20T11:41:33Z</time></trkpt>
<trkpt lat="54.4842362006" lon="-2.8821521080"><ele>714</ele><time>2011-04-20T11:41:50Z</time></trkpt>
<trkpt lat="54.4842413973" lon="-2.8821040796"><ele>716</ele><time>2011-04-20T11:42:04Z</time></trkpt>
<trkpt lat="54.4842130665" lon="-2.8820327497"><ele>718</ele><time>2011-04-20T11:42:18Z</time></trkpt>
<trkpt lat="54.4841597576" lon="-2.8819599947"><ele>720</ele><time>2011-04-20T11:42:32Z</time></trkpt>
<trkpt lat="54.4841339413" lon="-2.8819032492"><ele>724</ele><time>2011-04-20T11:42:46Z</time></trkpt>
<trkpt lat="54.4841120646" lon="-2.8818580708"><ele>724</ele><time>2011-04-20T11:43:07Z</time></trkpt>
<trkpt lat="54.4840653774" lon="-2.8817651155"><ele>727</ele><time>2011-04-20T11:43:22Z</time></trkpt>
<trkpt lat="54.4840391420" lon="-2.8816937855"><ele>730</ele><time>2011-04-20T11:43:38Z</time></trkpt>
<trkpt lat="54.4840097215" lon="-2.8816480203"><ele>733</ele><time>2011-04-20T11:43:51Z</time></trkpt>
<trkpt lat="54.4839850787" lon="-2.8815844855"><ele>735</ele><time>2011-04-20T11:44:05Z</time></trkpt>
<trkpt lat="54.4839789600" lon="-2.8815214536"><ele>737</ele><time>2011-04-20T11:44:25Z</time></trkpt>
<trkpt lat="54.4839114856" lon="-2.8814529734"><ele>740</ele><time>2011-04-20T11:44:39Z</time></trkpt>
<trkpt lat="54.4838979908" lon="-2.8814431666"><ele>740</ele><time>2011-04-20T11:44:48Z</time></trkpt>
<trkpt lat="54.4838388145" lon="-2.8813988263"><ele>742</ele><time>2011-04-20T11:45:07Z</time></trkpt>
<trkpt lat="54.4837656405" lon="-2.8812935496"><ele>743</ele><time>2011-04-20T11:45:31Z</time></trkpt>
<trkpt lat="54.4836358887" lon="-2.8811710062"><ele>745</ele><time>2011-04-20T11:45:46Z</time></trkpt>
<trkpt lat="54.4835585237" lon="-2.8811257439"><ele>746</ele><time>2011-04-20T11:45:57Z</time></trkpt>
<trkpt lat="54.4834115051" lon="-2.8810885283"><ele>748</ele><time>2011-04-20T11:46:14Z</time></trkpt>
<trkpt lat="54.4832626425" lon="-2.8810421763"><ele>751</ele><time>2011-04-20T11:46:30Z</time></trkpt>
<trkpt lat="54.4832512431" lon="-2.8810350517"><ele>750</ele><time>2011-04-20T11:47:10Z</time></trkpt>
<trkpt lat="54.4831491515" lon="-2.8809826648"><ele>752</ele><time>2011-04-20T11:47:32Z</time></trkpt>
<trkpt lat="54.4830782406" lon="-2.8809498916"><ele>753</ele><time>2011-04-20T11:47:41Z</time></trkpt>
<trkpt lat="54.4830318887" lon="-2.8809115025"><ele>754</ele><time>2011-04-20T11:47:47Z</time></trkpt>
<trkpt lat="54.4829324793" lon="-2.8808438605"><ele>756</ele><time>2011-04-20T11:47:58Z</time></trkpt>
<trkpt lat="54.4828749795" lon="-2.8807459599"><ele>758</ele><time>2011-04-20T11:48:17Z</time></trkpt>
<trkpt lat="54.4828013864" lon="-2.8805646593"><ele>760</ele><time>2011-04-20T11:48:29Z</time></trkpt>
<trkpt lat="54.4827114486" lon="-2.8803580454"><ele>762</ele><time>2011-04-20T11:48:50Z</time></trkpt>
<trkpt lat="54.4827089340" lon="-2.8803680199"><ele>761</ele><time>2011-04-20T11:49:29Z</time></trkpt>
<trkpt lat="54.4826518532" lon="-2.8801866355"><ele>765</ele><time>2011-04-20T11:50:01Z</time></trkpt>
<trkpt lat="54.4825235263" lon="-2.8799725617"><ele>768</ele><time>2011-04-20T11:50:19Z</time></trkpt>
<trkpt lat="54.4825069301" lon="-2.8799298978"><ele>768</ele><time>2011-04-20T11:50:22Z</time></trkpt>
<trkpt lat="54.4824498494" lon="-2.8798321648"><ele>769</ele><time>2011-04-20T11:50:31Z</time></trkpt>
<trkpt lat="54.4824304872" lon="-2.8798131379"><ele>770</ele><time>2011-04-20T11:50:33Z</time></trkpt>
<trkpt lat="54.4823273898" lon="-2.8795988964"><ele>772</ele><time>2011-04-20T11:50:49Z</time></trkpt>
<trkpt lat="54.4822925210" lon="-2.8794956314"><ele>773</ele><time>2011-04-20T11:50:57Z</time></trkpt>
<trkpt lat="54.4822185088" lon="-2.8792309309"><ele>774</ele><time>2011-04-20T11:51:18Z</time></trkpt>
<trkpt lat="54.4822268069" lon="-2.8791459384"><ele>777</ele><time>2011-04-20T11:51:36Z</time></trkpt>
<trkpt lat="54.4822351050" lon="-2.8791704974"><ele>777</ele><time>2011-04-20T11:51:50Z</time></trkpt>
<trkpt lat="54.4822372843" lon="-2.8791550747"><ele>778</ele><time>2011-04-20T11:52:15Z</time></trkpt>
<trkpt lat="54.4822379548" lon="-2.8791011790"><ele>776</ele><time>2011-04-20T11:52:40Z</time></trkpt>
<trkpt lat="54.4822325066" lon="-2.8791065434"><ele>776</ele><time>2011-04-20T11:53:07Z</time></trkpt>
<trkpt lat="54.4822324228" lon="-2.8791065434"><ele>778</ele><time>2011-04-20T11:53:11Z</time></trkpt>
<trkpt lat="54.4822303273" lon="-2.8791039450"><ele>776</ele><time>2011-04-20T11:53:33Z</time></trkpt>
<trkpt lat="54.4822304111" lon="-2.8791040289"><ele>776</ele><time>2011-04-20T11:53:46Z</time></trkpt>
<trkpt lat="54.4822325066" lon="-2.8791033583"><ele>776</ele><time>2011-04-20T11:54:53Z</time></trkpt>
<trkpt lat="54.4822314170" lon="-2.8790979101"><ele>763</ele><time>2011-04-20T11:56:00Z</time></trkpt>
<trkpt lat="54.4822309979" lon="-2.8790975748"><ele>763</ele><time>2011-04-20T11:56:01Z</time></trkpt>
<trkpt lat="54.4822306626" lon="-2.8790974072"><ele>772</ele><time>2011-04-20T11:56:02Z</time></trkpt>
<trkpt lat="54.4822309979" lon="-2.8790980777"><ele>772</ele><time>2011-04-20T11:56:03Z</time></trkpt>
<trkpt lat="54.4822311655" lon="-2.8790986644"><ele>778</ele><time>2011-04-20T11:56:04Z</time></trkpt>
<trkpt lat="54.4822309979" lon="-2.8790987483"><ele>778</ele><time>2011-04-20T11:56:05Z</time></trkpt>
<trkpt lat="54.4822328419" lon="-2.8791053700"><ele>777</ele><time>2011-04-20T11:56:14Z</time></trkpt>
<trkpt lat="54.4822349374" lon="-2.8791041965"><ele>778</ele><time>2011-04-20T11:56:16Z</time></trkpt>
<trkpt lat="54.4822412238" lon="-2.8791283364"><ele>776</ele><time>2011-04-20T12:01:13Z</time></trkpt>
<trkpt lat="54.4822364461" lon="-2.8791181105"><ele>779</ele><time>2011-04-20T12:02:50Z</time></trkpt>
<trkpt lat="54.4822366976" lon="-2.8791186134"><ele>777</ele><time>2011-04-20T12:02:55Z</time></trkpt>
<trkpt lat="54.4822336801" lon="-2.8791198707"><ele>779</ele><time>2011-04-20T12:03:02Z</time></trkpt>
<trkpt lat="54.4822311655" lon="-2.8791259056"><ele>775</ele><time>2011-04-20T12:03:05Z</time></trkpt>
<trkpt lat="54.4822303273" lon="-2.8791216309"><ele>776</ele><time>2011-04-20T12:03:06Z</time></trkpt>
<trkpt lat="54.4822335963" lon="-2.8791122431"><ele>776</ele><time>2011-04-20T12:03:11Z</time></trkpt>
<trkpt lat="54.4822326742" lon="-2.8791132490"><ele>777</ele><time>2011-04-20T12:03:16Z</time></trkpt>
<trkpt lat="54.4822325904" lon="-2.8791138357"><ele>777</ele><time>2011-04-20T12:03:31Z</time></trkpt>
<trkpt lat="54.4822429002" lon="-2.8791122431"><ele>779</ele><time>2011-04-20T12:03:51Z</time></trkpt>
<trkpt lat="54.4822475940" lon="-2.8791058729"><ele>779</ele><time>2011-04-20T12:03:52Z</time></trkpt>
<trkpt lat="54.4822423973" lon="-2.8790385662"><ele>778</ele><time>2011-04-20T12:04:07Z</time></trkpt>
<trkpt lat="54.4822425649" lon="-2.8790386500"><ele>777</ele><time>2011-04-20T12:04:58Z</time></trkpt>
<trkpt lat="54.4822484322" lon="-2.8790296814"><ele>778</ele><time>2011-04-20T12:05:16Z</time></trkpt>
<trkpt lat="54.4822828818" lon="-2.8788305274"><ele>775</ele><time>2011-04-20T12:05:29Z</time></trkpt>
<trkpt lat="54.4822879110" lon="-2.8786860234"><ele>773</ele><time>2011-04-20T12:05:37Z</time></trkpt>
<trkpt lat="54.4822239571" lon="-2.8782702810"><ele>770</ele><time>2011-04-20T12:05:57Z</time></trkpt>
<trkpt lat="54.4821667925" lon="-2.8779078475"><ele>767</ele><time>2011-04-20T12:06:13Z</time></trkpt>
<trkpt lat="54.4821064428" lon="-2.8774919374"><ele>765</ele><time>2011-04-20T12:06:31Z</time></trkpt>
<trkpt lat="54.4820256412" lon="-2.8771668872"><ele>762</ele><time>2011-04-20T12:06:46Z</time></trkpt>
<trkpt lat="54.4819714941" lon="-2.8768856744"><ele>761</ele><time>2011-04-20T12:06:58Z</time></trkpt>
<trkpt lat="54.4819541436" lon="-2.8768228101"><ele>760</ele><time>2011-04-20T12:07:01Z</time></trkpt>
<trkpt lat="54.4819405649" lon="-2.8767306930"><ele>762</ele><time>2011-04-20T12:07:05Z</time></trkpt>
<trkpt lat="54.4819355358" lon="-2.8766580219"><ele>758</ele><time>2011-04-20T12:07:08Z</time></trkpt>
<trkpt lat="54.4819194425" lon="-2.8761828518"><ele>755</ele><time>2011-04-20T12:07:29Z</time></trkpt>
<trkpt lat="54.4819756013" lon="-2.8759033991"><ele>751</ele><time>2011-04-20T12:07:43Z</time></trkpt>
<trkpt lat="54.4820411478" lon="-2.8756243656"><ele>749</ele><time>2011-04-20T12:07:57Z</time></trkpt>
<trkpt lat="54.4820661258" lon="-2.8755521974"><ele>748</ele><time>2011-04-20T12:08:01Z</time></trkpt>
<trkpt lat="54.4820785311" lon="-2.8754903389"><ele>748</ele><time>2011-04-20T12:08:04Z</time></trkpt>
<trkpt lat="54.4821205244" lon="-2.8754037539"><ele>747</ele><time>2011-04-20T12:08:09Z</time></trkpt>
<trkpt lat="54.4822269746" lon="-2.8751900154"><ele>747</ele><time>2011-04-20T12:08:28Z</time></trkpt>
<trkpt lat="54.4822576523" lon="-2.8750761891"><ele>747</ele><time>2011-04-20T12:08:56Z</time></trkpt>
<trkpt lat="54.4823003162" lon="-2.8748880992"><ele>747</ele><time>2011-04-20T12:09:06Z</time></trkpt>
<trkpt lat="54.4823137273" lon="-2.8748110695"><ele>746</ele><time>2011-04-20T12:09:10Z</time></trkpt>
<trkpt lat="54.4823216901" lon="-2.8747796374"><ele>746</ele><time>2011-04-20T12:09:12Z</time></trkpt>
<trkpt lat="54.4823859793" lon="-2.8745304434"><ele>747</ele><time>2011-04-20T12:09:24Z</time></trkpt>
<trkpt lat="54.4824037489" lon="-2.8744719377"><ele>745</ele><time>2011-04-20T12:09:27Z</time></trkpt>
<trkpt lat="54.4825485882" lon="-2.8741151201"><ele>745</ele><time>2011-04-20T12:09:47Z</time></trkpt>
<trkpt lat="54.4826263722" lon="-2.8740090052"><ele>744</ele><time>2011-04-20T12:09:54Z</time></trkpt>
<trkpt lat="54.4826604028" lon="-2.8739785789"><ele>743</ele><time>2011-04-20T12:09:57Z</time></trkpt>
<trkpt lat="54.4826790944" lon="-2.8739536008"><ele>744</ele><time>2011-04-20T12:09:59Z</time></trkpt>
<trkpt lat="54.4828867980" lon="-2.8736698734"><ele>746</ele><time>2011-04-20T12:10:18Z</time></trkpt>
<trkpt lat="54.4831647419" lon="-2.8732859822"><ele>745</ele><time>2011-04-20T12:10:43Z</time></trkpt>
<trkpt lat="54.4833994352" lon="-2.8729733372"><ele>747</ele><time>2011-04-20T12:11:04Z</time></trkpt>
<trkpt lat="54.4836171132" lon="-2.8726272485"><ele>748</ele><time>2011-04-20T12:11:27Z</time></trkpt>
<trkpt lat="54.4837508884" lon="-2.8724421760"><ele>749</ele><time>2011-04-20T12:11:40Z</time></trkpt>
<trkpt lat="54.4839747690" lon="-2.8720582849"><ele>751</ele><time>2011-04-20T12:12:04Z</time></trkpt>
<trkpt lat="54.4841341928" lon="-2.8717707018"><ele>752</ele><time>2011-04-20T12:12:22Z</time></trkpt>
<trkpt lat="54.4843299941" lon="-2.8715163948"><ele>755</ele><time>2011-04-20T12:12:42Z</time></trkpt>
<trkpt lat="54.4843760107" lon="-2.8714622477"><ele>757</ele><time>2011-04-20T12:12:47Z</time></trkpt>
<trkpt lat="54.4844412219" lon="-2.8714331625"><ele>758</ele><time>2011-04-20T12:12:59Z</time></trkpt>
<trkpt lat="54.4844361928" lon="-2.8714305641"><ele>754</ele><time>2011-04-20T12:13:17Z</time></trkpt>
<trkpt lat="54.4844362766" lon="-2.8714305641"><ele>754</ele><time>2011-04-20T12:13:18Z</time></trkpt>
<trkpt lat="54.4844361928" lon="-2.8714298936"><ele>756</ele><time>2011-04-20T12:13:19Z</time></trkpt>
<trkpt lat="54.4843567323" lon="-2.8710282328"><ele>757</ele><time>2011-04-20T12:13:37Z</time></trkpt>
<trkpt lat="54.4843221151" lon="-2.8708975589"><ele>756</ele><time>2011-04-20T12:13:45Z</time></trkpt>
<trkpt lat="54.4842649505" lon="-2.8708098842"><ele>756</ele><time>2011-04-20T12:13:51Z</time></trkpt>
<trkpt lat="54.4842320934" lon="-2.8706079642"><ele>755</ele><time>2011-04-20T12:14:00Z</time></trkpt>
<trkpt lat="54.4842311714" lon="-2.8701730272"><ele>755</ele><time>2011-04-20T12:14:19Z</time></trkpt>
<trkpt lat="54.4842432414" lon="-2.8700854363"><ele>755</ele><time>2011-04-20T12:14:23Z</time></trkpt>
<trkpt lat="54.4843672097" lon="-2.8696803389"><ele>756</ele><time>2011-04-20T12:14:45Z</time></trkpt>
<trkpt lat="54.4843653657" lon="-2.8695756490"><ele>755</ele><time>2011-04-20T12:14:50Z</time></trkpt>
<trkpt lat="54.4843449138" lon="-2.8694413709"><ele>755</ele><time>2011-04-20T12:14:56Z</time></trkpt>
<trkpt lat="54.4842856538" lon="-2.8690941925"><ele>752</ele><time>2011-04-20T12:15:11Z</time></trkpt>
<trkpt lat="54.4842667945" lon="-2.8688352755"><ele>753</ele><time>2011-04-20T12:15:22Z</time></trkpt>
<trkpt lat="54.4843255517" lon="-2.8683755281"><ele>752</ele><time>2011-04-20T12:15:43Z</time></trkpt>
<trkpt lat="54.4844435689" lon="-2.8680214765"><ele>752</ele><time>2011-04-20T12:16:02Z</time></trkpt>
<trkpt lat="54.4845612508" lon="-2.8677431135"><ele>753</ele><time>2011-04-20T12:16:18Z</time></trkpt>
<trkpt lat="54.4845868994" lon="-2.8676887149"><ele>753</ele><time>2011-04-20T12:16:21Z</time></trkpt>
<trkpt lat="54.4846024059" lon="-2.8675168021"><ele>753</ele><time>2011-04-20T12:16:30Z</time></trkpt>
<trkpt lat="54.4846716404" lon="-2.8673781654"><ele>753</ele><time>2011-04-20T12:16:38Z</time></trkpt>
<trkpt lat="54.4846956127" lon="-2.8671645107"><ele>752</ele><time>2011-04-20T12:16:47Z</time></trkpt>
<trkpt lat="54.4847107001" lon="-2.8670907500"><ele>750</ele><time>2011-04-20T12:17:03Z</time></trkpt>
<trkpt lat="54.4847324931" lon="-2.8668786878"><ele>750</ele><time>2011-04-20T12:17:41Z</time></trkpt>
<trkpt lat="54.4847661883" lon="-2.8667581560"><ele>749</ele><time>2011-04-20T12:17:47Z</time></trkpt>
<trkpt lat="54.4847432219" lon="-2.8665460939"><ele>749</ele><time>2011-04-20T12:17:56Z</time></trkpt>
<trkpt lat="54.4847432219" lon="-2.8663207883"><ele>747</ele><time>2011-04-20T12:18:06Z</time></trkpt>
<trkpt lat="54.4847536154" lon="-2.8662338680"><ele>747</ele><time>2011-04-20T12:18:10Z</time></trkpt>
<trkpt lat="54.4847417131" lon="-2.8660803115"><ele>745</ele><time>2011-04-20T12:18:17Z</time></trkpt>
<trkpt lat="54.4847438086" lon="-2.8660380667"><ele>745</ele><time>2011-04-20T12:18:19Z</time></trkpt>
<trkpt lat="54.4847402044" lon="-2.8656796566"><ele>741</ele><time>2011-04-20T12:18:36Z</time></trkpt>
<trkpt lat="54.4847281345" lon="-2.8654930754"><ele>741</ele><time>2011-04-20T12:18:44Z</time></trkpt>
<trkpt lat="54.4847153102" lon="-2.8653246830"><ele>740</ele><time>2011-04-20T12:18:51Z</time></trkpt>
<trkpt lat="54.4847162322" lon="-2.8652778281"><ele>740</ele><time>2011-04-20T12:18:55Z</time></trkpt>
<trkpt lat="54.4847353429" lon="-2.8652237648"><ele>741</ele><time>2011-04-20T12:18:59Z</time></trkpt>
<trkpt lat="54.4846699641" lon="-2.8649262073"><ele>740</ele><time>2011-04-20T12:19:13Z</time></trkpt>
<trkpt lat="54.4846200917" lon="-2.8647535401"><ele>739</ele><time>2011-04-20T12:19:21Z</time></trkpt>
<trkpt lat="54.4845771764" lon="-2.8645054357"><ele>738</ele><time>2011-04-20T12:19:32Z</time></trkpt>
<trkpt lat="54.4845316627" lon="-2.8641974008"><ele>738</ele><time>2011-04-20T12:19:46Z</time></trkpt>
<trkpt lat="54.4844932735" lon="-2.8638700037"><ele>739</ele><time>2011-04-20T12:20:00Z</time></trkpt>
<trkpt lat="54.4844906751" lon="-2.8637710134"><ele>738</ele><time>2011-04-20T12:20:04Z</time></trkpt>
<trkpt lat="54.4845055111" lon="-2.8637018627"><ele>738</ele><time>2011-04-20T12:20:07Z</time></trkpt>
<trkpt lat="54.4845306568" lon="-2.8632607231"><ele>739</ele><time>2011-04-20T12:20:28Z</time></trkpt>
<trkpt lat="54.4845093668" lon="-2.8631098489"><ele>738</ele><time>2011-04-20T12:20:36Z</time></trkpt>
<trkpt lat="54.4844967101" lon="-2.8629166460"><ele>738</ele><time>2011-04-20T12:20:46Z</time></trkpt>
<trkpt lat="54.4845075228" lon="-2.8626726488"><ele>736</ele><time>2011-04-20T12:20:59Z</time></trkpt>
<trkpt lat="54.4844988894" lon="-2.8624571501"><ele>734</ele><time>2011-04-20T12:21:10Z</time></trkpt>
<trkpt lat="54.4845093668" lon="-2.8622065312"><ele>734</ele><time>2011-04-20T12:21:22Z</time></trkpt>
<trkpt lat="54.4845092830" lon="-2.8621212034"><ele>734</ele><time>2011-04-20T12:21:26Z</time></trkpt>
<trkpt lat="54.4845036671" lon="-2.8619365501"><ele>732</ele><time>2011-04-20T12:21:35Z</time></trkpt>
<trkpt lat="54.4845011525" lon="-2.8618712550"><ele>732</ele><time>2011-04-20T12:21:38Z</time></trkpt>
<trkpt lat="54.4844998114" lon="-2.8617498013"><ele>732</ele><time>2011-04-20T12:21:44Z</time></trkpt>
<trkpt lat="54.4845154856" lon="-2.8615949037"><ele>732</ele><time>2011-04-20T12:21:52Z</time></trkpt>
<trkpt lat="54.4844936088" lon="-2.8613998568"><ele>731</ele><time>2011-04-20T12:22:01Z</time></trkpt>
<trkpt lat="54.4845038347" lon="-2.8612188915"><ele>731</ele><time>2011-04-20T12:22:09Z</time></trkpt>
<trkpt lat="54.4844880768" lon="-2.8611328932"><ele>730</ele><time>2011-04-20T12:22:13Z</time></trkpt>
<trkpt lat="54.4844957881" lon="-2.8610422010"><ele>730</ele><time>2011-04-20T12:22:17Z</time></trkpt>
<trkpt lat="54.4845213529" lon="-2.8608489143"><ele>729</ele><time>2011-04-20T12:22:26Z</time></trkpt>
<trkpt lat="54.4845256277" lon="-2.8608052446"><ele>729</ele><time>2011-04-20T12:22:28Z</time></trkpt>
<trkpt lat="54.4845274717" lon="-2.8607380217"><ele>730</ele><time>2011-04-20T12:22:31Z</time></trkpt>
<trkpt lat="54.4845260468" lon="-2.8606573878"><ele>729</ele><time>2011-04-20T12:22:35Z</time></trkpt>
<trkpt lat="54.4845433973" lon="-2.8604224431"><ele>730</ele><time>2011-04-20T12:22:46Z</time></trkpt>
<trkpt lat="54.4845286452" lon="-2.8602729937"><ele>731</ele><time>2011-04-20T12:22:53Z</time></trkpt>
<trkpt lat="54.4845104564" lon="-2.8601408111"><ele>731</ele><time>2011-04-20T12:22:59Z</time></trkpt>
<trkpt lat="54.4845073551" lon="-2.8600872508"><ele>731</ele><time>2011-04-20T12:23:02Z</time></trkpt>
<trkpt lat="54.4845220235" lon="-2.8599999113"><ele>732</ele><time>2011-04-20T12:23:07Z</time></trkpt>
<trkpt lat="54.4845042538" lon="-2.8599622766"><ele>732</ele><time>2011-04-20T12:23:09Z</time></trkpt>
<trkpt lat="54.4845071037" lon="-2.8598933773"><ele>733</ele><time>2011-04-20T12:23:13Z</time></trkpt>
<trkpt lat="54.4844648589" lon="-2.8597409943"><ele>736</ele><time>2011-04-20T12:23:26Z</time></trkpt>
<trkpt lat="54.4844560579" lon="-2.8597344565"><ele>737</ele><time>2011-04-20T12:23:45Z</time></trkpt>
<trkpt lat="54.4844562255" lon="-2.8597353785"><ele>735</ele><time>2011-04-20T12:23:47Z</time></trkpt>
<trkpt lat="54.4844537948" lon="-2.8597343726"><ele>735</ele><time>2011-04-20T12:24:24Z</time></trkpt>
<trkpt lat="54.4843949538" lon="-2.8596290121"><ele>735</ele><time>2011-04-20T12:24:32Z</time></trkpt>
<trkpt lat="54.4842986457" lon="-2.8593834224"><ele>735</ele><time>2011-04-20T12:24:47Z</time></trkpt>
<trkpt lat="54.4842352786" lon="-2.8591136089"><ele>733</ele><time>2011-04-20T12:25:02Z</time></trkpt>
<trkpt lat="54.4841721628" lon="-2.8589407740"><ele>732</ele><time>2011-04-20T12:25:11Z</time></trkpt>
<trkpt lat="54.4840916966" lon="-2.8587895645"><ele>734</ele><time>2011-04-20T12:25:22Z</time></trkpt>
<trkpt lat="54.4840735078" lon="-2.8587437155"><ele>736</ele><time>2011-04-20T12:25:25Z</time></trkpt>
<trkpt lat="54.4840672214" lon="-2.8587339925"><ele>736</ele><time>2011-04-20T12:25:26Z</time></trkpt>
<trkpt lat="54.4838811431" lon="-2.8585588107"><ele>737</ele><time>2011-04-20T12:25:42Z</time></trkpt>
<trkpt lat="54.4837763694" lon="-2.8583174119"><ele>739</ele><time>2011-04-20T12:25:58Z</time></trkpt>
<trkpt lat="54.4837373097" lon="-2.8582134763"><ele>739</ele><time>2011-04-20T12:26:05Z</time></trkpt>
<trkpt lat="54.4835928895" lon="-2.8580367858"><ele>741</ele><time>2011-04-20T12:26:21Z</time></trkpt>
<trkpt lat="54.4834864393" lon="-2.8578850733"><ele>741</ele><time>2011-04-20T12:26:32Z</time></trkpt>
<trkpt lat="54.4833980102" lon="-2.8576539843"><ele>742</ele><time>2011-04-20T12:26:45Z</time></trkpt>
<trkpt lat="54.4833682545" lon="-2.8575745238"><ele>742</ele><time>2011-04-20T12:26:49Z</time></trkpt>
<trkpt lat="54.4833083239" lon="-2.8574995896"><ele>741</ele><time>2011-04-20T12:26:54Z</time></trkpt>
<trkpt lat="54.4832961701" lon="-2.8574560037"><ele>742</ele><time>2011-04-20T12:26:58Z</time></trkpt>
<trkpt lat="54.4831339803" lon="-2.8572752061"><ele>741</ele><time>2011-04-20T12:27:12Z</time></trkpt>
<trkpt lat="54.4830505804" lon="-2.8570954142"><ele>742</ele><time>2011-04-20T12:27:22Z</time></trkpt>
<trkpt lat="54.4830361635" lon="-2.8570278561"><ele>741</ele><time>2011-04-20T12:27:26Z</time></trkpt>
<trkpt lat="54.4829982773" lon="-2.8569684284"><ele>740</ele><time>2011-04-20T12:27:30Z</time></trkpt>
<trkpt lat="54.4829748918" lon="-2.8569429474"><ele>739</ele><time>2011-04-20T12:27:32Z</time></trkpt>
<trkpt lat="54.4829403583" lon="-2.8568820110"><ele>739</ele><time>2011-04-20T12:27:36Z</time></trkpt>
<trkpt lat="54.4827961896" lon="-2.8566849524"><ele>737</ele><time>2011-04-20T12:27:54Z</time></trkpt>
<trkpt lat="54.4828236822" lon="-2.8567186477"><ele>737</ele><time>2011-04-20T12:28:08Z</time></trkpt>
<trkpt lat="54.4827174835" lon="-2.8565406161"><ele>736</ele><time>2011-04-20T12:28:18Z</time></trkpt>
<trkpt lat="54.4826112848" lon="-2.8564124568"><ele>736</ele><time>2011-04-20T12:28:26Z</time></trkpt>
<trkpt lat="54.4825858876" lon="-2.8562355148"><ele>735</ele><time>2011-04-20T12:28:35Z</time></trkpt>
<trkpt lat="54.4825853847" lon="-2.8561932700"><ele>736</ele><time>2011-04-20T12:28:37Z</time></trkpt>
<trkpt lat="54.4826513503" lon="-2.8560383724"><ele>739</ele><time>2011-04-20T12:28:50Z</time></trkpt>
<trkpt lat="54.4826869734" lon="-2.8560169986"><ele>740</ele><time>2011-04-20T12:28:55Z</time></trkpt>
<trkpt lat="54.4828009673" lon="-2.8559816269"><ele>743</ele><time>2011-04-20T12:29:09Z</time></trkpt>
<trkpt lat="54.4828972754" lon="-2.8558817147"><ele>747</ele><time>2011-04-20T12:29:22Z</time></trkpt>
<trkpt lat="54.4829970200" lon="-2.8558532162"><ele>748</ele><time>2011-04-20T12:29:33Z</time></trkpt>
<trkpt lat="54.4830101796" lon="-2.8558293278"><ele>748</ele><time>2011-04-20T12:29:35Z</time></trkpt>
<trkpt lat="54.4830663383" lon="-2.8556952173"><ele>749</ele><time>2011-04-20T12:29:44Z</time></trkpt>
<trkpt lat="54.4831185576" lon="-2.8556261504"><ele>750</ele><time>2011-04-20T12:29:50Z</time></trkpt>
<trkpt lat="54.4831173841" lon="-2.8555962270"><ele>750</ele><time>2011-04-20T12:29:52Z</time></trkpt>
<trkpt lat="54.4831508279" lon="-2.8555300100"><ele>750</ele><time>2011-04-20T12:29:57Z</time></trkpt>
<trkpt lat="54.4832221579" lon="-2.8551559257"><ele>749</ele><time>2011-04-20T12:30:15Z</time></trkpt>
<trkpt lat="54.4832492315" lon="-2.8549243337"><ele>751</ele><time>2011-04-20T12:30:25Z</time></trkpt>
<trkpt lat="54.4833015345" lon="-2.8546586273"><ele>749</ele><time>2011-04-20T12:30:38Z</time></trkpt>
<trkpt lat="54.4833606270" lon="-2.8544294661"><ele>750</ele><time>2011-04-20T12:30:50Z</time></trkpt>
<trkpt lat="54.4833599564" lon="-2.8543136282"><ele>751</ele><time>2011-04-20T12:30:56Z</time></trkpt>
<trkpt lat="54.4833802406" lon="-2.8542469083"><ele>753</ele><time>2011-04-20T12:31:01Z</time></trkpt>
<trkpt lat="54.4833840125" lon="-2.8541579763"><ele>754</ele><time>2011-04-20T12:31:08Z</time></trkpt>
<trkpt lat="54.4834066436" lon="-2.8541318247"><ele>756</ele><time>2011-04-20T12:31:32Z</time></trkpt>
<trkpt lat="54.4834009439" lon="-2.8541286396"><ele>741</ele><time>2011-04-20T12:32:14Z</time></trkpt>
<trkpt lat="54.4834010277" lon="-2.8541287234"><ele>741</ele><time>2011-04-20T12:32:15Z</time></trkpt>
<trkpt lat="54.4834010277" lon="-2.8541287234"><ele>752</ele><time>2011-04-20T12:32:16Z</time></trkpt>
<trkpt lat="54.4834010277" lon="-2.8541287234"><ele>752</ele><time>2011-04-20T12:32:17Z</time></trkpt>
<trkpt lat="54.4834011116" lon="-2.8541287234"><ele>755</ele><time>2011-04-20T12:32:18Z</time></trkpt>
<trkpt lat="54.4834011116" lon="-2.8541287234"><ele>756</ele><time>2011-04-20T12:32:19Z</time></trkpt>
<trkpt lat="54.4834322922" lon="-2.8541402066"><ele>754</ele><time>2011-04-20T12:33:18Z</time></trkpt>
<trkpt lat="54.4835635528" lon="-2.8541040806"><ele>751</ele><time>2011-04-20T12:33:30Z</time></trkpt>
<trkpt lat="54.4837171931" lon="-2.8539845547"><ele>748</ele><time>2011-04-20T12:33:44Z</time></trkpt>
<trkpt lat="54.4838926264" lon="-2.8539822078"><ele>747</ele><time>2011-04-20T12:33:59Z</time></trkpt>
<trkpt lat="54.4840750166" lon="-2.8541695433"><ele>749</ele><time>2011-04-20T12:34:19Z</time></trkpt>
<trkpt lat="54.4842405592" lon="-2.8542178231"><ele>749</ele><time>2011-04-20T12:34:45Z</time></trkpt>
<trkpt lat="54.4842316743" lon="-2.8542158952"><ele>747</ele><time>2011-04-20T12:35:31Z</time></trkpt>
<trkpt lat="54.4842285730" lon="-2.8542055017"><ele>749</ele><time>2011-04-20T12:39:20Z</time></trkpt>
<trkpt lat="54.4842188500" lon="-2.8542277975"><ele>749</ele><time>2011-04-20T12:39:47Z</time></trkpt>
<trkpt lat="54.4841046885" lon="-2.8544796737"><ele>750</ele><time>2011-04-20T12:40:07Z</time></trkpt>
<trkpt lat="54.4840895173" lon="-2.8545440467"><ele>750</ele><time>2011-04-20T12:40:11Z</time></trkpt>
<trkpt lat="54.4840953846" lon="-2.8548366590"><ele>752</ele><time>2011-04-20T12:40:28Z</time></trkpt>
<trkpt lat="54.4840649583" lon="-2.8552550836"><ele>752</ele><time>2011-04-20T12:40:48Z</time></trkpt>
<trkpt lat="54.4840795428" lon="-2.8553844163"><ele>751</ele><time>2011-04-20T12:40:54Z</time></trkpt>
<trkpt lat="54.4840672214" lon="-2.8554428382"><ele>751</ele><time>2011-04-20T12:40:57Z</time></trkpt>
<trkpt lat="54.4841752641" lon="-2.8558213650"><ele>751</ele><time>2011-04-20T12:41:16Z</time></trkpt>
<trkpt lat="54.4843294073" lon="-2.8561728182"><ele>750</ele><time>2011-04-20T12:41:35Z</time></trkpt>
<trkpt lat="54.4844865680" lon="-2.8564656819"><ele>747</ele><time>2011-04-20T12:41:53Z</time></trkpt>
<trkpt lat="54.4846393701" lon="-2.8570068175"><ele>745</ele><time>2011-04-20T12:42:19Z</time></trkpt>
<trkpt lat="54.4846986302" lon="-2.8574923812"><ele>744</ele><time>2011-04-20T12:42:40Z</time></trkpt>
<trkpt lat="54.4847363487" lon="-2.8578631128"><ele>745</ele><time>2011-04-20T12:42:56Z</time></trkpt>
<trkpt lat="54.4847479158" lon="-2.8579225404"><ele>743</ele><time>2011-04-20T12:42:59Z</time></trkpt>
<trkpt lat="54.4847562138" lon="-2.8579577444"><ele>744</ele><time>2011-04-20T12:43:01Z</time></trkpt>
<trkpt lat="54.4848873068" lon="-2.8583943578"><ele>745</ele><time>2011-04-20T12:43:25Z</time></trkpt>
<trkpt lat="54.4849217564" lon="-2.8584936833"><ele>745</ele><time>2011-04-20T12:43:31Z</time></trkpt>
<trkpt lat="54.4849663482" lon="-2.8585275462"><ele>746</ele><time>2011-04-20T12:43:35Z</time></trkpt>
<trkpt lat="54.4850531847" lon="-2.8585427175"><ele>746</ele><time>2011-04-20T12:43:42Z</time></trkpt>
<trkpt lat="54.4850878019" lon="-2.8585497583"><ele>745</ele><time>2011-04-20T12:43:46Z</time></trkpt>
<trkpt lat="54.4850887239" lon="-2.8586194957"><ele>746</ele><time>2011-04-20T12:43:50Z</time></trkpt>
<trkpt lat="54.4851168033" lon="-2.8586848745"><ele>744</ele><time>2011-04-20T12:43:54Z</time></trkpt>
<trkpt lat="54.4851240956" lon="-2.8587722978"><ele>745</ele><time>2011-04-20T12:43:58Z</time></trkpt>
<trkpt lat="54.4851460562" lon="-2.8588231759"><ele>744</ele><time>2011-04-20T12:44:01Z</time></trkpt>
<trkpt lat="54.4851535160" lon="-2.8589888023"><ele>743</ele><time>2011-04-20T12:44:09Z</time></trkpt>
<trkpt lat="54.4851417814" lon="-2.8590214080"><ele>743</ele><time>2011-04-20T12:44:11Z</time></trkpt>
<trkpt lat="54.4852557753" lon="-2.8594645592"><ele>741</ele><time>2011-04-20T12:44:32Z</time></trkpt>
<trkpt lat="54.4854068172" lon="-2.8598738475"><ele>743</ele><time>2011-04-20T12:44:54Z</time></trkpt>
<trkpt lat="54.4854513251" lon="-2.8600688106"><ele>744</ele><time>2011-04-20T12:45:04Z</time></trkpt>
<trkpt lat="54.4854535882" lon="-2.8601278192"><ele>745</ele><time>2011-04-20T12:45:07Z</time></trkpt>
<trkpt lat="54.4855830048" lon="-2.8605107045"><ele>745</ele><time>2011-04-20T12:45:27Z</time></trkpt>
<trkpt lat="54.4856358946" lon="-2.8607556237"><ele>746</ele><time>2011-04-20T12:45:39Z</time></trkpt>
<trkpt lat="54.4856677458" lon="-2.8609776603"><ele>748</ele><time>2011-04-20T12:45:50Z</time></trkpt>
<trkpt lat="54.4858862620" lon="-2.8613278562"><ele>751</ele><time>2011-04-20T12:46:13Z</time></trkpt>
<trkpt lat="54.4860761121" lon="-2.8614766350"><ele>752</ele><time>2011-04-20T12:46:30Z</time></trkpt>
<trkpt lat="54.4860957258" lon="-2.8615472945"><ele>753</ele><time>2011-04-20T12:46:35Z</time></trkpt>
<trkpt lat="54.4861539800" lon="-2.8616227316"><ele>755</ele><time>2011-04-20T12:46:43Z</time></trkpt>
<trkpt lat="54.4862305906" lon="-2.8618355481"><ele>757</ele><time>2011-04-20T12:46:57Z</time></trkpt>
<trkpt lat="54.4863012501" lon="-2.8619276652"><ele>758</ele><time>2011-04-20T12:47:10Z</time></trkpt>
<trkpt lat="54.4864767671" lon="-2.8622447526"><ele>760</ele><time>2011-04-20T12:47:30Z</time></trkpt>
<trkpt lat="54.4866680421" lon="-2.8625183380"><ele>763</ele><time>2011-04-20T12:47:50Z</time></trkpt>
<trkpt lat="54.4867537890" lon="-2.8628318211"><ele>767</ele><time>2011-04-20T12:48:09Z</time></trkpt>
<trkpt lat="54.4867825389" lon="-2.8629485810"><ele>768</ele><time>2011-04-20T12:48:31Z</time></trkpt>
<trkpt lat="54.4869381909" lon="-2.8632326437"><ele>772</ele><time>2011-04-20T12:48:52Z</time></trkpt>
<trkpt lat="54.4870807670" lon="-2.8634187220"><ele>774</ele><time>2011-04-20T12:49:08Z</time></trkpt>
<trkpt lat="54.4871572938" lon="-2.8635989329"><ele>776</ele><time>2011-04-20T12:49:28Z</time></trkpt>
<trkpt lat="54.4871599760" lon="-2.8635989329"><ele>777</ele><time>2011-04-20T12:49:31Z</time></trkpt>
<trkpt lat="54.4871610657" lon="-2.8636002740"><ele>773</ele><time>2011-04-20T12:49:39Z</time></trkpt>
<trkpt lat="54.4871611495" lon="-2.8635997711"><ele>773</ele><time>2011-04-20T12:49:40Z</time></trkpt>
<trkpt lat="54.4871611495" lon="-2.8635997711"><ele>776</ele><time>2011-04-20T12:49:41Z</time></trkpt>
<trkpt lat="54.4871611495" lon="-2.8635998549"><ele>776</ele><time>2011-04-20T12:49:42Z</time></trkpt>
<trkpt lat="54.4872440465" lon="-2.8638507253"><ele>780</ele><time>2011-04-20T12:49:58Z</time></trkpt>
<trkpt lat="54.4872472316" lon="-2.8638641363"><ele>780</ele><time>2011-04-20T12:49:59Z</time></trkpt>
<trkpt lat="54.4873215791" lon="-2.8641673098"><ele>783</ele><time>2011-04-20T12:50:18Z</time></trkpt>
<trkpt lat="54.4872590501" lon="-2.8644969700"><ele>785</ele><time>2011-04-20T12:50:37Z</time></trkpt>
<trkpt lat="54.4870785878" lon="-2.8649962800"><ele>785</ele><time>2011-04-20T12:51:03Z</time></trkpt>
<trkpt lat="54.4871163901" lon="-2.8654525070"><ele>787</ele><time>2011-04-20T12:51:24Z</time></trkpt>
<trkpt lat="54.4873528436" lon="-2.8655641539"><ele>790</ele><time>2011-04-20T12:51:44Z</time></trkpt>
<trkpt lat="54.4875041370" lon="-2.8656707717"><ele>793</ele><time>2011-04-20T12:51:59Z</time></trkpt>
<trkpt lat="54.4877643113" lon="-2.8657601228"><ele>796</ele><time>2011-04-20T12:52:21Z</time></trkpt>
<trkpt lat="54.4880154331" lon="-2.8659560917"><ele>798</ele><time>2011-04-20T12:52:44Z</time></trkpt>
<trkpt lat="54.4882450134" lon="-2.8660040362"><ele>800</ele><time>2011-04-20T12:53:03Z</time></trkpt>
<trkpt lat="54.4885812954" lon="-2.8661957303"><ele>803</ele><time>2011-04-20T12:53:32Z</time></trkpt>
<trkpt lat="54.4888516117" lon="-2.8663678946"><ele>805</ele><time>2011-04-20T12:53:56Z</time></trkpt>
<trkpt lat="54.4891122051" lon="-2.8663937947"><ele>806</ele><time>2011-04-20T12:54:19Z</time></trkpt>
<trkpt lat="54.4893645004" lon="-2.8661779607"><ele>809</ele><time>2011-04-20T12:54:41Z</time></trkpt>
<trkpt lat="54.4895222478" lon="-2.8660094844"><ele>810</ele><time>2011-04-20T12:54:56Z</time></trkpt>
<trkpt lat="54.4898058076" lon="-2.8657329655"><ele>812</ele><time>2011-04-20T12:55:22Z</time></trkpt>
<trkpt lat="54.4899923049" lon="-2.8655402655"><ele>814</ele><time>2011-04-20T12:55:40Z</time></trkpt>
<trkpt lat="54.4900381539" lon="-2.8655016249"><ele>816</ele><time>2011-04-20T12:55:44Z</time></trkpt>
<trkpt lat="54.4900797282" lon="-2.8654594640"><ele>815</ele><time>2011-04-20T12:55:48Z</time></trkpt>
<trkpt lat="54.4903554928" lon="-2.8652456416"><ele>817</ele><time>2011-04-20T12:56:12Z</time></trkpt>
<trkpt lat="54.4904361267" lon="-2.8652029777"><ele>817</ele><time>2011-04-20T12:56:19Z</time></trkpt>
<trkpt lat="54.4904916149" lon="-2.8652105214"><ele>818</ele><time>2011-04-20T12:56:24Z</time></trkpt>
<trkpt lat="54.4907058564" lon="-2.8651495012"><ele>818</ele><time>2011-04-20T12:56:42Z</time></trkpt>
<trkpt lat="54.4909474228" lon="-2.8650627485"><ele>819</ele><time>2011-04-20T12:57:02Z</time></trkpt>
<trkpt lat="54.4912024003" lon="-2.8649798515"><ele>820</ele><time>2011-04-20T12:57:23Z</time></trkpt>
<trkpt lat="54.4914251913" lon="-2.8649421329"><ele>820</ele><time>2011-04-20T12:57:42Z</time></trkpt>
<trkpt lat="54.4915408615" lon="-2.8648352636"><ele>820</ele><time>2011-04-20T12:58:00Z</time></trkpt>
<trkpt lat="54.4915431247" lon="-2.8648061784"><ele>820</ele><time>2011-04-20T12:58:42Z</time></trkpt>
<trkpt lat="54.4914603115" lon="-2.8645584932"><ele>819</ele><time>2011-04-20T12:58:57Z</time></trkpt>
<trkpt lat="54.4914411169" lon="-2.8644667952"><ele>819</ele><time>2011-04-20T12:59:03Z</time></trkpt>
<trkpt lat="54.4912561283" lon="-2.8641284177"><ele>816</ele><time>2011-04-20T12:59:25Z</time></trkpt>
<trkpt lat="54.4911386140" lon="-2.8637505615"><ele>814</ele><time>2011-04-20T12:59:46Z</time></trkpt>
<trkpt lat="54.4911215149" lon="-2.8637155252"><ele>813</ele><time>2011-04-20T12:59:48Z</time></trkpt>
<trkpt lat="54.4911397037" lon="-2.8635846837"><ele>813</ele><time>2011-04-20T12:59:56Z</time></trkpt>
<trkpt lat="54.4910990514" lon="-2.8632431211"><ele>811</ele><time>2011-04-20T13:00:13Z</time></trkpt>
<trkpt lat="54.4911081877" lon="-2.8631059094"><ele>810</ele><time>2011-04-20T13:00:20Z</time></trkpt>
<trkpt lat="54.4911627539" lon="-2.8627507681"><ele>807</ele><time>2011-04-20T13:00:39Z</time></trkpt>
<trkpt lat="54.4911682859" lon="-2.8626693799"><ele>807</ele><time>2011-04-20T13:00:44Z</time></trkpt>
<trkpt lat="54.4911765002" lon="-2.8626252072"><ele>807</ele><time>2011-04-20T13:00:47Z</time></trkpt>
<trkpt lat="54.4913303920" lon="-2.8624978861"><ele>807</ele><time>2011-04-20T13:01:03Z</time></trkpt>
<trkpt lat="54.4913744808" lon="-2.8624717346"><ele>806</ele><time>2011-04-20T13:01:08Z</time></trkpt>
<trkpt lat="54.4915553622" lon="-2.8624425656"><ele>807</ele><time>2011-04-20T13:01:27Z</time></trkpt>
<trkpt lat="54.4916949209" lon="-2.8623652844"><ele>808</ele><time>2011-04-20T13:01:44Z</time></trkpt>
<trkpt lat="54.4917333100" lon="-2.8622992350"><ele>808</ele><time>2011-04-20T13:02:03Z</time></trkpt>
<trkpt lat="54.4917341482" lon="-2.8622900149"><ele>806</ele><time>2011-04-20T13:02:06Z</time></trkpt>
<trkpt lat="54.4917248443" lon="-2.8623009114"><ele>806</ele><time>2011-04-20T13:02:38Z</time></trkpt>
<trkpt lat="54.4917550192" lon="-2.8624596646"><ele>808</ele><time>2011-04-20T13:06:48Z</time></trkpt>
<trkpt lat="54.4918097530" lon="-2.8626002292"><ele>810</ele><time>2011-04-20T13:06:59Z</time></trkpt>
<trkpt lat="54.4918556858" lon="-2.8627143907"><ele>812</ele><time>2011-04-20T13:07:07Z</time></trkpt>
<trkpt lat="54.4918649897" lon="-2.8627210124"><ele>811</ele><time>2011-04-20T13:07:08Z</time></trkpt>
<trkpt lat="54.4919551790" lon="-2.8627714714"><ele>812</ele><time>2011-04-20T13:07:17Z</time></trkpt>
<trkpt lat="54.4921524890" lon="-2.8628096091"><ele>815</ele><time>2011-04-20T13:07:36Z</time></trkpt>
<trkpt lat="54.4923207138" lon="-2.8628033227"><ele>816</ele><time>2011-04-20T13:07:51Z</time></trkpt>
<trkpt lat="54.4924776230" lon="-2.8628034903"><ele>817</ele><time>2011-04-20T13:08:05Z</time></trkpt>
<trkpt lat="54.4926031001" lon="-2.8628954398"><ele>819</ele><time>2011-04-20T13:08:16Z</time></trkpt>
<trkpt lat="54.4929251329" lon="-2.8628316535"><ele>818</ele><time>2011-04-20T13:08:41Z</time></trkpt>
<trkpt lat="54.4931555514" lon="-2.8624994787"><ele>816</ele><time>2011-04-20T13:09:03Z</time></trkpt>
<trkpt lat="54.4933068447" lon="-2.8621798767"><ele>813</ele><time>2011-04-20T13:09:22Z</time></trkpt>
<trkpt lat="54.4935352516" lon="-2.8618208798"><ele>811</ele><time>2011-04-20T13:09:47Z</time></trkpt>
<trkpt lat="54.4936304700" lon="-2.8616993422"><ele>809</ele><time>2011-04-20T13:09:58Z</time></trkpt>
<trkpt lat="54.4937418655" lon="-2.8616811535"><ele>809</ele><time>2011-04-20T13:10:10Z</time></trkpt>
<trkpt lat="54.4938381736" lon="-2.8616925529"><ele>808</ele><time>2011-04-20T13:10:20Z</time></trkpt>
<trkpt lat="54.4939276923" lon="-2.8617991707"><ele>808</ele><time>2011-04-20T13:10:37Z</time></trkpt>
<trkpt lat="54.4939528380" lon="-2.8617404135"><ele>807</ele><time>2011-04-20T13:10:58Z</time></trkpt>
<trkpt lat="54.4939271056" lon="-2.8617524835"><ele>807</ele><time>2011-04-20T13:12:05Z</time></trkpt>
<trkpt lat="54.4938770656" lon="-2.8617410003"><ele>807</ele><time>2011-04-20T13:12:09Z</time></trkpt>
<trkpt lat="54.4936824378" lon="-2.8616740289"><ele>810</ele><time>2011-04-20T13:12:28Z</time></trkpt>
<trkpt lat="54.4936514248" lon="-2.8616803153"><ele>810</ele><time>2011-04-20T13:12:31Z</time></trkpt>
<trkpt lat="54.4935772449" lon="-2.8615790619"><ele>809</ele><time>2011-04-20T13:12:39Z</time></trkpt>
<trkpt lat="54.4935649235" lon="-2.8615308659"><ele>809</ele><time>2011-04-20T13:13:00Z</time></trkpt>
<trkpt lat="54.4935641692" lon="-2.8615351407"><ele>809</ele><time>2011-04-20T13:13:55Z</time></trkpt>
<trkpt lat="54.4934823618" lon="-2.8619291740"><ele>811</ele><time>2011-04-20T13:14:14Z</time></trkpt>
<trkpt lat="54.4932424717" lon="-2.8623140710"><ele>813</ele><time>2011-04-20T13:14:37Z</time></trkpt>
<trkpt lat="54.4930653621" lon="-2.8626260454"><ele>817</ele><time>2011-04-20T13:14:56Z</time></trkpt>
<trkpt lat="54.4929436569" lon="-2.8628288037"><ele>818</ele><time>2011-04-20T13:15:08Z</time></trkpt>
<trkpt lat="54.4927453410" lon="-2.8630900676"><ele>819</ele><time>2011-04-20T13:15:26Z</time></trkpt>
<trkpt lat="54.4926507932" lon="-2.8633851106"><ele>820</ele><time>2011-04-20T13:15:40Z</time></trkpt>
<trkpt lat="54.4925777030" lon="-2.8637669063"><ele>820</ele><time>2011-04-20T13:15:57Z</time></trkpt>
<trkpt lat="54.4923311074" lon="-2.8640173575"><ele>820</ele><time>2011-04-20T13:16:18Z</time></trkpt>
<trkpt lat="54.4921307799" lon="-2.8642650428"><ele>821</ele><time>2011-04-20T13:16:36Z</time></trkpt>
<trkpt lat="54.4919289437" lon="-2.8645247141"><ele>821</ele><time>2011-04-20T13:16:55Z</time></trkpt>
<trkpt lat="54.4916968488" lon="-2.8648811965"><ele>821</ele><time>2011-04-20T13:17:20Z</time></trkpt>
<trkpt lat="54.4916979384" lon="-2.8649272969"><ele>821</ele><time>2011-04-20T13:17:42Z</time></trkpt>
<trkpt lat="54.4916970164" lon="-2.8649774207"><ele>821</ele><time>2011-04-20T13:17:47Z</time></trkpt>
<trkpt lat="54.4917217430" lon="-2.8650537798"><ele>822</ele><time>2011-04-20T13:17:51Z</time></trkpt>
<trkpt lat="54.4918959190" lon="-2.8653894751"><ele>821</ele><time>2011-04-20T13:18:16Z</time></trkpt>
<trkpt lat="54.4918913089" lon="-2.8653902294"><ele>821</ele><time>2011-04-20T13:18:27Z</time></trkpt>
<trkpt lat="54.4918739584" lon="-2.8653798359"><ele>821</ele><time>2011-04-20T13:18:29Z</time></trkpt>
<trkpt lat="54.4918105074" lon="-2.8651981162"><ele>821</ele><time>2011-04-20T13:18:39Z</time></trkpt>
<trkpt lat="54.4914924141" lon="-2.8650946835"><ele>821</ele><time>2011-04-20T13:19:02Z</time></trkpt>
<trkpt lat="54.4912877281" lon="-2.8651481601"><ele>820</ele><time>2011-04-20T13:19:17Z</time></trkpt>
<trkpt lat="54.4909902543" lon="-2.8653272813"><ele>820</ele><time>2011-04-20T13:19:40Z</time></trkpt>
<trkpt lat="54.4905984004" lon="-2.8654149561"><ele>818</ele><time>2011-04-20T13:20:08Z</time></trkpt>
<trkpt lat="54.4903307662" lon="-2.8654986913"><ele>817</ele><time>2011-04-20T13:20:29Z</time></trkpt>
<trkpt lat="54.4903054528" lon="-2.8655250104"><ele>818</ele><time>2011-04-20T13:20:50Z</time></trkpt>
<trkpt lat="54.4901194584" lon="-2.8656394234"><ele>815</ele><time>2011-04-20T13:21:17Z</time></trkpt>
<trkpt lat="54.4897881218" lon="-2.8659425969"><ele>812</ele><time>2011-04-20T13:21:43Z</time></trkpt>
<trkpt lat="54.4894763150" lon="-2.8661885219"><ele>809</ele><time>2011-04-20T13:22:08Z</time></trkpt>
<trkpt lat="54.4892277077" lon="-2.8664112291"><ele>807</ele><time>2011-04-20T13:22:29Z</time></trkpt>
<trkpt lat="54.4888547130" lon="-2.8667548871"><ele>805</ele><time>2011-04-20T13:23:01Z</time></trkpt>
<trkpt lat="54.4886761785" lon="-2.8669678713"><ele>802</ele><time>2011-04-20T13:23:18Z</time></trkpt>
<trkpt lat="54.4885997355" lon="-2.8670587311"><ele>801</ele><time>2011-04-20T13:23:25Z</time></trkpt>
<trkpt lat="54.4882440076" lon="-2.8673387705"><ele>798</ele><time>2011-04-20T13:23:55Z</time></trkpt>
<trkpt lat="54.4879956518" lon="-2.8675419478"><ele>795</ele><time>2011-04-20T13:24:16Z</time></trkpt>
<trkpt lat="54.4877242458" lon="-2.8678265134"><ele>793</ele><time>2011-04-20T13:24:40Z</time></trkpt>
<trkpt lat="54.4875121836" lon="-2.8680247454"><ele>789</ele><time>2011-04-20T13:24:58Z</time></trkpt>
<trkpt lat="54.4872377601" lon="-2.8683363008"><ele>786</ele><time>2011-04-20T13:25:23Z</time></trkpt>
<trkpt lat="54.4870309785" lon="-2.8685213732"><ele>784</ele><time>2011-04-20T13:25:41Z</time></trkpt>
<trkpt lat="54.4868859716" lon="-2.8687283224"><ele>782</ele><time>2011-04-20T13:25:55Z</time></trkpt>
<trkpt lat="54.4868764162" lon="-2.8688096268"><ele>781</ele><time>2011-04-20T13:25:59Z</time></trkpt>
<trkpt lat="54.4868911684" lon="-2.8692413787"><ele>780</ele><time>2011-04-20T13:26:19Z</time></trkpt>
<trkpt lat="54.4867049225" lon="-2.8694044067"><ele>778</ele><time>2011-04-20T13:26:36Z</time></trkpt>
<trkpt lat="54.4864805390" lon="-2.8695691949"><ele>776</ele><time>2011-04-20T13:26:54Z</time></trkpt>
<trkpt lat="54.4864282359" lon="-2.8695852882"><ele>776</ele><time>2011-04-20T13:26:58Z</time></trkpt>
<trkpt lat="54.4863722448" lon="-2.8696407764"><ele>775</ele><time>2011-04-20T13:27:03Z</time></trkpt>
<trkpt lat="54.4861344502" lon="-2.8698371644"><ele>772</ele><time>2011-04-20T13:27:24Z</time></trkpt>
<trkpt lat="54.4860761960" lon="-2.8698691832"><ele>773</ele><time>2011-04-20T13:27:29Z</time></trkpt>
<trkpt lat="54.4860704963" lon="-2.8698836001"><ele>772</ele><time>2011-04-20T13:27:48Z</time></trkpt>
<trkpt lat="54.4859642975" lon="-2.8699859431"><ele>771</ele><time>2011-04-20T13:28:06Z</time></trkpt>
<trkpt lat="54.4858570092" lon="-2.8701648129"><ele>769</ele><time>2011-04-20T13:28:24Z</time></trkpt>
<trkpt lat="54.4858253256" lon="-2.8701934791"><ele>768</ele><time>2011-04-20T13:28:27Z</time></trkpt>
<trkpt lat="54.4856808216" lon="-2.8703710078"><ele>765</ele><time>2011-04-20T13:28:40Z</time></trkpt>
<trkpt lat="54.4854625568" lon="-2.8706186092"><ele>764</ele><time>2011-04-20T13:29:01Z</time></trkpt>
<trkpt lat="54.4853574478" lon="-2.8707443377"><ele>763</ele><time>2011-04-20T13:29:11Z</time></trkpt>
<trkpt lat="54.4851330642" lon="-2.8709807912"><ele>760</ele><time>2011-04-20T13:29:31Z</time></trkpt>
<trkpt lat="54.4851014644" lon="-2.8710246286"><ele>758</ele><time>2011-04-20T13:29:34Z</time></trkpt>
<trkpt lat="54.4850315594" lon="-2.8711657798"><ele>758</ele><time>2011-04-20T13:29:42Z</time></trkpt>
<trkpt lat="54.4848705430" lon="-2.8713301489"><ele>757</ele><time>2011-04-20T13:29:55Z</time></trkpt>
<trkpt lat="54.4846174095" lon="-2.8714115372"><ele>756</ele><time>2011-04-20T13:30:14Z</time></trkpt>
<trkpt lat="54.4843440757" lon="-2.8714925902"><ele>754</ele><time>2011-04-20T13:30:36Z</time></trkpt>
<trkpt lat="54.4841727496" lon="-2.8717567878"><ele>752</ele><time>2011-04-20T13:30:54Z</time></trkpt>
<trkpt lat="54.4839761939" lon="-2.8720433651"><ele>750</ele><time>2011-04-20T13:31:14Z</time></trkpt>
<trkpt lat="54.4837914568" lon="-2.8723666551"><ele>748</ele><time>2011-04-20T13:31:34Z</time></trkpt>
<trkpt lat="54.4837382317" lon="-2.8724618735"><ele>749</ele><time>2011-04-20T13:31:40Z</time></trkpt>
<trkpt lat="54.4835069750" lon="-2.8727895221"><ele>746</ele><time>2011-04-20T13:32:03Z</time></trkpt>
<trkpt lat="54.4832882073" lon="-2.8731724913"><ele>744</ele><time>2011-04-20T13:32:27Z</time></trkpt>
<trkpt lat="54.4830561962" lon="-2.8734106211"><ele>745</ele><time>2011-04-20T13:32:46Z</time></trkpt>
<trkpt lat="54.4827769950" lon="-2.8737872200"><ele>744</ele><time>2011-04-20T13:33:13Z</time></trkpt>
<trkpt lat="54.4825449840" lon="-2.8740727915"><ele>744</ele><time>2011-04-20T13:33:33Z</time></trkpt>
<trkpt lat="54.4823784355" lon="-2.8746057967"><ele>744</ele><time>2011-04-20T13:33:58Z</time></trkpt>
<trkpt lat="54.4823599954" lon="-2.8746655597"><ele>744</ele><time>2011-04-20T13:34:16Z</time></trkpt>
<trkpt lat="54.4823119671" lon="-2.8748145899"><ele>745</ele><time>2011-04-20T13:35:17Z</time></trkpt>
<trkpt lat="54.4821857356" lon="-2.8752657878"><ele>746</ele><time>2011-04-20T13:35:40Z</time></trkpt>
<trkpt lat="54.4820813809" lon="-2.8755555502"><ele>747</ele><time>2011-04-20T13:35:56Z</time></trkpt>
<trkpt lat="54.4820336879" lon="-2.8757661874"><ele>749</ele><time>2011-04-20T13:36:09Z</time></trkpt>
<trkpt lat="54.4819452588" lon="-2.8760855379"><ele>753</ele><time>2011-04-20T13:36:28Z</time></trkpt>
<trkpt lat="54.4819440015" lon="-2.8761415290"><ele>754</ele><time>2011-04-20T13:36:31Z</time></trkpt>
<trkpt lat="54.4819447559" lon="-2.8765218160"><ele>757</ele><time>2011-04-20T13:36:49Z</time></trkpt>
<trkpt lat="54.4819906887" lon="-2.8769963993"><ele>761</ele><time>2011-04-20T13:37:12Z</time></trkpt>
<trkpt lat="54.4820134037" lon="-2.8771308450"><ele>761</ele><time>2011-04-20T13:37:18Z</time></trkpt>
<trkpt lat="54.4820942052" lon="-2.8774959607"><ele>764</ele><time>2011-04-20T13:37:39Z</time></trkpt>
<trkpt lat="54.4821416468" lon="-2.8778602383"><ele>765</ele><time>2011-04-20T13:37:57Z</time></trkpt>
<trkpt lat="54.4822093726" lon="-2.8781447200"><ele>768</ele><time>2011-04-20T13:38:12Z</time></trkpt>
<trkpt lat="54.4822728236" lon="-2.8786037131"><ele>771</ele><time>2011-04-20T13:38:36Z</time></trkpt>
<trkpt lat="54.4822966282" lon="-2.8787863547"><ele>773</ele><time>2011-04-20T13:38:47Z</time></trkpt>
<trkpt lat="54.4822857317" lon="-2.8790625384"><ele>776</ele><time>2011-04-20T13:39:05Z</time></trkpt>
<trkpt lat="54.4822746676" lon="-2.8791879317"><ele>778</ele><time>2011-04-20T13:39:21Z</time></trkpt>
<trkpt lat="54.4822979693" lon="-2.8791562481"><ele>778</ele><time>2011-04-20T13:39:35Z</time></trkpt>
<trkpt lat="54.4823356878" lon="-2.8791175237"><ele>777</ele><time>2011-04-20T13:39:39Z</time></trkpt>
<trkpt lat="54.4823981330" lon="-2.8791368021"><ele>777</ele><time>2011-04-20T13:39:44Z</time></trkpt>
<trkpt lat="54.4825823673" lon="-2.8791203736"><ele>777</ele><time>2011-04-20T13:40:00Z</time></trkpt>
<trkpt lat="54.4826030706" lon="-2.8790974910"><ele>778</ele><time>2011-04-20T13:40:02Z</time></trkpt>
<trkpt lat="54.4826203373" lon="-2.8790799728"><ele>778</ele><time>2011-04-20T13:40:04Z</time></trkpt>
<trkpt lat="54.4826624144" lon="-2.8790586828"><ele>779</ele><time>2011-04-20T13:40:08Z</time></trkpt>
<trkpt lat="54.4826894042" lon="-2.8790331180"><ele>779</ele><time>2011-04-20T13:40:11Z</time></trkpt>
<trkpt lat="54.4828998737" lon="-2.8791876803"><ele>778</ele><time>2011-04-20T13:40:31Z</time></trkpt>
<trkpt lat="54.4829650011" lon="-2.8792361277"><ele>778</ele><time>2011-04-20T13:40:38Z</time></trkpt>
<trkpt lat="54.4830154602" lon="-2.8792885146"><ele>777</ele><time>2011-04-20T13:40:45Z</time></trkpt>
<trkpt lat="54.4830977705" lon="-2.8793342797"><ele>776</ele><time>2011-04-20T13:40:53Z</time></trkpt>
<trkpt lat="54.4832255107" lon="-2.8794038495"><ele>776</ele><time>2011-04-20T13:41:05Z</time></trkpt>
<trkpt lat="54.4832781490" lon="-2.8795066117"><ele>775</ele><time>2011-04-20T13:41:12Z</time></trkpt>
<trkpt lat="54.4834076494" lon="-2.8795738345"><ele>774</ele><time>2011-04-20T13:41:24Z</time></trkpt>
<trkpt lat="54.4836420074" lon="-2.8796227849"><ele>772</ele><time>2011-04-20T13:41:46Z</time></trkpt>
<trkpt lat="54.4838665586" lon="-2.8796386266"><ele>770</ele><time>2011-04-20T13:42:09Z</time></trkpt>
<trkpt lat="54.4838722583" lon="-2.8796636885"><ele>769</ele><time>2011-04-20T13:43:01Z</time></trkpt>
<trkpt lat="54.4838772037" lon="-2.8796909297"><ele>769</ele><time>2011-04-20T13:43:03Z</time></trkpt>
<trkpt lat="54.4839017626" lon="-2.8797694682"><ele>768</ele><time>2011-04-20T13:43:19Z</time></trkpt>
<trkpt lat="54.4839036905" lon="-2.8797724856"><ele>768</ele><time>2011-04-20T13:44:15Z</time></trkpt>
<trkpt lat="54.4839045287" lon="-2.8797724856"><ele>769</ele><time>2011-04-20T13:45:23Z</time></trkpt>
<trkpt lat="54.4839080491" lon="-2.8797392933"><ele>768</ele><time>2011-04-20T14:01:12Z</time></trkpt>
<trkpt lat="54.4839081329" lon="-2.8797397124"><ele>767</ele><time>2011-04-20T14:01:27Z</time></trkpt>
<trkpt lat="54.4839081329" lon="-2.8797398800"><ele>770</ele><time>2011-04-20T14:01:28Z</time></trkpt>
<trkpt lat="54.4839081329" lon="-2.8797399639"><ele>770</ele><time>2011-04-20T14:01:29Z</time></trkpt>
<trkpt lat="54.4839814745" lon="-2.8797907582"><ele>768</ele><time>2011-04-20T14:01:59Z</time></trkpt>
<trkpt lat="54.4841130704" lon="-2.8797754193"><ele>765</ele><time>2011-04-20T14:02:11Z</time></trkpt>
<trkpt lat="54.4841634456" lon="-2.8797641037"><ele>764</ele><time>2011-04-20T14:02:16Z</time></trkpt>
<trkpt lat="54.4841888428" lon="-2.8797667021"><ele>764</ele><time>2011-04-20T14:02:18Z</time></trkpt>
<trkpt lat="54.4842473485" lon="-2.8795595015"><ele>762</ele><time>2011-04-20T14:02:29Z</time></trkpt>
<trkpt lat="54.4843246296" lon="-2.8794958828"><ele>761</ele><time>2011-04-20T14:02:37Z</time></trkpt>
<trkpt lat="54.4843811237" lon="-2.8794798734"><ele>760</ele><time>2011-04-20T14:02:43Z</time></trkpt>
<trkpt lat="54.4845580656" lon="-2.8795672967"><ele>756</ele><time>2011-04-20T14:02:58Z</time></trkpt>
<trkpt lat="54.4847136338" lon="-2.8795613455"><ele>754</ele><time>2011-04-20T14:03:11Z</time></trkpt>
<trkpt lat="54.4849224270" lon="-2.8795716552"><ele>750</ele><time>2011-04-20T14:03:29Z</time></trkpt>
<trkpt lat="54.4851283703" lon="-2.8795375409"><ele>747</ele><time>2011-04-20T14:03:47Z</time></trkpt>
<trkpt lat="54.4851416976" lon="-2.8795321765"><ele>747</ele><time>2011-04-20T14:03:48Z</time></trkpt>
<trkpt lat="54.4852089204" lon="-2.8795699789"><ele>746</ele><time>2011-04-20T14:03:54Z</time></trkpt>
<trkpt lat="54.4853618902" lon="-2.8795436597"><ele>745</ele><time>2011-04-20T14:04:06Z</time></trkpt>
<trkpt lat="54.4854996887" lon="-2.8795552267"><ele>743</ele><time>2011-04-20T14:04:17Z</time></trkpt>
<trkpt lat="54.4857155227" lon="-2.8794908537"><ele>740</ele><time>2011-04-20T14:04:35Z</time></trkpt>
<trkpt lat="54.4857596953" lon="-2.8794478545"><ele>740</ele><time>2011-04-20T14:04:40Z</time></trkpt>
<trkpt lat="54.4858187039" lon="-2.8794509558"><ele>739</ele><time>2011-04-20T14:04:46Z</time></trkpt>
<trkpt lat="54.4858464480" lon="-2.8794406461"><ele>738</ele><time>2011-04-20T14:04:49Z</time></trkpt>
<trkpt lat="54.4859637108" lon="-2.8794250558"><ele>736</ele><time>2011-04-20T14:05:00Z</time></trkpt>
<trkpt lat="54.4861378029" lon="-2.8795207771"><ele>733</ele><time>2011-04-20T14:05:17Z</time></trkpt>
<trkpt lat="54.4861986556" lon="-2.8795320927"><ele>732</ele><time>2011-04-20T14:05:23Z</time></trkpt>
<trkpt lat="54.4863280721" lon="-2.8795139877"><ele>729</ele><time>2011-04-20T14:05:34Z</time></trkpt>
<trkpt lat="54.4863649525" lon="-2.8795299972"><ele>728</ele><time>2011-04-20T14:05:38Z</time></trkpt>
<trkpt lat="54.4863947921" lon="-2.8795173405"><ele>727</ele><time>2011-04-20T14:05:41Z</time></trkpt>
<trkpt lat="54.4864322592" lon="-2.8795564840"><ele>726</ele><time>2011-04-20T14:05:45Z</time></trkpt>
<trkpt lat="54.4864523758" lon="-2.8795798695"><ele>726</ele><time>2011-04-20T14:05:47Z</time></trkpt>
<trkpt lat="54.4865612567" lon="-2.8797042570"><ele>724</ele><time>2011-04-20T14:05:58Z</time></trkpt>
<trkpt lat="54.4867563874" lon="-2.8796814582"><ele>722</ele><time>2011-04-20T14:06:15Z</time></trkpt>
<trkpt lat="54.4869764962" lon="-2.8797411373"><ele>718</ele><time>2011-04-20T14:06:34Z</time></trkpt>
<trkpt lat="54.4871643346" lon="-2.8799030757"><ele>715</ele><time>2011-04-20T14:06:52Z</time></trkpt>
<trkpt lat="54.4873713676" lon="-2.8800363480"><ele>713</ele><time>2011-04-20T14:07:09Z</time></trkpt>
<trkpt lat="54.4874183063" lon="-2.8801007210"><ele>712</ele><time>2011-04-20T14:07:14Z</time></trkpt>
<trkpt lat="54.4875820887" lon="-2.8801433010"><ele>711</ele><time>2011-04-20T14:07:28Z</time></trkpt>
<trkpt lat="54.4875948292" lon="-2.8801495036"><ele>711</ele><time>2011-04-20T14:07:29Z</time></trkpt>
<trkpt lat="54.4876711883" lon="-2.8801697040"><ele>710</ele><time>2011-04-20T14:07:35Z</time></trkpt>
<trkpt lat="54.4876973398" lon="-2.8802307243"><ele>709</ele><time>2011-04-20T14:07:39Z</time></trkpt>
<trkpt lat="54.4878286843" lon="-2.8802486616"><ele>708</ele><time>2011-04-20T14:07:50Z</time></trkpt>
<trkpt lat="54.4880404950" lon="-2.8802764895"><ele>706</ele><time>2011-04-20T14:08:06Z</time></trkpt>
<trkpt lat="54.4881029401" lon="-2.8803018866"><ele>705</ele><time>2011-04-20T14:08:11Z</time></trkpt>
<trkpt lat="54.4881529801" lon="-2.8803087598"><ele>704</ele><time>2011-04-20T14:08:16Z</time></trkpt>
<trkpt lat="54.4881915369" lon="-2.8803319777"><ele>704</ele><time>2011-04-20T14:08:20Z</time></trkpt>
<trkpt lat="54.4883962229" lon="-2.8804401881"><ele>700</ele><time>2011-04-20T14:08:37Z</time></trkpt>
<trkpt lat="54.4884214525" lon="-2.8804370867"><ele>701</ele><time>2011-04-20T14:08:39Z</time></trkpt>
<trkpt lat="54.4884564050" lon="-2.8804608914"><ele>700</ele><time>2011-04-20T14:08:42Z</time></trkpt>
<trkpt lat="54.4886577383" lon="-2.8805126915"><ele>699</ele><time>2011-04-20T14:09:01Z</time></trkpt>
<trkpt lat="54.4887259670" lon="-2.8804800859"><ele>697</ele><time>2011-04-20T14:09:29Z</time></trkpt>
<trkpt lat="54.4887266376" lon="-2.8804775713"><ele>698</ele><time>2011-04-20T14:09:42Z</time></trkpt>
<trkpt lat="54.4887282301" lon="-2.8804735480"><ele>698</ele><time>2011-04-20T14:10:18Z</time></trkpt>
<trkpt lat="54.4887429823" lon="-2.8805273598"><ele>697</ele><time>2011-04-20T14:10:21Z</time></trkpt>
<trkpt lat="54.4889443156" lon="-2.8807444511"><ele>697</ele><time>2011-04-20T14:10:39Z</time></trkpt>
<trkpt lat="54.4889755801" lon="-2.8807824212"><ele>698</ele><time>2011-04-20T14:10:44Z</time></trkpt>
<trkpt lat="54.4890091915" lon="-2.8808252527"><ele>698</ele><time>2011-04-20T14:10:48Z</time></trkpt>
<trkpt lat="54.4892511771" lon="-2.8811339582"><ele>696</ele><time>2011-04-20T14:11:11Z</time></trkpt>
<trkpt lat="54.4894924082" lon="-2.8814521352"><ele>695</ele><time>2011-04-20T14:11:34Z</time></trkpt>
<trkpt lat="54.4897636466" lon="-2.8816641136"><ele>697</ele><time>2011-04-20T14:11:57Z</time></trkpt>
<trkpt lat="54.4898198892" lon="-2.8817449151"><ele>696</ele><time>2011-04-20T14:12:03Z</time></trkpt>
<trkpt lat="54.4900885292" lon="-2.8818047619"><ele>698</ele><time>2011-04-20T14:12:24Z</time></trkpt>
<trkpt lat="54.4903378908" lon="-2.8819294008"><ele>700</ele><time>2011-04-20T14:12:45Z</time></trkpt>
<trkpt lat="54.4906579119" lon="-2.8820817000"><ele>703</ele><time>2011-04-20T14:13:11Z</time></trkpt>
<trkpt lat="54.4908955388" lon="-2.8821187480"><ele>705</ele><time>2011-04-20T14:13:32Z</time></trkpt>
<trkpt lat="54.4911173240" lon="-2.8821549578"><ele>708</ele><time>2011-04-20T14:13:51Z</time></trkpt>
<trkpt lat="54.4911856365" lon="-2.8821599869"><ele>709</ele><time>2011-04-20T14:13:57Z</time></trkpt>
<trkpt lat="54.4914049071" lon="-2.8822132958"><ele>707</ele><time>2011-04-20T14:14:17Z</time></trkpt>
<trkpt lat="54.4915833578" lon="-2.8823377671"><ele>706</ele><time>2011-04-20T14:14:33Z</time></trkpt>
<trkpt lat="54.4916363314" lon="-2.8823334923"><ele>706</ele><time>2011-04-20T14:14:37Z</time></trkpt>
<trkpt lat="54.4917245929" lon="-2.8823360907"><ele>705</ele><time>2011-04-20T14:14:45Z</time></trkpt>
<trkpt lat="54.4917990242" lon="-2.8823885614"><ele>704</ele><time>2011-04-20T14:14:52Z</time></trkpt>
<trkpt lat="54.4918433644" lon="-2.8823801795"><ele>705</ele><time>2011-04-20T14:14:56Z</time></trkpt>
<trkpt lat="54.4921571829" lon="-2.8823694507"><ele>702</ele><time>2011-04-20T14:15:20Z</time></trkpt>
<trkpt lat="54.4923509725" lon="-2.8824346619"><ele>701</ele><time>2011-04-20T14:15:43Z</time></trkpt>
<trkpt lat="54.4925399006" lon="-2.8824935029"><ele>700</ele><time>2011-04-20T14:16:07Z</time></trkpt>
<trkpt lat="54.4929242108" lon="-2.8826306308"><ele>697</ele><time>2011-04-20T14:16:38Z</time></trkpt>
<trkpt lat="54.4931737401" lon="-2.8827658309"><ele>694</ele><time>2011-04-20T14:16:58Z</time></trkpt>
<trkpt lat="54.4931907554" lon="-2.8828128534"><ele>693</ele><time>2011-04-20T14:17:01Z</time></trkpt>
<trkpt lat="54.4933009774" lon="-2.8828866979"><ele>692</ele><time>2011-04-20T14:17:10Z</time></trkpt>
<trkpt lat="54.4935488303" lon="-2.8829031265"><ele>690</ele><time>2011-04-20T14:17:30Z</time></trkpt>
<trkpt lat="54.4935882252" lon="-2.8828607979"><ele>687</ele><time>2011-04-20T14:17:36Z</time></trkpt>
<trkpt lat="54.4937178933" lon="-2.8829001928"><ele>686</ele><time>2011-04-20T14:17:46Z</time></trkpt>
<trkpt lat="54.4939601303" lon="-2.8829957465"><ele>686</ele><time>2011-04-20T14:18:05Z</time></trkpt>
<trkpt lat="54.4941684206" lon="-2.8831163621"><ele>686</ele><time>2011-04-20T14:18:24Z</time></trkpt>
<trkpt lat="54.4943702568" lon="-2.8832239019"><ele>689</ele><time>2011-04-20T14:18:43Z</time></trkpt>
<trkpt lat="54.4944872681" lon="-2.8832477065"><ele>691</ele><time>2011-04-20T14:19:00Z</time></trkpt>
<trkpt lat="54.4945385654" lon="-2.8832568428"><ele>690</ele><time>2011-04-20T14:19:33Z</time></trkpt>
<trkpt lat="54.4945917067" lon="-2.8833155999"><ele>689</ele><time>2011-04-20T14:19:38Z</time></trkpt>
<trkpt lat="54.4946135834" lon="-2.8833188689"><ele>689</ele><time>2011-04-20T14:19:40Z</time></trkpt>
<trkpt lat="54.4946479492" lon="-2.8833674839"><ele>688</ele><time>2011-04-20T14:19:45Z</time></trkpt>
<trkpt lat="54.4947592609" lon="-2.8833865947"><ele>687</ele><time>2011-04-20T14:19:54Z</time></trkpt>
<trkpt lat="54.4950275656" lon="-2.8834684858"><ele>686</ele><time>2011-04-20T14:20:16Z</time></trkpt>
<trkpt lat="54.4951035057" lon="-2.8835000856"><ele>686</ele><time>2011-04-20T14:20:23Z</time></trkpt>
<trkpt lat="54.4953983810" lon="-2.8836716632"><ele>685</ele><time>2011-04-20T14:20:48Z</time></trkpt>
<trkpt lat="54.4956883949" lon="-2.8838565680"><ele>683</ele><time>2011-04-20T14:21:12Z</time></trkpt>
<trkpt lat="54.4959260218" lon="-2.8840608349"><ele>684</ele><time>2011-04-20T14:21:33Z</time></trkpt>
<trkpt lat="54.4961666663" lon="-2.8842501821"><ele>686</ele><time>2011-04-20T14:21:54Z</time></trkpt>
<trkpt lat="54.4963754595" lon="-2.8844392779"><ele>687</ele><time>2011-04-20T14:22:13Z</time></trkpt>
<trkpt lat="54.4964254994" lon="-2.8845243542"><ele>687</ele><time>2011-04-20T14:22:19Z</time></trkpt>
<trkpt lat="54.4965991725" lon="-2.8845448899"><ele>688</ele><time>2011-04-20T14:22:34Z</time></trkpt>
<trkpt lat="54.4967887711" lon="-2.8847474805"><ele>690</ele><time>2011-04-20T14:22:54Z</time></trkpt>
<trkpt lat="54.4968212929" lon="-2.8848033877"><ele>691</ele><time>2011-04-20T14:23:13Z</time></trkpt>
<trkpt lat="54.4969258152" lon="-2.8849081615"><ele>694</ele><time>2011-04-20T14:23:27Z</time></trkpt>
<trkpt lat="54.4970586684" lon="-2.8850061460"><ele>697</ele><time>2011-04-20T14:23:42Z</time></trkpt>
<trkpt lat="54.4971194372" lon="-2.8850281066"><ele>697</ele><time>2011-04-20T14:24:03Z</time></trkpt>
<trkpt lat="54.4971206107" lon="-2.8850280228"><ele>699</ele><time>2011-04-20T14:24:29Z</time></trkpt>
<trkpt lat="54.4971205269" lon="-2.8850281904"><ele>696</ele><time>2011-04-20T14:24:37Z</time></trkpt>
<trkpt lat="54.4971205269" lon="-2.8850281904"><ele>696</ele><time>2011-04-20T14:24:38Z</time></trkpt>
<trkpt lat="54.4971206107" lon="-2.8850282742"><ele>699</ele><time>2011-04-20T14:24:39Z</time></trkpt>
<trkpt lat="54.4971206107" lon="-2.8850282742"><ele>701</ele><time>2011-04-20T14:24:41Z</time></trkpt>
<trkpt lat="54.4971632746" lon="-2.8850689264"><ele>699</ele><time>2011-04-20T14:24:48Z</time></trkpt>
<trkpt lat="54.4971835588" lon="-2.8850963353"><ele>698</ele><time>2011-04-20T14:24:50Z</time></trkpt>
<trkpt lat="54.4971918568" lon="-2.8851088243"><ele>698</ele><time>2011-04-20T14:24:51Z</time></trkpt>
<trkpt lat="54.4972607561" lon="-2.8851334671"><ele>698</ele><time>2011-04-20T14:24:58Z</time></trkpt>
<trkpt lat="54.4973610875" lon="-2.8852581060"><ele>698</ele><time>2011-04-20T14:25:11Z</time></trkpt>
<trkpt lat="54.4975514405" lon="-2.8855665600"><ele>697</ele><time>2011-04-20T14:25:33Z</time></trkpt>
<trkpt lat="54.4977282148" lon="-2.8857604335"><ele>697</ele><time>2011-04-20T14:25:55Z</time></trkpt>
<trkpt lat="54.4977405362" lon="-2.8857622775"><ele>697</ele><time>2011-04-20T14:25:56Z</time></trkpt>
<trkpt lat="54.4979176458" lon="-2.8857515486"><ele>697</ele><time>2011-04-20T14:26:13Z</time></trkpt>
<trkpt lat="54.4979329847" lon="-2.8857539794"><ele>696</ele><time>2011-04-20T14:26:39Z</time></trkpt>
<trkpt lat="54.4979349964" lon="-2.8857864174"><ele>695</ele><time>2011-04-20T14:27:42Z</time></trkpt>
<trkpt lat="54.4979553644" lon="-2.8858542269"><ele>694</ele><time>2011-04-20T14:27:46Z</time></trkpt>
<trkpt lat="54.4979879700" lon="-2.8859434104"><ele>694</ele><time>2011-04-20T14:27:51Z</time></trkpt>
<trkpt lat="54.4982047260" lon="-2.8861271417"><ele>694</ele><time>2011-04-20T14:28:10Z</time></trkpt>
<trkpt lat="54.4983814165" lon="-2.8863077717"><ele>694</ele><time>2011-04-20T14:28:27Z</time></trkpt>
<trkpt lat="54.4984094121" lon="-2.8863737373"><ele>694</ele><time>2011-04-20T14:28:31Z</time></trkpt>
<trkpt lat="54.4984841787" lon="-2.8863866454"><ele>695</ele><time>2011-04-20T14:28:37Z</time></trkpt>
<trkpt lat="54.4986917146" lon="-2.8865810218"><ele>695</ele><time>2011-04-20T14:28:56Z</time></trkpt>
<trkpt lat="54.4989458539" lon="-2.8867698661"><ele>696</ele><time>2011-04-20T14:29:21Z</time></trkpt>
<trkpt lat="54.4989502125" lon="-2.8867519288"><ele>695</ele><time>2011-04-20T14:29:25Z</time></trkpt>
<trkpt lat="54.4989554093" lon="-2.8867209157"><ele>695</ele><time>2011-04-20T14:29:52Z</time></trkpt>
<trkpt lat="54.4989546549" lon="-2.8867358355"><ele>694</ele><time>2011-04-20T14:35:53Z</time></trkpt>
<trkpt lat="54.4989662219" lon="-2.8867311417"><ele>695</ele><time>2011-04-20T14:36:24Z</time></trkpt>
<trkpt lat="54.4989699938" lon="-2.8867272860"><ele>695</ele><time>2011-04-20T14:36:26Z</time></trkpt>
<trkpt lat="54.4990099755" lon="-2.8867173115"><ele>695</ele><time>2011-04-20T14:36:30Z</time></trkpt>
<trkpt lat="54.4991095525" lon="-2.8867593887"><ele>695</ele><time>2011-04-20T14:36:40Z</time></trkpt>
<trkpt lat="54.4992421542" lon="-2.8868528469"><ele>693</ele><time>2011-04-20T14:36:52Z</time></trkpt>
<trkpt lat="54.4992630251" lon="-2.8868891405"><ele>693</ele><time>2011-04-20T14:36:55Z</time></trkpt>
<trkpt lat="54.4995012388" lon="-2.8870890489"><ele>690</ele><time>2011-04-20T14:37:18Z</time></trkpt>
<trkpt lat="54.4996697989" lon="-2.8872493947"><ele>686</ele><time>2011-04-20T14:37:35Z</time></trkpt>
<trkpt lat="54.4998898238" lon="-2.8874166975"><ele>684</ele><time>2011-04-20T14:37:54Z</time></trkpt>
<trkpt lat="54.5000132055" lon="-2.8873918871"><ele>683</ele><time>2011-04-20T14:38:12Z</time></trkpt>
<trkpt lat="54.5000147980" lon="-2.8873936473"><ele>683</ele><time>2011-04-20T14:39:19Z</time></trkpt>
<trkpt lat="54.5000173964" lon="-2.8874025321"><ele>683</ele><time>2011-04-20T14:39:22Z</time></trkpt>
<trkpt lat="54.5001187336" lon="-2.8876615329"><ele>681</ele><time>2011-04-20T14:39:40Z</time></trkpt>
<trkpt lat="54.5001322285" lon="-2.8876839964"><ele>681</ele><time>2011-04-20T14:39:42Z</time></trkpt>
<trkpt lat="54.5001453042" lon="-2.8877446814"><ele>680</ele><time>2011-04-20T14:39:45Z</time></trkpt>
<trkpt lat="54.5001754791" lon="-2.8877815618"><ele>681</ele><time>2011-04-20T14:39:48Z</time></trkpt>
<trkpt lat="54.5003183906" lon="-2.8879206175"><ele>678</ele><time>2011-04-20T14:40:05Z</time></trkpt>
<trkpt lat="54.5003381718" lon="-2.8879655445"><ele>677</ele><time>2011-04-20T14:40:10Z</time></trkpt>
<trkpt lat="54.5004354019" lon="-2.8882008246"><ele>674</ele><time>2011-04-20T14:40:25Z</time></trkpt>
<trkpt lat="54.5004882917" lon="-2.8884014873"><ele>673</ele><time>2011-04-20T14:40:44Z</time></trkpt>
<trkpt lat="54.5005028762" lon="-2.8884004815"><ele>673</ele><time>2011-04-20T14:41:14Z</time></trkpt>
<trkpt lat="54.5005481385" lon="-2.8885019025"><ele>670</ele><time>2011-04-20T14:41:34Z</time></trkpt>
<trkpt lat="54.5005403433" lon="-2.8885082728"><ele>670</ele><time>2011-04-20T14:41:52Z</time></trkpt>
<trkpt lat="54.5006928102" lon="-2.8888515117"><ele>669</ele><time>2011-04-20T14:42:12Z</time></trkpt>
<trkpt lat="54.5007022817" lon="-2.8888709577"><ele>668</ele><time>2011-04-20T14:42:13Z</time></trkpt>
<trkpt lat="54.5009611149" lon="-2.8890894739"><ele>665</ele><time>2011-04-20T14:42:34Z</time></trkpt>
<trkpt lat="54.5010326125" lon="-2.8891990254"><ele>664</ele><time>2011-04-20T14:42:42Z</time></trkpt>
<trkpt lat="54.5011167668" lon="-2.8892338941"><ele>662</ele><time>2011-04-20T14:42:50Z</time></trkpt>
<trkpt lat="54.5012080458" lon="-2.8893356504"><ele>662</ele><time>2011-04-20T14:43:04Z</time></trkpt>
<trkpt lat="54.5012935412" lon="-2.8893585330"><ele>659</ele><time>2011-04-20T14:43:14Z</time></trkpt>
<trkpt lat="54.5013012525" lon="-2.8893624725"><ele>659</ele><time>2011-04-20T14:43:15Z</time></trkpt>
<trkpt lat="54.5014141568" lon="-2.8894556793"><ele>656</ele><time>2011-04-20T14:43:30Z</time></trkpt>
<trkpt lat="54.5014721595" lon="-2.8895031209"><ele>653</ele><time>2011-04-20T14:43:39Z</time></trkpt>
<trkpt lat="54.5015535478" lon="-2.8895099940"><ele>653</ele><time>2011-04-20T14:43:55Z</time></trkpt>
<trkpt lat="54.5015538831" lon="-2.8895100778"><ele>653</ele><time>2011-04-20T14:43:56Z</time></trkpt>
<trkpt lat="54.5015553918" lon="-2.8895089882"><ele>652</ele><time>2011-04-20T14:43:58Z</time></trkpt>
<trkpt lat="54.5015600019" lon="-2.8895154423"><ele>650</ele><time>2011-04-20T14:44:01Z</time></trkpt>
<trkpt lat="54.5016854790" lon="-2.8895783065"><ele>648</ele><time>2011-04-20T14:44:17Z</time></trkpt>
<trkpt lat="54.5017818708" lon="-2.8896335433"><ele>645</ele><time>2011-04-20T14:44:32Z</time></trkpt>
<trkpt lat="54.5018493452" lon="-2.8897582660"><ele>642</ele><time>2011-04-20T14:44:51Z</time></trkpt>
<trkpt lat="54.5018680368" lon="-2.8898200406"><ele>640</ele><time>2011-04-20T14:45:07Z</time></trkpt>
<trkpt lat="54.5018928472" lon="-2.8897663964"><ele>639</ele><time>2011-04-20T14:45:19Z</time></trkpt>
<trkpt lat="54.5019578070" lon="-2.8896967428"><ele>637</ele><time>2011-04-20T14:45:36Z</time></trkpt>
<trkpt lat="54.5019851320" lon="-2.8896411708"><ele>633</ele><time>2011-04-20T14:45:48Z</time></trkpt>
<trkpt lat="54.5019931786" lon="-2.8895332957"><ele>630</ele><time>2011-04-20T14:46:03Z</time></trkpt>
<trkpt lat="54.5020446435" lon="-2.8895255005"><ele>627</ele><time>2011-04-20T14:46:21Z</time></trkpt>
<trkpt lat="54.5020817753" lon="-2.8894789810"><ele>625</ele><time>2011-04-20T14:46:38Z</time></trkpt>
<trkpt lat="54.5021547817" lon="-2.8894926435"><ele>621</ele><time>2011-04-20T14:46:49Z</time></trkpt>
<trkpt lat="54.5021998764" lon="-2.8895208067"><ele>620</ele><time>2011-04-20T14:46:56Z</time></trkpt>
<trkpt lat="54.5022971064" lon="-2.8895417614"><ele>617</ele><time>2011-04-20T14:47:11Z</time></trkpt>
<trkpt lat="54.5023589649" lon="-2.8896039552"><ele>613</ele><time>2011-04-20T14:47:21Z</time></trkpt>
<trkpt lat="54.5024196499" lon="-2.8896884447"><ele>611</ele><time>2011-04-20T14:47:33Z</time></trkpt>
<trkpt lat="54.5025087495" lon="-2.8897021911"><ele>608</ele><time>2011-04-20T14:47:47Z</time></trkpt>
<trkpt lat="54.5025163770" lon="-2.8896681605"><ele>607</ele><time>2011-04-20T14:47:50Z</time></trkpt>
<trkpt lat="54.5025827617" lon="-2.8897075555"><ele>604</ele><time>2011-04-20T14:48:03Z</time></trkpt>
<trkpt lat="54.5025908083" lon="-2.8897635466"><ele>606</ele><time>2011-04-20T14:49:11Z</time></trkpt>
<trkpt lat="54.5026650720" lon="-2.8898161849"><ele>605</ele><time>2011-04-20T14:49:26Z</time></trkpt>
<trkpt lat="54.5027491425" lon="-2.8898937175"><ele>604</ele><time>2011-04-20T14:49:44Z</time></trkpt>
<trkpt lat="54.5029868532" lon="-2.8900450109"><ele>600</ele><time>2011-04-20T14:50:05Z</time></trkpt>
<trkpt lat="54.5030045391" lon="-2.8900590925"><ele>600</ele><time>2011-04-20T14:50:07Z</time></trkpt>
<trkpt lat="54.5030781322" lon="-2.8901126529"><ele>596</ele><time>2011-04-20T14:50:20Z</time></trkpt>
<trkpt lat="54.5031393201" lon="-2.8901741760"><ele>595</ele><time>2011-04-20T14:50:26Z</time></trkpt>
<trkpt lat="54.5031778768" lon="-2.8901929515"><ele>595</ele><time>2011-04-20T14:50:29Z</time></trkpt>
<trkpt lat="54.5032083869" lon="-2.8902310891"><ele>593</ele><time>2011-04-20T14:50:32Z</time></trkpt>
<trkpt lat="54.5032141705" lon="-2.8902476853"><ele>593</ele><time>2011-04-20T14:50:33Z</time></trkpt>
<trkpt lat="54.5032386456" lon="-2.8903136509"><ele>593</ele><time>2011-04-20T14:50:37Z</time></trkpt>
<trkpt lat="54.5033585907" lon="-2.8904576520"><ele>590</ele><time>2011-04-20T14:50:53Z</time></trkpt>
<trkpt lat="54.5034502049" lon="-2.8905268865"><ele>587</ele><time>2011-04-20T14:51:41Z</time></trkpt>
<trkpt lat="54.5034560722" lon="-2.8905384535"><ele>587</ele><time>2011-04-20T14:51:42Z</time></trkpt>
<trkpt lat="54.5034716625" lon="-2.8905827100"><ele>585</ele><time>2011-04-20T14:51:45Z</time></trkpt>
<trkpt lat="54.5035799567" lon="-2.8907446484"><ele>582</ele><time>2011-04-20T14:51:57Z</time></trkpt>
<trkpt lat="54.5035942059" lon="-2.8907510186"><ele>582</ele><time>2011-04-20T14:52:06Z</time></trkpt>
<trkpt lat="54.5036367860" lon="-2.8908000527"><ele>580</ele><time>2011-04-20T14:52:12Z</time></trkpt>
<trkpt lat="54.5036728282" lon="-2.8908460694"><ele>576</ele><time>2011-04-20T14:52:25Z</time></trkpt>
<trkpt lat="54.5036677152" lon="-2.8908548704"><ele>576</ele><time>2011-04-20T14:52:26Z</time></trkpt>
<trkpt lat="54.5037019134" lon="-2.8909034854"><ele>575</ele><time>2011-04-20T14:52:38Z</time></trkpt>
<trkpt lat="54.5038045917" lon="-2.8909627455"><ele>571</ele><time>2011-04-20T14:52:54Z</time></trkpt>
<trkpt lat="54.5038185057" lon="-2.8909647571"><ele>570</ele><time>2011-04-20T14:52:56Z</time></trkpt>
<trkpt lat="54.5038733233" lon="-2.8910218379"><ele>567</ele><time>2011-04-20T14:53:03Z</time></trkpt>
<trkpt lat="54.5039573100" lon="-2.8911965168"><ele>565</ele><time>2011-04-20T14:53:15Z</time></trkpt>
<trkpt lat="54.5039765884" lon="-2.8912090058"><ele>564</ele><time>2011-04-20T14:53:17Z</time></trkpt>
<trkpt lat="54.5040034105" lon="-2.8912305473"><ele>563</ele><time>2011-04-20T14:53:20Z</time></trkpt>
<trkpt lat="54.5040325795" lon="-2.8912863708"><ele>562</ele><time>2011-04-20T14:53:24Z</time></trkpt>
<trkpt lat="54.5041180749" lon="-2.8913059844"><ele>561</ele><time>2011-04-20T14:53:31Z</time></trkpt>
<trkpt lat="54.5043027282" lon="-2.8913885462"><ele>558</ele><time>2011-04-20T14:53:48Z</time></trkpt>
<trkpt lat="54.5043802608" lon="-2.8915167055"><ele>556</ele><time>2011-04-20T14:53:58Z</time></trkpt>
<trkpt lat="54.5044490763" lon="-2.8916644784"><ele>553</ele><time>2011-04-20T14:54:07Z</time></trkpt>
<trkpt lat="54.5045218312" lon="-2.8917465372"><ele>551</ele><time>2011-04-20T14:54:15Z</time></trkpt>
<trkpt lat="54.5045301293" lon="-2.8917964934"><ele>550</ele><time>2011-04-20T14:54:18Z</time></trkpt>
<trkpt lat="54.5046330590" lon="-2.8919733515"><ele>549</ele><time>2011-04-20T14:54:37Z</time></trkpt>
<trkpt lat="54.5046334781" lon="-2.8919784645"><ele>549</ele><time>2011-04-20T14:54:38Z</time></trkpt>
<trkpt lat="54.5046510801" lon="-2.8920803884"><ele>548</ele><time>2011-04-20T14:54:45Z</time></trkpt>
<trkpt lat="54.5047502380" lon="-2.8922556540"><ele>545</ele><time>2011-04-20T14:55:01Z</time></trkpt>
<trkpt lat="54.5048791517" lon="-2.8922934564"><ele>542</ele><time>2011-04-20T14:55:20Z</time></trkpt>
<trkpt lat="54.5049556785" lon="-2.8922895169"><ele>538</ele><time>2011-04-20T14:55:28Z</time></trkpt>
<trkpt lat="54.5049621325" lon="-2.8922870024"><ele>538</ele><time>2011-04-20T14:55:29Z</time></trkpt>
<trkpt lat="54.5050508131" lon="-2.8923121481"><ele>536</ele><time>2011-04-20T14:55:41Z</time></trkpt>
<trkpt lat="54.5051161081" lon="-2.8923868308"><ele>532</ele><time>2011-04-20T14:55:51Z</time></trkpt>
<trkpt lat="54.5051825766" lon="-2.8924319255"><ele>529</ele><time>2011-04-20T14:56:02Z</time></trkpt>
<trkpt lat="54.5052168586" lon="-2.8924364517"><ele>527</ele><time>2011-04-20T14:56:09Z</time></trkpt>
<trkpt lat="54.5052751128" lon="-2.8924994836"><ele>524</ele><time>2011-04-20T14:56:21Z</time></trkpt>
<trkpt lat="54.5052782141" lon="-2.8925180914"><ele>525</ele><time>2011-04-20T14:56:38Z</time></trkpt>
<trkpt lat="54.5052951456" lon="-2.8925600009"><ele>522</ele><time>2011-04-20T14:57:47Z</time></trkpt>
<trkpt lat="54.5053632904" lon="-2.8925155769"><ele>519</ele><time>2011-04-20T14:58:02Z</time></trkpt>
<trkpt lat="54.5054406554" lon="-2.8924590828"><ele>516</ele><time>2011-04-20T14:58:16Z</time></trkpt>
<trkpt lat="54.5055802979" lon="-2.8922068714"><ele>513</ele><time>2011-04-20T14:58:32Z</time></trkpt>
<trkpt lat="54.5056597583" lon="-2.8921015108"><ele>510</ele><time>2011-04-20T14:58:44Z</time></trkpt>
<trkpt lat="54.5056987342" lon="-2.8920427537"><ele>508</ele><time>2011-04-20T14:58:49Z</time></trkpt>
<trkpt lat="54.5057309207" lon="-2.8919974914"><ele>507</ele><time>2011-04-20T14:58:54Z</time></trkpt>
<trkpt lat="54.5058027536" lon="-2.8918883590"><ele>504</ele><time>2011-04-20T14:59:05Z</time></trkpt>
<trkpt lat="54.5058781069" lon="-2.8918468686"><ele>500</ele><time>2011-04-20T14:59:23Z</time></trkpt>
<trkpt lat="54.5059182562" lon="-2.8917653965"><ele>498</ele><time>2011-04-20T14:59:37Z</time></trkpt>
<trkpt lat="54.5059730739" lon="-2.8916793144"><ele>494</ele><time>2011-04-20T14:59:49Z</time></trkpt>
<trkpt lat="54.5060085293" lon="-2.8915507360"><ele>493</ele><time>2011-04-20T15:00:02Z</time></trkpt>
<trkpt lat="54.5060180009" lon="-2.8915227404"><ele>492</ele><time>2011-04-20T15:00:05Z</time></trkpt>
<trkpt lat="54.5060143129" lon="-2.8913341476"><ele>489</ele><time>2011-04-20T15:00:21Z</time></trkpt>
<trkpt lat="54.5060019915" lon="-2.8912347382"><ele>487</ele><time>2011-04-20T15:00:36Z</time></trkpt>
<trkpt lat="54.5060169951" lon="-2.8910989514"><ele>484</ele><time>2011-04-20T15:00:49Z</time></trkpt>
<trkpt lat="54.5060546298" lon="-2.8910148809"><ele>481</ele><time>2011-04-20T15:01:05Z</time></trkpt>
<trkpt lat="54.5060944438" lon="-2.8909939262"><ele>479</ele><time>2011-04-20T15:01:18Z</time></trkpt>
<trkpt lat="54.5061500159" lon="-2.8910299683"><ele>475</ele><time>2011-04-20T15:01:28Z</time></trkpt>
<trkpt lat="54.5062061746" lon="-2.8910388532"><ele>474</ele><time>2011-04-20T15:01:42Z</time></trkpt>
<trkpt lat="54.5062826176" lon="-2.8910921621"><ele>471</ele><time>2011-04-20T15:01:58Z</time></trkpt>
<trkpt lat="54.5062901613" lon="-2.8911105184"><ele>470</ele><time>2011-04-20T15:02:00Z</time></trkpt>
<trkpt lat="54.5063268740" lon="-2.8911522603"><ele>468</ele><time>2011-04-20T15:02:17Z</time></trkpt>
<trkpt lat="54.5063865532" lon="-2.8912647454"><ele>464</ele><time>2011-04-20T15:02:33Z</time></trkpt>
<trkpt lat="54.5064307258" lon="-2.8914426094"><ele>462</ele><time>2011-04-20T15:02:47Z</time></trkpt>
<trkpt lat="54.5064597272" lon="-2.8915915559"><ele>460</ele><time>2011-04-20T15:03:01Z</time></trkpt>
<trkpt lat="54.5065196578" lon="-2.8916422664"><ele>457</ele><time>2011-04-20T15:03:13Z</time></trkpt>
<trkpt lat="54.5065354158" lon="-2.8916944856"><ele>456</ele><time>2011-04-20T15:03:18Z</time></trkpt>
<trkpt lat="54.5065728829" lon="-2.8917938112"><ele>452</ele><time>2011-04-20T15:03:31Z</time></trkpt>
<trkpt lat="54.5066150439" lon="-2.8918399955"><ele>450</ele><time>2011-04-20T15:03:43Z</time></trkpt>
<trkpt lat="54.5066235096" lon="-2.8918163585"><ele>449</ele><time>2011-04-20T15:03:56Z</time></trkpt>
<trkpt lat="54.5066007108" lon="-2.8919586832"><ele>447</ele><time>2011-04-20T15:04:13Z</time></trkpt>
<trkpt lat="54.5066000402" lon="-2.8920515547"><ele>444</ele><time>2011-04-20T15:04:20Z</time></trkpt>
<trkpt lat="54.5065777444" lon="-2.8921249802"><ele>443</ele><time>2011-04-20T15:04:26Z</time></trkpt>
<trkpt lat="54.5065791693" lon="-2.8921698234"><ele>442</ele><time>2011-04-20T15:04:32Z</time></trkpt>
<trkpt lat="54.5065740563" lon="-2.8922152533"><ele>441</ele><time>2011-04-20T15:04:46Z</time></trkpt>
<trkpt lat="54.5066002079" lon="-2.8923538061"><ele>438</ele><time>2011-04-20T15:05:01Z</time></trkpt>
<trkpt lat="54.5065994535" lon="-2.8923838972"><ele>438</ele><time>2011-04-20T15:05:03Z</time></trkpt>
<trkpt lat="54.5066232581" lon="-2.8925159960"><ele>435</ele><time>2011-04-20T15:05:13Z</time></trkpt>
<trkpt lat="54.5066376750" lon="-2.8925745855"><ele>433</ele><time>2011-04-20T15:05:17Z</time></trkpt>
<trkpt lat="54.5066672631" lon="-2.8926905072"><ele>431</ele><time>2011-04-20T15:05:28Z</time></trkpt>
<trkpt lat="54.5066890561" lon="-2.8927550478"><ele>429</ele><time>2011-04-20T15:05:33Z</time></trkpt>
<trkpt lat="54.5067065742" lon="-2.8928578938"><ele>427</ele><time>2011-04-20T15:05:42Z</time></trkpt>
<trkpt lat="54.5067664210" lon="-2.8929363484"><ele>424</ele><time>2011-04-20T15:05:53Z</time></trkpt>
<trkpt lat="54.5068118509" lon="-2.8929966143"><ele>422</ele><time>2011-04-20T15:06:01Z</time></trkpt>
<trkpt lat="54.5068422772" lon="-2.8931148829"><ele>418</ele><time>2011-04-20T15:06:11Z</time></trkpt>
<trkpt lat="54.5068930716" lon="-2.8931844527"><ele>415</ele><time>2011-04-20T15:06:25Z</time></trkpt>
<trkpt lat="54.5068833486" lon="-2.8931768252"><ele>415</ele><time>2011-04-20T15:07:16Z</time></trkpt>
<trkpt lat="54.5069049739" lon="-2.8933230056"><ele>412</ele><time>2011-04-20T15:08:11Z</time></trkpt>
<trkpt lat="54.5069584504" lon="-2.8934479798"><ele>409</ele><time>2011-04-20T15:08:23Z</time></trkpt>
<trkpt lat="54.5069747113" lon="-2.8935113470"><ele>406</ele><time>2011-04-20T15:08:29Z</time></trkpt>
<trkpt lat="54.5069773097" lon="-2.8936987663"><ele>403</ele><time>2011-04-20T15:08:44Z</time></trkpt>
<trkpt lat="54.5070377432" lon="-2.8938307813"><ele>400</ele><time>2011-04-20T15:08:58Z</time></trkpt>
<trkpt lat="54.5070994340" lon="-2.8939185398"><ele>396</ele><time>2011-04-20T15:09:11Z</time></trkpt>
<trkpt lat="54.5071446125" lon="-2.8939736927"><ele>393</ele><time>2011-04-20T15:09:23Z</time></trkpt>
<trkpt lat="54.5071684171" lon="-2.8940239003"><ele>391</ele><time>2011-04-20T15:09:27Z</time></trkpt>
<trkpt lat="54.5072151043" lon="-2.8941799714"><ele>388</ele><time>2011-04-20T15:09:39Z</time></trkpt>
<trkpt lat="54.5072409206" lon="-2.8943124893"><ele>385</ele><time>2011-04-20T15:09:49Z</time></trkpt>
<trkpt lat="54.5072415073" lon="-2.8943233019"><ele>385</ele><time>2011-04-20T15:09:50Z</time></trkpt>
<trkpt lat="54.5072635517" lon="-2.8944631121"><ele>381</ele><time>2011-04-20T15:10:00Z</time></trkpt>
<trkpt lat="54.5072843388" lon="-2.8946037604"><ele>378</ele><time>2011-04-20T15:10:10Z</time></trkpt>
<trkpt lat="54.5073149328" lon="-2.8947034212"><ele>376</ele><time>2011-04-20T15:10:18Z</time></trkpt>
<trkpt lat="54.5073603627" lon="-2.8948179180"><ele>373</ele><time>2011-04-20T15:10:28Z</time></trkpt>
<trkpt lat="54.5074102350" lon="-2.8949252902"><ele>369</ele><time>2011-04-20T15:10:40Z</time></trkpt>
<trkpt lat="54.5074135040" lon="-2.8949366896"><ele>369</ele><time>2011-04-20T15:10:41Z</time></trkpt>
<trkpt lat="54.5074448523" lon="-2.8950413796"><ele>367</ele><time>2011-04-20T15:10:48Z</time></trkpt>
<trkpt lat="54.5074917071" lon="-2.8951738136"><ele>363</ele><time>2011-04-20T15:11:03Z</time></trkpt>
<trkpt lat="54.5074889411" lon="-2.8952870531"><ele>360</ele><time>2011-04-20T15:11:19Z</time></trkpt>
<trkpt lat="54.5075008434" lon="-2.8953739735"><ele>358</ele><time>2011-04-20T15:11:35Z</time></trkpt>
<trkpt lat="54.5075498775" lon="-2.8954323115"><ele>354</ele><time>2011-04-20T15:11:47Z</time></trkpt>
<trkpt lat="54.5075912841" lon="-2.8955033901"><ele>351</ele><time>2011-04-20T15:11:58Z</time></trkpt>
<trkpt lat="54.5075917032" lon="-2.8955147895"><ele>351</ele><time>2011-04-20T15:11:59Z</time></trkpt>
<trkpt lat="54.5076292541" lon="-2.8955811741"><ele>348</ele><time>2011-04-20T15:12:08Z</time></trkpt>
<trkpt lat="54.5076343671" lon="-2.8955924059"><ele>348</ele><time>2011-04-20T15:12:09Z</time></trkpt>
<trkpt lat="54.5076793779" lon="-2.8956400989"><ele>344</ele><time>2011-04-20T15:12:21Z</time></trkpt>
<trkpt lat="54.5077360396" lon="-2.8956740456"><ele>340</ele><time>2011-04-20T15:12:33Z</time></trkpt>
<trkpt lat="54.5077384703" lon="-2.8956845230"><ele>340</ele><time>2011-04-20T15:12:34Z</time></trkpt>
<trkpt lat="54.5078061961" lon="-2.8957695993"><ele>337</ele><time>2011-04-20T15:12:47Z</time></trkpt>
<trkpt lat="54.5078289949" lon="-2.8958310387"><ele>335</ele><time>2011-04-20T15:12:53Z</time></trkpt>
<trkpt lat="54.5078512908" lon="-2.8959627184"><ele>331</ele><time>2011-04-20T15:13:03Z</time></trkpt>
<trkpt lat="54.5078846507" lon="-2.8960047955"><ele>330</ele><time>2011-04-20T15:13:07Z</time></trkpt>
<trkpt lat="54.5079304997" lon="-2.8961055460"><ele>326</ele><time>2011-04-20T15:13:17Z</time></trkpt>
<trkpt lat="54.5079859041" lon="-2.8962390697"><ele>322</ele><time>2011-04-20T15:13:31Z</time></trkpt>
<trkpt lat="54.5079937831" lon="-2.8962526484"><ele>322</ele><time>2011-04-20T15:13:32Z</time></trkpt>
<trkpt lat="54.5080232874" lon="-2.8963200389"><ele>319</ele><time>2011-04-20T15:13:42Z</time></trkpt>
<trkpt lat="54.5080315017" lon="-2.8963525607"><ele>318</ele><time>2011-04-20T15:13:44Z</time></trkpt>
<trkpt lat="54.5080715672" lon="-2.8965020938"><ele>315</ele><time>2011-04-20T15:13:56Z</time></trkpt>
<trkpt lat="54.5080915161" lon="-2.8966693128"><ele>312</ele><time>2011-04-20T15:14:10Z</time></trkpt>
<trkpt lat="54.5081152369" lon="-2.8966791196"><ele>311</ele><time>2011-04-20T15:14:21Z</time></trkpt>
<trkpt lat="54.5081743293" lon="-2.8968874099"><ele>307</ele><time>2011-04-20T15:14:38Z</time></trkpt>
<trkpt lat="54.5081793584" lon="-2.8971174093"><ele>304</ele><time>2011-04-20T15:14:52Z</time></trkpt>
<trkpt lat="54.5081755028" lon="-2.8971915892"><ele>302</ele><time>2011-04-20T15:14:59Z</time></trkpt>
<trkpt lat="54.5081432324" lon="-2.8973430502"><ele>301</ele><time>2011-04-20T15:15:16Z</time></trkpt>
<trkpt lat="54.5081360240" lon="-2.8974780826"><ele>299</ele><time>2011-04-20T15:16:51Z</time></trkpt>
<trkpt lat="54.5081230321" lon="-2.8976065772"><ele>297</ele><time>2011-04-20T15:17:00Z</time></trkpt>
<trkpt lat="54.5080859002" lon="-2.8978043901"><ele>294</ele><time>2011-04-20T15:17:12Z</time></trkpt>
<trkpt lat="54.5080856488" lon="-2.8978804978"><ele>292</ele><time>2011-04-20T15:17:18Z</time></trkpt>
<trkpt lat="54.5080745847" lon="-2.8980857706"><ele>289</ele><time>2011-04-20T15:17:30Z</time></trkpt>
<trkpt lat="54.5080733274" lon="-2.8982686637"><ele>286</ele><time>2011-04-20T15:17:41Z</time></trkpt>
<trkpt lat="54.5080135644" lon="-2.8984750262"><ele>283</ele><time>2011-04-20T15:17:53Z</time></trkpt>
<trkpt lat="54.5080003210" lon="-2.8985249823"><ele>283</ele><time>2011-04-20T15:17:56Z</time></trkpt>
<trkpt lat="54.5080035899" lon="-2.8985790456"><ele>282</ele><time>2011-04-20T15:17:59Z</time></trkpt>
<trkpt lat="54.5079953757" lon="-2.8986159260"><ele>281</ele><time>2011-04-20T15:18:01Z</time></trkpt>
<trkpt lat="54.5079828866" lon="-2.8986721686"><ele>280</ele><time>2011-04-20T15:18:18Z</time></trkpt>
<trkpt lat="54.5079702300" lon="-2.8988608452"><ele>277</ele><time>2011-04-20T15:18:34Z</time></trkpt>
<trkpt lat="54.5079891731" lon="-2.8989965482"><ele>274</ele><time>2011-04-20T15:18:44Z</time></trkpt>
<trkpt lat="54.5079885863" lon="-2.8990178382"><ele>274</ele><time>2011-04-20T15:18:45Z</time></trkpt>
<trkpt lat="54.5079832219" lon="-2.8993081036"><ele>271</ele><time>2011-04-20T15:19:00Z</time></trkpt>
<trkpt lat="54.5079647817" lon="-2.8995188246"><ele>267</ele><time>2011-04-20T15:19:11Z</time></trkpt>
<trkpt lat="54.5079680507" lon="-2.8996275379"><ele>265</ele><time>2011-04-20T15:19:28Z</time></trkpt>
<trkpt lat="54.5079544720" lon="-2.8997681024"><ele>262</ele><time>2011-04-20T15:19:37Z</time></trkpt>
<trkpt lat="54.5079486885" lon="-2.8998283683"><ele>262</ele><time>2011-04-20T15:19:40Z</time></trkpt>
<trkpt lat="54.5079382111" lon="-2.8998623150"><ele>261</ele><time>2011-04-20T15:19:42Z</time></trkpt>
<trkpt lat="54.5079284043" lon="-2.8999519175"><ele>259</ele><time>2011-04-20T15:20:03Z</time></trkpt>
<trkpt lat="54.5079290748" lon="-2.8999528395"><ele>259</ele><time>2011-04-20T15:20:59Z</time></trkpt>
<trkpt lat="54.5079149932" lon="-2.9001614651"><ele>257</ele><time>2011-04-20T15:21:14Z</time></trkpt>
<trkpt lat="54.5078973912" lon="-2.9002110860"><ele>255</ele><time>2011-04-20T15:21:18Z</time></trkpt>
<trkpt lat="54.5078589183" lon="-2.9004523172"><ele>252</ele><time>2011-04-20T15:21:33Z</time></trkpt>
<trkpt lat="54.5078075372" lon="-2.9008108112"><ele>249</ele><time>2011-04-20T15:21:51Z</time></trkpt>
<trkpt lat="54.5078267318" lon="-2.9010176765"><ele>245</ele><time>2011-04-20T15:22:03Z</time></trkpt>
<trkpt lat="54.5078548950" lon="-2.9012408866"><ele>242</ele><time>2011-04-20T15:22:16Z</time></trkpt>
<trkpt lat="54.5078451720" lon="-2.9013180839"><ele>241</ele><time>2011-04-20T15:22:21Z</time></trkpt>
<trkpt lat="54.5078293302" lon="-2.9014261267"><ele>239</ele><time>2011-04-20T15:22:28Z</time></trkpt>
<trkpt lat="54.5078335211" lon="-2.9015084370"><ele>239</ele><time>2011-04-20T15:22:32Z</time></trkpt>
<trkpt lat="54.5078230437" lon="-2.9015691219"><ele>238</ele><time>2011-04-20T15:22:36Z</time></trkpt>
<trkpt lat="54.5078577448" lon="-2.9017810164"><ele>234</ele><time>2011-04-20T15:22:51Z</time></trkpt>
<trkpt lat="54.5078667973" lon="-2.9019794999"><ele>231</ele><time>2011-04-20T15:23:05Z</time></trkpt>
<trkpt lat="54.5078765203" lon="-2.9021587888"><ele>228</ele><time>2011-04-20T15:23:15Z</time></trkpt>
<trkpt lat="54.5078391370" lon="-2.9023145246"><ele>228</ele><time>2011-04-20T15:23:25Z</time></trkpt>
<trkpt lat="54.5078237143" lon="-2.9024034566"><ele>226</ele><time>2011-04-20T15:23:31Z</time></trkpt>
<trkpt lat="54.5078330182" lon="-2.9024390797"><ele>224</ele><time>2011-04-20T15:23:33Z</time></trkpt>
<trkpt lat="54.5078705691" lon="-2.9024826656"><ele>224</ele><time>2011-04-20T15:23:37Z</time></trkpt>
<trkpt lat="54.5080045119" lon="-2.9024472101"><ele>223</ele><time>2011-04-20T15:23:57Z</time></trkpt>
<trkpt lat="54.5080289033" lon="-2.9024574360"><ele>222</ele><time>2011-04-20T15:24:32Z</time></trkpt>
<trkpt lat="54.5080514506" lon="-2.9025083142"><ele>223</ele><time>2011-04-20T15:24:54Z</time></trkpt>
<trkpt lat="54.5080779374" lon="-2.9024941488"><ele>223</ele><time>2011-04-20T15:25:16Z</time></trkpt>
<trkpt lat="54.5080317531" lon="-2.9025010219"><ele>222</ele><time>2011-04-20T15:25:27Z</time></trkpt>
<trkpt lat="54.5080372852" lon="-2.9024964957"><ele>223</ele><time>2011-04-20T15:25:36Z</time></trkpt>
<trkpt lat="54.5080516182" lon="-2.9025619584"><ele>222</ele><time>2011-04-20T15:25:41Z</time></trkpt>
<trkpt lat="54.5080071103" lon="-2.9029664690"><ele>221</ele><time>2011-04-20T15:26:01Z</time></trkpt>
<trkpt lat="54.5080064398" lon="-2.9029817241"><ele>221</ele><time>2011-04-20T15:26:02Z</time></trkpt>
<trkpt lat="54.5079774384" lon="-2.9030636991"><ele>221</ele><time>2011-04-20T15:26:07Z</time></trkpt>
<trkpt lat="54.5078157515" lon="-2.9035964529"><ele>217</ele><time>2011-04-20T15:26:32Z</time></trkpt>
<trkpt lat="54.5077345308" lon="-2.9038540287"><ele>215</ele><time>2011-04-20T15:26:49Z</time></trkpt>
<trkpt lat="54.5077329383" lon="-2.9038681942"><ele>216</ele><time>2011-04-20T15:27:03Z</time></trkpt>
<trkpt lat="54.5077465170" lon="-2.9039036496"><ele>216</ele><time>2011-04-20T15:27:25Z</time></trkpt>
<trkpt lat="54.5077596766" lon="-2.9043087470"><ele>216</ele><time>2011-04-20T15:27:45Z</time></trkpt>
<trkpt lat="54.5078035977" lon="-2.9047259981"><ele>216</ele><time>2011-04-20T15:28:04Z</time></trkpt>
<trkpt lat="54.5077366263" lon="-2.9050694047"><ele>216</ele><time>2011-04-20T15:28:25Z</time></trkpt>
<trkpt lat="54.5076682300" lon="-2.9054686348"><ele>214</ele><time>2011-04-20T15:28:46Z</time></trkpt>
<trkpt lat="54.5076922022" lon="-2.9055566447"><ele>214</ele><time>2011-04-20T15:29:00Z</time></trkpt>
<trkpt lat="54.5077264842" lon="-2.9058433058"><ele>210</ele><time>2011-04-20T15:29:32Z</time></trkpt>
<trkpt lat="54.5077859957" lon="-2.9063527579"><ele>208</ele><time>2011-04-20T15:29:56Z</time></trkpt>
<trkpt lat="54.5078260612" lon="-2.9064683443"><ele>207</ele><time>2011-04-20T15:30:31Z</time></trkpt>
<trkpt lat="54.5078802921" lon="-2.9066558475"><ele>206</ele><time>2011-04-20T15:30:48Z</time></trkpt>
<trkpt lat="54.5079164181" lon="-2.9072176865"><ele>204</ele><time>2011-04-20T15:31:10Z</time></trkpt>
<trkpt lat="54.5079972197" lon="-2.9077570620"><ele>202</ele><time>2011-04-20T15:31:34Z</time></trkpt>
<trkpt lat="54.5081078608" lon="-2.9082865468"><ele>199</ele><time>2011-04-20T15:31:58Z</time></trkpt>
<trkpt lat="54.5082003970" lon="-2.9089114177"><ele>196</ele><time>2011-04-20T15:32:25Z</time></trkpt>
<trkpt lat="54.5082156521" lon="-2.9092019344"><ele>193</ele><time>2011-04-20T15:32:39Z</time></trkpt>
<trkpt lat="54.5082559690" lon="-2.9094717479"><ele>189</ele><time>2011-04-20T15:32:53Z</time></trkpt>
<trkpt lat="54.5083584797" lon="-2.9099692138"><ele>187</ele><time>2011-04-20T15:33:15Z</time></trkpt>
<trkpt lat="54.5084311508" lon="-2.9103702041"><ele>185</ele><time>2011-04-20T15:33:36Z</time></trkpt>
<trkpt lat="54.5085323204" lon="-2.9107638183"><ele>182</ele><time>2011-04-20T15:33:56Z</time></trkpt>
<trkpt lat="54.5086826917" lon="-2.9113894435"><ele>181</ele><time>2011-04-20T15:34:26Z</time></trkpt>
<trkpt lat="54.5087634933" lon="-2.9118636078"><ele>179</ele><time>2011-04-20T15:34:48Z</time></trkpt>
<trkpt lat="54.5087665108" lon="-2.9119188445"><ele>179</ele><time>2011-04-20T15:34:50Z</time></trkpt>
<trkpt lat="54.5087745574" lon="-2.9119941140"><ele>178</ele><time>2011-04-20T15:34:54Z</time></trkpt>
<trkpt lat="54.5087587156" lon="-2.9121171604"><ele>179</ele><time>2011-04-20T15:35:00Z</time></trkpt>
<trkpt lat="54.5087613978" lon="-2.9122379436"><ele>180</ele><time>2011-04-20T15:35:06Z</time></trkpt>
<trkpt lat="54.5087620684" lon="-2.9122568029"><ele>178</ele><time>2011-04-20T15:35:07Z</time></trkpt>
<trkpt lat="54.5087997869" lon="-2.9123329105"><ele>178</ele><time>2011-04-20T15:35:11Z</time></trkpt>
<trkpt lat="54.5088035588" lon="-2.9123511831"><ele>177</ele><time>2011-04-20T15:35:12Z</time></trkpt>
<trkpt lat="54.5088283692" lon="-2.9124505925"><ele>177</ele><time>2011-04-20T15:35:24Z</time></trkpt>
<trkpt lat="54.5089470570" lon="-2.9126995350"><ele>177</ele><time>2011-04-20T15:35:39Z</time></trkpt>
<trkpt lat="54.5089653295" lon="-2.9127490720"><ele>177</ele><time>2011-04-20T15:35:42Z</time></trkpt>
<trkpt lat="54.5090543453" lon="-2.9128898880"><ele>177</ele><time>2011-04-20T15:35:51Z</time></trkpt>
<trkpt lat="54.5091015354" lon="-2.9129882077"><ele>177</ele><time>2011-04-20T15:35:57Z</time></trkpt>
<trkpt lat="54.5092007772" lon="-2.9130283570"><ele>177</ele><time>2011-04-20T15:36:09Z</time></trkpt>
<trkpt lat="54.5092250009" lon="-2.9130196399"><ele>178</ele><time>2011-04-20T15:36:11Z</time></trkpt>
<trkpt lat="54.5092481349" lon="-2.9130185502"><ele>178</ele><time>2011-04-20T15:36:13Z</time></trkpt>
<trkpt lat="54.5092868593" lon="-2.9130675844"><ele>178</ele><time>2011-04-20T15:36:17Z</time></trkpt>
<trkpt lat="54.5093645596" lon="-2.9131988450"><ele>179</ele><time>2011-04-20T15:36:23Z</time></trkpt>
<trkpt lat="54.5095117458" lon="-2.9134422554"><ele>178</ele><time>2011-04-20T15:36:39Z</time></trkpt>
<trkpt lat="54.5096771207" lon="-2.9137655454"><ele>177</ele><time>2011-04-20T15:36:58Z</time></trkpt>
<trkpt lat="54.5097611912" lon="-2.9142499356"><ele>176</ele><time>2011-04-20T15:37:24Z</time></trkpt>
<trkpt lat="54.5099714093" lon="-2.9147879700"><ele>173</ele><time>2011-04-20T15:37:53Z</time></trkpt>
<trkpt lat="54.5100056075" lon="-2.9151683407"><ele>170</ele><time>2011-04-20T15:38:11Z</time></trkpt>
<trkpt lat="54.5100020871" lon="-2.9151918939"><ele>170</ele><time>2011-04-20T15:38:12Z</time></trkpt>
<trkpt lat="54.5100168393" lon="-2.9156072172"><ele>168</ele><time>2011-04-20T15:38:31Z</time></trkpt>
<trkpt lat="54.5101166677" lon="-2.9160360354"><ele>165</ele><time>2011-04-20T15:38:52Z</time></trkpt>
<trkpt lat="54.5101323419" lon="-2.9161709002"><ele>166</ele><time>2011-04-20T15:38:59Z</time></trkpt>
<trkpt lat="54.5101244629" lon="-2.9162589102"><ele>165</ele><time>2011-04-20T15:39:03Z</time></trkpt>
<trkpt lat="54.5101247982" lon="-2.9163433998"><ele>165</ele><time>2011-04-20T15:39:07Z</time></trkpt>
<trkpt lat="54.5102014088" lon="-2.9168771593"><ele>164</ele><time>2011-04-20T15:39:32Z</time></trkpt>
<trkpt lat="54.5103483435" lon="-2.9174742023"><ele>163</ele><time>2011-04-20T15:40:01Z</time></trkpt>
<trkpt lat="54.5103569769" lon="-2.9175164471"><ele>163</ele><time>2011-04-20T15:40:03Z</time></trkpt>
<trkpt lat="54.5103677057" lon="-2.9175720191"><ele>162</ele><time>2011-04-20T15:40:06Z</time></trkpt>
<trkpt lat="54.5104179971" lon="-2.9177608634"><ele>162</ele><time>2011-04-20T15:40:16Z</time></trkpt>
<trkpt lat="54.5104941886" lon="-2.9180480274"><ele>162</ele><time>2011-04-20T15:40:31Z</time></trkpt>
<trkpt lat="54.5105687038" lon="-2.9185461639"><ele>161</ele><time>2011-04-20T15:40:53Z</time></trkpt>
<trkpt lat="54.5106069252" lon="-2.9188687834"><ele>160</ele><time>2011-04-20T15:41:07Z</time></trkpt>
<trkpt lat="54.5106212583" lon="-2.9190769060"><ele>162</ele><time>2011-04-20T15:41:17Z</time></trkpt>
<trkpt lat="54.5106236052" lon="-2.9191196537"><ele>160</ele><time>2011-04-20T15:41:19Z</time></trkpt>
<trkpt lat="54.5106148042" lon="-2.9196944008"><ele>158</ele><time>2011-04-20T15:41:45Z</time></trkpt>
<trkpt lat="54.5106179055" lon="-2.9197262521"><ele>160</ele><time>2011-04-20T15:41:47Z</time></trkpt>
<trkpt lat="54.5106020637" lon="-2.9199178624"><ele>159</ele><time>2011-04-20T15:41:56Z</time></trkpt>
<trkpt lat="54.5105825339" lon="-2.9200364663"><ele>159</ele><time>2011-04-20T15:42:05Z</time></trkpt>
<trkpt lat="54.5107540276" lon="-2.9205153244"><ele>158</ele><time>2011-04-20T15:42:29Z</time></trkpt>
<trkpt lat="54.5109345738" lon="-2.9211190729"><ele>157</ele><time>2011-04-20T15:43:01Z</time></trkpt>
<trkpt lat="54.5111980171" lon="-2.9217261742"><ele>157</ele><time>2011-04-20T15:43:35Z</time></trkpt>
<trkpt lat="54.5115368136" lon="-2.9223368796"><ele>156</ele><time>2011-04-20T15:44:13Z</time></trkpt>
<trkpt lat="54.5118102313" lon="-2.9227921008"><ele>155</ele><time>2011-04-20T15:44:43Z</time></trkpt>
<trkpt lat="54.5120364588" lon="-2.9231774169"><ele>156</ele><time>2011-04-20T15:45:09Z</time></trkpt>
<trkpt lat="54.5120881752" lon="-2.9232857111"><ele>156</ele><time>2011-04-20T15:45:17Z</time></trkpt>
<trkpt lat="54.5121294980" lon="-2.9238017848"><ele>156</ele><time>2011-04-20T15:45:41Z</time></trkpt>
<trkpt lat="54.5121732515" lon="-2.9241224764"><ele>156</ele><time>2011-04-20T15:45:55Z</time></trkpt>
<trkpt lat="54.5121997383" lon="-2.9242709200"><ele>157</ele><time>2011-04-20T15:46:02Z</time></trkpt>
<trkpt lat="54.5122222018" lon="-2.9243674795"><ele>157</ele><time>2011-04-20T15:46:07Z</time></trkpt>
<trkpt lat="54.5122432404" lon="-2.9244005042"><ele>157</ele><time>2011-04-20T15:46:09Z</time></trkpt>
<trkpt lat="54.5123610899" lon="-2.9245093013"><ele>156</ele><time>2011-04-20T15:46:21Z</time></trkpt>
<trkpt lat="54.5124592420" lon="-2.9244627817"><ele>156</ele><time>2011-04-20T15:46:34Z</time></trkpt>
<trkpt lat="54.5124500219" lon="-2.9244310143"><ele>155</ele><time>2011-04-20T15:46:59Z</time></trkpt>
<trkpt lat="54.5124571465" lon="-2.9244098081"><ele>155</ele><time>2011-04-20T15:47:54Z</time></trkpt>
</trkseg>
</trk>
</gpx>